<?xml version="1.0" encoding="UTF-8" standalone="no" ?>
<gpx xmlns="http://www.topografix.com/GPX/1/1" xmlns:xsi="http://www.w3.org/2001/XMLSchema-instance" xsi:schemaLocation="http://www.topografix.com/GPX/1/1 http://www.topografix.com/GPX/1/1/gpx.xsd" version="1.1" creator="VisuGPX - https://www.visugpx.com">
  <metadata>
    <name>Gorges du ras de la Carança / pic du Géant</name>
    <desc><![CDATA[un premier itinéraire vous emmène de Thuès entre Valls au refuge du ras de la Carança en traversant les gorges du même nom. Le deuxième est une boucle qui part du refuge pour grimper au pic du Géant et qui suit ensuite la crête frontière jusqu'au col de la Vaca avant de redescendre au refuge. Enfin le dernier passe par le col Mitja avant de redescendre vers fontpédrouse et de revenir à Tuès. ]]></desc>
  </metadata>
  <trk>
    <name><![CDATA[Tracé actuel: 29 JUIN 2016 11:19]]></name>
    <trkseg>
      <trkpt lat="42.52235" lon="2.22192">
        <ele>863.88</ele>
        <time>2016-06-29T09:19:31Z</time>
      </trkpt>
      <trkpt lat="42.52237" lon="2.22186">
        <ele>864.84</ele>
        <time>2016-06-29T09:19:35Z</time>
      </trkpt>
      <trkpt lat="42.52212" lon="2.2218">
        <ele>863.88</ele>
        <time>2016-06-29T09:19:51Z</time>
      </trkpt>
      <trkpt lat="42.52196" lon="2.22176">
        <ele>860.52</ele>
        <time>2016-06-29T09:20:04Z</time>
      </trkpt>
      <trkpt lat="42.52191" lon="2.22172">
        <ele>860.04</ele>
        <time>2016-06-29T09:20:14Z</time>
      </trkpt>
      <trkpt lat="42.52185" lon="2.22176">
        <ele>859.08</ele>
        <time>2016-06-29T09:20:22Z</time>
      </trkpt>
      <trkpt lat="42.5218" lon="2.22178">
        <ele>858.11</ele>
        <time>2016-06-29T09:20:26Z</time>
      </trkpt>
      <trkpt lat="42.52176" lon="2.22176">
        <ele>857.15</ele>
        <time>2016-06-29T09:20:29Z</time>
      </trkpt>
      <trkpt lat="42.52174" lon="2.22175">
        <ele>856.67</ele>
        <time>2016-06-29T09:20:30Z</time>
      </trkpt>
      <trkpt lat="42.52172" lon="2.22174">
        <ele>857.63</ele>
        <time>2016-06-29T09:20:31Z</time>
      </trkpt>
      <trkpt lat="42.51861" lon="2.22252">
        <ele>878.78</ele>
        <time>2016-06-29T09:25:23Z</time>
      </trkpt>
      <trkpt lat="42.51878" lon="2.22262">
        <ele>879.26</ele>
        <time>2016-06-29T09:25:35Z</time>
      </trkpt>
      <trkpt lat="42.5188" lon="2.22272">
        <ele>880.71</ele>
        <time>2016-06-29T09:25:45Z</time>
      </trkpt>
      <trkpt lat="42.51868" lon="2.22287">
        <ele>881.19</ele>
        <time>2016-06-29T09:25:52Z</time>
      </trkpt>
      <trkpt lat="42.51854" lon="2.22294">
        <ele>882.15</ele>
        <time>2016-06-29T09:26:01Z</time>
      </trkpt>
      <trkpt lat="42.51847" lon="2.22295">
        <ele>882.15</ele>
        <time>2016-06-29T09:26:04Z</time>
      </trkpt>
      <trkpt lat="42.51845" lon="2.22298">
        <ele>882.63</ele>
        <time>2016-06-29T09:26:06Z</time>
      </trkpt>
      <trkpt lat="42.51842" lon="2.223">
        <ele>882.63</ele>
        <time>2016-06-29T09:26:08Z</time>
      </trkpt>
      <trkpt lat="42.51837" lon="2.22304">
        <ele>883.11</ele>
        <time>2016-06-29T09:26:12Z</time>
      </trkpt>
      <trkpt lat="42.51836" lon="2.22306">
        <ele>883.11</ele>
        <time>2016-06-29T09:26:14Z</time>
      </trkpt>
      <trkpt lat="42.51831" lon="2.22318">
        <ele>884.07</ele>
        <time>2016-06-29T09:26:24Z</time>
      </trkpt>
      <trkpt lat="42.51828" lon="2.22325">
        <ele>884.07</ele>
        <time>2016-06-29T09:26:30Z</time>
      </trkpt>
      <trkpt lat="42.51821" lon="2.22329">
        <ele>885.51</ele>
        <time>2016-06-29T09:26:40Z</time>
      </trkpt>
      <trkpt lat="42.51819" lon="2.22333">
        <ele>885.99</ele>
        <time>2016-06-29T09:26:46Z</time>
      </trkpt>
      <trkpt lat="42.51818" lon="2.22337">
        <ele>886.47</ele>
        <time>2016-06-29T09:26:51Z</time>
      </trkpt>
      <trkpt lat="42.51814" lon="2.22339">
        <ele>886.95</ele>
        <time>2016-06-29T09:26:55Z</time>
      </trkpt>
      <trkpt lat="42.51809" lon="2.22342">
        <ele>886.95</ele>
        <time>2016-06-29T09:27:00Z</time>
      </trkpt>
      <trkpt lat="42.51801" lon="2.2235">
        <ele>888.4</ele>
        <time>2016-06-29T09:27:11Z</time>
      </trkpt>
      <trkpt lat="42.51797" lon="2.22353">
        <ele>889.36</ele>
        <time>2016-06-29T09:27:22Z</time>
      </trkpt>
      <trkpt lat="42.51786" lon="2.22349">
        <ele>890.32</ele>
        <time>2016-06-29T09:27:31Z</time>
      </trkpt>
      <trkpt lat="42.51783" lon="2.22347">
        <ele>890.32</ele>
        <time>2016-06-29T09:27:33Z</time>
      </trkpt>
      <trkpt lat="42.5178" lon="2.22337">
        <ele>891.28</ele>
        <time>2016-06-29T09:27:46Z</time>
      </trkpt>
      <trkpt lat="42.5178" lon="2.22336">
        <ele>891.76</ele>
        <time>2016-06-29T09:27:59Z</time>
      </trkpt>
      <trkpt lat="42.51782" lon="2.22332">
        <ele>892.24</ele>
        <time>2016-06-29T09:28:03Z</time>
      </trkpt>
      <trkpt lat="42.51797" lon="2.22335">
        <ele>893.2</ele>
        <time>2016-06-29T09:28:16Z</time>
      </trkpt>
      <trkpt lat="42.51803" lon="2.22323">
        <ele>895.12</ele>
        <time>2016-06-29T09:28:30Z</time>
      </trkpt>
      <trkpt lat="42.51806" lon="2.22315">
        <ele>897.05</ele>
        <time>2016-06-29T09:28:40Z</time>
      </trkpt>
      <trkpt lat="42.51805" lon="2.22309">
        <ele>898.49</ele>
        <time>2016-06-29T09:28:51Z</time>
      </trkpt>
      <trkpt lat="42.51808" lon="2.22302">
        <ele>900.89</ele>
        <time>2016-06-29T09:29:02Z</time>
      </trkpt>
      <trkpt lat="42.51808" lon="2.22299">
        <ele>903.78</ele>
        <time>2016-06-29T09:29:07Z</time>
      </trkpt>
      <trkpt lat="42.51807" lon="2.22302">
        <ele>905.7</ele>
        <time>2016-06-29T09:29:14Z</time>
      </trkpt>
      <trkpt lat="42.51805" lon="2.22295">
        <ele>906.18</ele>
        <time>2016-06-29T09:29:29Z</time>
      </trkpt>
      <trkpt lat="42.51809" lon="2.22289">
        <ele>908.58</ele>
        <time>2016-06-29T09:29:42Z</time>
      </trkpt>
      <trkpt lat="42.51806" lon="2.22289">
        <ele>910.03</ele>
        <time>2016-06-29T09:29:54Z</time>
      </trkpt>
      <trkpt lat="42.51806" lon="2.22282">
        <ele>911.95</ele>
        <time>2016-06-29T09:30:06Z</time>
      </trkpt>
      <trkpt lat="42.51811" lon="2.22273">
        <ele>913.39</ele>
        <time>2016-06-29T09:30:17Z</time>
      </trkpt>
      <trkpt lat="42.5181" lon="2.22262">
        <ele>915.79</ele>
        <time>2016-06-29T09:30:32Z</time>
      </trkpt>
      <trkpt lat="42.5181" lon="2.22258">
        <ele>916.75</ele>
        <time>2016-06-29T09:30:38Z</time>
      </trkpt>
      <trkpt lat="42.51812" lon="2.22249">
        <ele>918.2</ele>
        <time>2016-06-29T09:30:47Z</time>
      </trkpt>
      <trkpt lat="42.51813" lon="2.22241">
        <ele>920.12</ele>
        <time>2016-06-29T09:30:58Z</time>
      </trkpt>
      <trkpt lat="42.51813" lon="2.22236">
        <ele>922.52</ele>
        <time>2016-06-29T09:31:04Z</time>
      </trkpt>
      <trkpt lat="42.51814" lon="2.22231">
        <ele>925.41</ele>
        <time>2016-06-29T09:31:10Z</time>
      </trkpt>
      <trkpt lat="42.51812" lon="2.22225">
        <ele>925.89</ele>
        <time>2016-06-29T09:31:21Z</time>
      </trkpt>
      <trkpt lat="42.51811" lon="2.22225">
        <ele>926.85</ele>
        <time>2016-06-29T09:31:30Z</time>
      </trkpt>
      <trkpt lat="42.5181" lon="2.22226">
        <ele>926.85</ele>
        <time>2016-06-29T09:31:32Z</time>
      </trkpt>
      <trkpt lat="42.51809" lon="2.22229">
        <ele>927.81</ele>
        <time>2016-06-29T09:31:35Z</time>
      </trkpt>
      <trkpt lat="42.51809" lon="2.22234">
        <ele>928.29</ele>
        <time>2016-06-29T09:31:38Z</time>
      </trkpt>
      <trkpt lat="42.51805" lon="2.22243">
        <ele>929.73</ele>
        <time>2016-06-29T09:31:49Z</time>
      </trkpt>
      <trkpt lat="42.51803" lon="2.22247">
        <ele>930.21</ele>
        <time>2016-06-29T09:31:54Z</time>
      </trkpt>
      <trkpt lat="42.51791" lon="2.22263">
        <ele>932.62</ele>
        <time>2016-06-29T09:32:08Z</time>
      </trkpt>
      <trkpt lat="42.51767" lon="2.22256">
        <ele>934.54</ele>
        <time>2016-06-29T09:32:20Z</time>
      </trkpt>
      <trkpt lat="42.51746" lon="2.22247">
        <ele>936.46</ele>
        <time>2016-06-29T09:32:32Z</time>
      </trkpt>
      <trkpt lat="42.51746" lon="2.22236">
        <ele>937.42</ele>
        <time>2016-06-29T09:32:41Z</time>
      </trkpt>
      <trkpt lat="42.51751" lon="2.22227">
        <ele>939.35</ele>
        <time>2016-06-29T09:32:52Z</time>
      </trkpt>
      <trkpt lat="42.51753" lon="2.22218">
        <ele>940.31</ele>
        <time>2016-06-29T09:33:02Z</time>
      </trkpt>
      <trkpt lat="42.51756" lon="2.22207">
        <ele>942.23</ele>
        <time>2016-06-29T09:33:14Z</time>
      </trkpt>
      <trkpt lat="42.51756" lon="2.22205">
        <ele>942.23</ele>
        <time>2016-06-29T09:33:16Z</time>
      </trkpt>
      <trkpt lat="42.51752" lon="2.22205">
        <ele>944.63</ele>
        <time>2016-06-29T09:33:27Z</time>
      </trkpt>
      <trkpt lat="42.51749" lon="2.2221">
        <ele>945.59</ele>
        <time>2016-06-29T09:33:36Z</time>
      </trkpt>
      <trkpt lat="42.51743" lon="2.22217">
        <ele>947.52</ele>
        <time>2016-06-29T09:33:46Z</time>
      </trkpt>
      <trkpt lat="42.51736" lon="2.22221">
        <ele>948.96</ele>
        <time>2016-06-29T09:33:54Z</time>
      </trkpt>
      <trkpt lat="42.51733" lon="2.22222">
        <ele>949.44</ele>
        <time>2016-06-29T09:33:57Z</time>
      </trkpt>
      <trkpt lat="42.51726" lon="2.22226">
        <ele>950.4</ele>
        <time>2016-06-29T09:34:03Z</time>
      </trkpt>
      <trkpt lat="42.51712" lon="2.2223">
        <ele>952.32</ele>
        <time>2016-06-29T09:34:15Z</time>
      </trkpt>
      <trkpt lat="42.517" lon="2.22229">
        <ele>953.77</ele>
        <time>2016-06-29T09:34:27Z</time>
      </trkpt>
      <trkpt lat="42.51698" lon="2.2223">
        <ele>954.73</ele>
        <time>2016-06-29T09:34:29Z</time>
      </trkpt>
      <trkpt lat="42.51689" lon="2.22228">
        <ele>957.61</ele>
        <time>2016-06-29T09:34:42Z</time>
      </trkpt>
      <trkpt lat="42.51685" lon="2.22229">
        <ele>960.49</ele>
        <time>2016-06-29T09:34:47Z</time>
      </trkpt>
      <trkpt lat="42.5168" lon="2.22224">
        <ele>962.9</ele>
        <time>2016-06-29T09:34:58Z</time>
      </trkpt>
      <trkpt lat="42.51678" lon="2.22221">
        <ele>963.38</ele>
        <time>2016-06-29T09:35:09Z</time>
      </trkpt>
      <trkpt lat="42.51673" lon="2.22218">
        <ele>964.82</ele>
        <time>2016-06-29T09:35:19Z</time>
      </trkpt>
      <trkpt lat="42.51671" lon="2.22217">
        <ele>966.26</ele>
        <time>2016-06-29T09:35:32Z</time>
      </trkpt>
      <trkpt lat="42.51669" lon="2.22221">
        <ele>969.63</ele>
        <time>2016-06-29T09:35:38Z</time>
      </trkpt>
      <trkpt lat="42.51666" lon="2.22229">
        <ele>972.03</ele>
        <time>2016-06-29T09:35:50Z</time>
      </trkpt>
      <trkpt lat="42.51661" lon="2.22228">
        <ele>972.03</ele>
        <time>2016-06-29T09:36:03Z</time>
      </trkpt>
      <trkpt lat="42.51657" lon="2.22212">
        <ele>973.47</ele>
        <time>2016-06-29T09:36:12Z</time>
      </trkpt>
      <trkpt lat="42.51658" lon="2.22205">
        <ele>975.88</ele>
        <time>2016-06-29T09:36:24Z</time>
      </trkpt>
      <trkpt lat="42.51658" lon="2.22204">
        <ele>976.36</ele>
        <time>2016-06-29T09:36:25Z</time>
      </trkpt>
      <trkpt lat="42.51649" lon="2.22199">
        <ele>977.8</ele>
        <time>2016-06-29T09:36:36Z</time>
      </trkpt>
      <trkpt lat="42.51647" lon="2.22209">
        <ele>979.72</ele>
        <time>2016-06-29T09:36:46Z</time>
      </trkpt>
      <trkpt lat="42.51647" lon="2.22211">
        <ele>979.72</ele>
        <time>2016-06-29T09:36:47Z</time>
      </trkpt>
      <trkpt lat="42.5164" lon="2.22215">
        <ele>983.57</ele>
        <time>2016-06-29T09:36:56Z</time>
      </trkpt>
      <trkpt lat="42.51626" lon="2.22217">
        <ele>984.05</ele>
        <time>2016-06-29T09:37:07Z</time>
      </trkpt>
      <trkpt lat="42.5161" lon="2.22213">
        <ele>985.49</ele>
        <time>2016-06-29T09:37:20Z</time>
      </trkpt>
      <trkpt lat="42.51602" lon="2.22213">
        <ele>986.93</ele>
        <time>2016-06-29T09:37:31Z</time>
      </trkpt>
      <trkpt lat="42.516" lon="2.22214">
        <ele>987.89</ele>
        <time>2016-06-29T09:37:35Z</time>
      </trkpt>
      <trkpt lat="42.51599" lon="2.22218">
        <ele>988.85</ele>
        <time>2016-06-29T09:37:46Z</time>
      </trkpt>
      <trkpt lat="42.51599" lon="2.22223">
        <ele>990.3</ele>
        <time>2016-06-29T09:37:55Z</time>
      </trkpt>
      <trkpt lat="42.51605" lon="2.22229">
        <ele>992.22</ele>
        <time>2016-06-29T09:38:06Z</time>
      </trkpt>
      <trkpt lat="42.51607" lon="2.22232">
        <ele>992.7</ele>
        <time>2016-06-29T09:38:10Z</time>
      </trkpt>
      <trkpt lat="42.51608" lon="2.22229">
        <ele>995.58</ele>
        <time>2016-06-29T09:38:23Z</time>
      </trkpt>
      <trkpt lat="42.51609" lon="2.22228">
        <ele>997.51</ele>
        <time>2016-06-29T09:38:36Z</time>
      </trkpt>
      <trkpt lat="42.51606" lon="2.2222">
        <ele>999.43</ele>
        <time>2016-06-29T09:38:46Z</time>
      </trkpt>
      <trkpt lat="42.51604" lon="2.22216">
        <ele>1000.39</ele>
        <time>2016-06-29T09:38:57Z</time>
      </trkpt>
      <trkpt lat="42.516" lon="2.22212">
        <ele>1001.83</ele>
        <time>2016-06-29T09:39:08Z</time>
      </trkpt>
      <trkpt lat="42.51589" lon="2.22205">
        <ele>1002.31</ele>
        <time>2016-06-29T09:39:19Z</time>
      </trkpt>
      <trkpt lat="42.51589" lon="2.22204">
        <ele>1002.31</ele>
        <time>2016-06-29T09:39:27Z</time>
      </trkpt>
      <trkpt lat="42.51585" lon="2.22203">
        <ele>1002.31</ele>
        <time>2016-06-29T09:39:31Z</time>
      </trkpt>
      <trkpt lat="42.51578" lon="2.22206">
        <ele>1002.79</ele>
        <time>2016-06-29T09:39:41Z</time>
      </trkpt>
      <trkpt lat="42.51563" lon="2.22209">
        <ele>1002.79</ele>
        <time>2016-06-29T09:39:53Z</time>
      </trkpt>
      <trkpt lat="42.51547" lon="2.22206">
        <ele>1002.79</ele>
        <time>2016-06-29T09:40:05Z</time>
      </trkpt>
      <trkpt lat="42.51545" lon="2.22205">
        <ele>1002.79</ele>
        <time>2016-06-29T09:40:07Z</time>
      </trkpt>
      <trkpt lat="42.51535" lon="2.22206">
        <ele>1002.79</ele>
        <time>2016-06-29T09:40:16Z</time>
      </trkpt>
      <trkpt lat="42.51531" lon="2.22208">
        <ele>1002.79</ele>
        <time>2016-06-29T09:40:19Z</time>
      </trkpt>
      <trkpt lat="42.51525" lon="2.22213">
        <ele>1002.79</ele>
        <time>2016-06-29T09:40:25Z</time>
      </trkpt>
      <trkpt lat="42.51516" lon="2.22213">
        <ele>1002.79</ele>
        <time>2016-06-29T09:40:33Z</time>
      </trkpt>
      <trkpt lat="42.51502" lon="2.22213">
        <ele>1002.79</ele>
        <time>2016-06-29T09:40:46Z</time>
      </trkpt>
      <trkpt lat="42.51499" lon="2.22212">
        <ele>1002.79</ele>
        <time>2016-06-29T09:40:48Z</time>
      </trkpt>
      <trkpt lat="42.51496" lon="2.22209">
        <ele>1002.79</ele>
        <time>2016-06-29T09:40:50Z</time>
      </trkpt>
      <trkpt lat="42.5149" lon="2.22203">
        <ele>1002.79</ele>
        <time>2016-06-29T09:40:56Z</time>
      </trkpt>
      <trkpt lat="42.51475" lon="2.22201">
        <ele>1003.75</ele>
        <time>2016-06-29T09:41:10Z</time>
      </trkpt>
      <trkpt lat="42.51471" lon="2.222">
        <ele>1004.23</ele>
        <time>2016-06-29T09:41:14Z</time>
      </trkpt>
      <trkpt lat="42.51465" lon="2.22202">
        <ele>1004.72</ele>
        <time>2016-06-29T09:41:21Z</time>
      </trkpt>
      <trkpt lat="42.51461" lon="2.22206">
        <ele>1004.72</ele>
        <time>2016-06-29T09:41:26Z</time>
      </trkpt>
      <trkpt lat="42.51459" lon="2.22205">
        <ele>1004.72</ele>
        <time>2016-06-29T09:41:28Z</time>
      </trkpt>
      <trkpt lat="42.51444" lon="2.22211">
        <ele>1005.2</ele>
        <time>2016-06-29T09:41:39Z</time>
      </trkpt>
      <trkpt lat="42.51435" lon="2.22209">
        <ele>1005.2</ele>
        <time>2016-06-29T09:41:46Z</time>
      </trkpt>
      <trkpt lat="42.5143" lon="2.22209">
        <ele>1005.68</ele>
        <time>2016-06-29T09:41:49Z</time>
      </trkpt>
      <trkpt lat="42.51423" lon="2.22208">
        <ele>1005.68</ele>
        <time>2016-06-29T09:41:53Z</time>
      </trkpt>
      <trkpt lat="42.51405" lon="2.22205">
        <ele>1006.16</ele>
        <time>2016-06-29T09:42:04Z</time>
      </trkpt>
      <trkpt lat="42.51392" lon="2.222">
        <ele>1006.64</ele>
        <time>2016-06-29T09:42:16Z</time>
      </trkpt>
      <trkpt lat="42.51389" lon="2.22201">
        <ele>1007.12</ele>
        <time>2016-06-29T09:42:27Z</time>
      </trkpt>
      <trkpt lat="42.5138" lon="2.22201">
        <ele>1007.6</ele>
        <time>2016-06-29T09:42:35Z</time>
      </trkpt>
      <trkpt lat="42.51369" lon="2.22205">
        <ele>1008.08</ele>
        <time>2016-06-29T09:42:45Z</time>
      </trkpt>
      <trkpt lat="42.51368" lon="2.22206">
        <ele>1008.08</ele>
        <time>2016-06-29T09:42:46Z</time>
      </trkpt>
      <trkpt lat="42.51362" lon="2.22218">
        <ele>1008.08</ele>
        <time>2016-06-29T09:42:56Z</time>
      </trkpt>
      <trkpt lat="42.51359" lon="2.22227">
        <ele>1008.08</ele>
        <time>2016-06-29T09:43:01Z</time>
      </trkpt>
      <trkpt lat="42.51357" lon="2.22227">
        <ele>1008.56</ele>
        <time>2016-06-29T09:43:03Z</time>
      </trkpt>
      <trkpt lat="42.51356" lon="2.22229">
        <ele>1008.56</ele>
        <time>2016-06-29T09:43:05Z</time>
      </trkpt>
      <trkpt lat="42.51353" lon="2.22232">
        <ele>1008.56</ele>
        <time>2016-06-29T09:43:10Z</time>
      </trkpt>
      <trkpt lat="42.51347" lon="2.22241">
        <ele>1009.04</ele>
        <time>2016-06-29T09:43:21Z</time>
      </trkpt>
      <trkpt lat="42.51347" lon="2.22246">
        <ele>1009.52</ele>
        <time>2016-06-29T09:43:24Z</time>
      </trkpt>
      <trkpt lat="42.51349" lon="2.22264">
        <ele>1010</ele>
        <time>2016-06-29T09:43:35Z</time>
      </trkpt>
      <trkpt lat="42.5135" lon="2.22268">
        <ele>1010</ele>
        <time>2016-06-29T09:43:37Z</time>
      </trkpt>
      <trkpt lat="42.51351" lon="2.22275">
        <ele>1010</ele>
        <time>2016-06-29T09:43:40Z</time>
      </trkpt>
      <trkpt lat="42.51352" lon="2.22278">
        <ele>1010</ele>
        <time>2016-06-29T09:43:42Z</time>
      </trkpt>
      <trkpt lat="42.51355" lon="2.22298">
        <ele>1010</ele>
        <time>2016-06-29T09:43:53Z</time>
      </trkpt>
      <trkpt lat="42.51357" lon="2.22308">
        <ele>1010</ele>
        <time>2016-06-29T09:43:58Z</time>
      </trkpt>
      <trkpt lat="42.51356" lon="2.2232">
        <ele>1010</ele>
        <time>2016-06-29T09:44:05Z</time>
      </trkpt>
      <trkpt lat="42.51356" lon="2.22323">
        <ele>1010</ele>
        <time>2016-06-29T09:44:07Z</time>
      </trkpt>
      <trkpt lat="42.51357" lon="2.2233">
        <ele>1010.48</ele>
        <time>2016-06-29T09:44:11Z</time>
      </trkpt>
      <trkpt lat="42.51357" lon="2.22337">
        <ele>1010.48</ele>
        <time>2016-06-29T09:44:15Z</time>
      </trkpt>
      <trkpt lat="42.51348" lon="2.22351">
        <ele>1010.48</ele>
        <time>2016-06-29T09:44:27Z</time>
      </trkpt>
      <trkpt lat="42.51346" lon="2.22363">
        <ele>1010.48</ele>
        <time>2016-06-29T09:44:34Z</time>
      </trkpt>
      <trkpt lat="42.51337" lon="2.22375">
        <ele>1010</ele>
        <time>2016-06-29T09:44:46Z</time>
      </trkpt>
      <trkpt lat="42.51332" lon="2.22386">
        <ele>1010</ele>
        <time>2016-06-29T09:44:58Z</time>
      </trkpt>
      <trkpt lat="42.51349" lon="2.22445">
        <ele>1010.96</ele>
        <time>2016-06-29T09:45:22Z</time>
      </trkpt>
      <trkpt lat="42.51365" lon="2.22477">
        <ele>1010.48</ele>
        <time>2016-06-29T09:45:42Z</time>
      </trkpt>
      <trkpt lat="42.51366" lon="2.22486">
        <ele>1010.48</ele>
        <time>2016-06-29T09:45:59Z</time>
      </trkpt>
      <trkpt lat="42.51368" lon="2.22498">
        <ele>1010.48</ele>
        <time>2016-06-29T09:46:18Z</time>
      </trkpt>
      <trkpt lat="42.51349" lon="2.22517">
        <ele>1010.48</ele>
        <time>2016-06-29T09:46:36Z</time>
      </trkpt>
      <trkpt lat="42.51349" lon="2.22534">
        <ele>1010.48</ele>
        <time>2016-06-29T09:46:47Z</time>
      </trkpt>
      <trkpt lat="42.51337" lon="2.22549">
        <ele>1010.48</ele>
        <time>2016-06-29T09:47:02Z</time>
      </trkpt>
      <trkpt lat="42.51335" lon="2.22552">
        <ele>1010.48</ele>
        <time>2016-06-29T09:47:05Z</time>
      </trkpt>
      <trkpt lat="42.51328" lon="2.22569">
        <ele>1010.48</ele>
        <time>2016-06-29T09:47:21Z</time>
      </trkpt>
      <trkpt lat="42.51321" lon="2.22578">
        <ele>1010.48</ele>
        <time>2016-06-29T09:47:34Z</time>
      </trkpt>
      <trkpt lat="42.5132" lon="2.22577">
        <ele>1010.48</ele>
        <time>2016-06-29T09:47:36Z</time>
      </trkpt>
      <trkpt lat="42.5131" lon="2.22583">
        <ele>1010.48</ele>
        <time>2016-06-29T09:47:49Z</time>
      </trkpt>
      <trkpt lat="42.51308" lon="2.22588">
        <ele>1010.48</ele>
        <time>2016-06-29T09:47:51Z</time>
      </trkpt>
      <trkpt lat="42.51263" lon="2.225">
        <ele>1010.48</ele>
        <time>2016-06-29T09:47:59Z</time>
      </trkpt>
      <trkpt lat="42.51253" lon="2.22473">
        <ele>1010.48</ele>
        <time>2016-06-29T09:48:02Z</time>
      </trkpt>
      <trkpt lat="42.51244" lon="2.22449">
        <ele>1010.48</ele>
        <time>2016-06-29T09:48:08Z</time>
      </trkpt>
      <trkpt lat="42.51244" lon="2.22447">
        <ele>1010.48</ele>
        <time>2016-06-29T09:48:09Z</time>
      </trkpt>
      <trkpt lat="42.51234" lon="2.22398">
        <ele>1010.48</ele>
        <time>2016-06-29T09:48:17Z</time>
      </trkpt>
      <trkpt lat="42.51233" lon="2.22394">
        <ele>1010.48</ele>
        <time>2016-06-29T09:48:22Z</time>
      </trkpt>
      <trkpt lat="42.5123" lon="2.22398">
        <ele>1010.48</ele>
        <time>2016-06-29T09:48:26Z</time>
      </trkpt>
      <trkpt lat="42.51235" lon="2.22436">
        <ele>1010.48</ele>
        <time>2016-06-29T09:48:35Z</time>
      </trkpt>
      <trkpt lat="42.51257" lon="2.22569">
        <ele>1010.48</ele>
        <time>2016-06-29T09:48:55Z</time>
      </trkpt>
      <trkpt lat="42.51256" lon="2.22571">
        <ele>1010.48</ele>
        <time>2016-06-29T09:48:58Z</time>
      </trkpt>
      <trkpt lat="42.51259" lon="2.22589">
        <ele>1010.48</ele>
        <time>2016-06-29T09:49:10Z</time>
      </trkpt>
      <trkpt lat="42.51253" lon="2.22597">
        <ele>1010.48</ele>
        <time>2016-06-29T09:49:23Z</time>
      </trkpt>
      <trkpt lat="42.51245" lon="2.22609">
        <ele>1010.48</ele>
        <time>2016-06-29T09:49:36Z</time>
      </trkpt>
      <trkpt lat="42.51226" lon="2.22613">
        <ele>1010.48</ele>
        <time>2016-06-29T09:49:50Z</time>
      </trkpt>
      <trkpt lat="42.51229" lon="2.22614">
        <ele>1010.48</ele>
        <time>2016-06-29T09:49:54Z</time>
      </trkpt>
      <trkpt lat="42.5121" lon="2.22601">
        <ele>1010.96</ele>
        <time>2016-06-29T09:50:09Z</time>
      </trkpt>
      <trkpt lat="42.51197" lon="2.22595">
        <ele>1010.96</ele>
        <time>2016-06-29T09:50:19Z</time>
      </trkpt>
      <trkpt lat="42.5118" lon="2.22589">
        <ele>1010.96</ele>
        <time>2016-06-29T09:50:34Z</time>
      </trkpt>
      <trkpt lat="42.51178" lon="2.22591">
        <ele>1010.96</ele>
        <time>2016-06-29T09:50:36Z</time>
      </trkpt>
      <trkpt lat="42.51175" lon="2.22591">
        <ele>1010.96</ele>
        <time>2016-06-29T09:50:38Z</time>
      </trkpt>
      <trkpt lat="42.51172" lon="2.22585">
        <ele>1010.96</ele>
        <time>2016-06-29T09:50:41Z</time>
      </trkpt>
      <trkpt lat="42.51109" lon="2.22444">
        <ele>1010.96</ele>
        <time>2016-06-29T09:50:54Z</time>
      </trkpt>
      <trkpt lat="42.51104" lon="2.22433">
        <ele>1010.96</ele>
        <time>2016-06-29T09:50:55Z</time>
      </trkpt>
      <trkpt lat="42.51101" lon="2.22395">
        <ele>1010.96</ele>
        <time>2016-06-29T09:51:10Z</time>
      </trkpt>
      <trkpt lat="42.5109" lon="2.22388">
        <ele>1010.96</ele>
        <time>2016-06-29T09:51:21Z</time>
      </trkpt>
      <trkpt lat="42.51075" lon="2.22365">
        <ele>1010.96</ele>
        <time>2016-06-29T09:51:29Z</time>
      </trkpt>
      <trkpt lat="42.51068" lon="2.22381">
        <ele>1010.96</ele>
        <time>2016-06-29T09:51:40Z</time>
      </trkpt>
      <trkpt lat="42.51071" lon="2.22401">
        <ele>1010.96</ele>
        <time>2016-06-29T09:51:44Z</time>
      </trkpt>
      <trkpt lat="42.5107" lon="2.22412">
        <ele>1010.96</ele>
        <time>2016-06-29T09:51:49Z</time>
      </trkpt>
      <trkpt lat="42.51053" lon="2.2241">
        <ele>1010.96</ele>
        <time>2016-06-29T09:52:02Z</time>
      </trkpt>
      <trkpt lat="42.51048" lon="2.22408">
        <ele>1010.96</ele>
        <time>2016-06-29T09:52:05Z</time>
      </trkpt>
      <trkpt lat="42.51039" lon="2.22402">
        <ele>1011.44</ele>
        <time>2016-06-29T09:52:14Z</time>
      </trkpt>
      <trkpt lat="42.51037" lon="2.22397">
        <ele>1011.44</ele>
        <time>2016-06-29T09:52:17Z</time>
      </trkpt>
      <trkpt lat="42.51033" lon="2.22396">
        <ele>1011.44</ele>
        <time>2016-06-29T09:52:23Z</time>
      </trkpt>
      <trkpt lat="42.51033" lon="2.22399">
        <ele>1011.44</ele>
        <time>2016-06-29T09:52:25Z</time>
      </trkpt>
      <trkpt lat="42.51028" lon="2.22402">
        <ele>1011.44</ele>
        <time>2016-06-29T09:52:29Z</time>
      </trkpt>
      <trkpt lat="42.51024" lon="2.22404">
        <ele>1011.44</ele>
        <time>2016-06-29T09:52:33Z</time>
      </trkpt>
      <trkpt lat="42.51019" lon="2.22402">
        <ele>1011.44</ele>
        <time>2016-06-29T09:52:38Z</time>
      </trkpt>
      <trkpt lat="42.5101" lon="2.22401">
        <ele>1011.44</ele>
        <time>2016-06-29T09:52:46Z</time>
      </trkpt>
      <trkpt lat="42.51005" lon="2.2241">
        <ele>1011.93</ele>
        <time>2016-06-29T09:52:55Z</time>
      </trkpt>
      <trkpt lat="42.51003" lon="2.22415">
        <ele>1011.93</ele>
        <time>2016-06-29T09:52:58Z</time>
      </trkpt>
      <trkpt lat="42.51001" lon="2.22417">
        <ele>1011.93</ele>
        <time>2016-06-29T09:53:00Z</time>
      </trkpt>
      <trkpt lat="42.50988" lon="2.22421">
        <ele>1012.41</ele>
        <time>2016-06-29T09:53:11Z</time>
      </trkpt>
      <trkpt lat="42.50977" lon="2.22432">
        <ele>1012.41</ele>
        <time>2016-06-29T09:53:25Z</time>
      </trkpt>
      <trkpt lat="42.50969" lon="2.22448">
        <ele>1013.37</ele>
        <time>2016-06-29T09:53:35Z</time>
      </trkpt>
      <trkpt lat="42.50968" lon="2.22449">
        <ele>1013.37</ele>
        <time>2016-06-29T09:53:36Z</time>
      </trkpt>
      <trkpt lat="42.50962" lon="2.22453">
        <ele>1013.37</ele>
        <time>2016-06-29T09:53:49Z</time>
      </trkpt>
      <trkpt lat="42.50961" lon="2.22466">
        <ele>1013.37</ele>
        <time>2016-06-29T09:53:54Z</time>
      </trkpt>
      <trkpt lat="42.50951" lon="2.22461">
        <ele>1013.37</ele>
        <time>2016-06-29T09:54:07Z</time>
      </trkpt>
      <trkpt lat="42.50947" lon="2.22449">
        <ele>1013.37</ele>
        <time>2016-06-29T09:54:10Z</time>
      </trkpt>
      <trkpt lat="42.50949" lon="2.22433">
        <ele>1013.37</ele>
        <time>2016-06-29T09:54:22Z</time>
      </trkpt>
      <trkpt lat="42.50946" lon="2.22429">
        <ele>1013.37</ele>
        <time>2016-06-29T09:54:27Z</time>
      </trkpt>
      <trkpt lat="42.50942" lon="2.22426">
        <ele>1013.37</ele>
        <time>2016-06-29T09:54:29Z</time>
      </trkpt>
      <trkpt lat="42.50939" lon="2.22425">
        <ele>1013.37</ele>
        <time>2016-06-29T09:54:30Z</time>
      </trkpt>
      <trkpt lat="42.50934" lon="2.22423">
        <ele>1013.37</ele>
        <time>2016-06-29T09:54:33Z</time>
      </trkpt>
      <trkpt lat="42.50923" lon="2.22436">
        <ele>1013.37</ele>
        <time>2016-06-29T09:54:46Z</time>
      </trkpt>
      <trkpt lat="42.5092" lon="2.22442">
        <ele>1013.37</ele>
        <time>2016-06-29T09:54:50Z</time>
      </trkpt>
      <trkpt lat="42.50908" lon="2.22449">
        <ele>1013.37</ele>
        <time>2016-06-29T09:55:04Z</time>
      </trkpt>
      <trkpt lat="42.50908" lon="2.22469">
        <ele>1013.37</ele>
        <time>2016-06-29T09:55:17Z</time>
      </trkpt>
      <trkpt lat="42.50909" lon="2.22459">
        <ele>1012.41</ele>
        <time>2016-06-29T09:55:31Z</time>
      </trkpt>
      <trkpt lat="42.50914" lon="2.22459">
        <ele>1012.41</ele>
        <time>2016-06-29T09:55:38Z</time>
      </trkpt>
      <trkpt lat="42.50903" lon="2.2247">
        <ele>1011.93</ele>
        <time>2016-06-29T09:55:51Z</time>
      </trkpt>
      <trkpt lat="42.50879" lon="2.22478">
        <ele>1011.93</ele>
        <time>2016-06-29T09:56:01Z</time>
      </trkpt>
      <trkpt lat="42.50882" lon="2.2249">
        <ele>1011.93</ele>
        <time>2016-06-29T09:56:06Z</time>
      </trkpt>
      <trkpt lat="42.50883" lon="2.22503">
        <ele>1011.93</ele>
        <time>2016-06-29T09:56:13Z</time>
      </trkpt>
      <trkpt lat="42.50884" lon="2.22504">
        <ele>1011.93</ele>
        <time>2016-06-29T09:56:14Z</time>
      </trkpt>
      <trkpt lat="42.50881" lon="2.22512">
        <ele>1011.93</ele>
        <time>2016-06-29T09:56:20Z</time>
      </trkpt>
      <trkpt lat="42.50882" lon="2.22517">
        <ele>1011.93</ele>
        <time>2016-06-29T09:56:24Z</time>
      </trkpt>
      <trkpt lat="42.50879" lon="2.22529">
        <ele>1013.37</ele>
        <time>2016-06-29T09:56:38Z</time>
      </trkpt>
      <trkpt lat="42.50876" lon="2.22536">
        <ele>1013.37</ele>
        <time>2016-06-29T09:56:49Z</time>
      </trkpt>
      <trkpt lat="42.50877" lon="2.22541">
        <ele>1013.37</ele>
        <time>2016-06-29T09:56:52Z</time>
      </trkpt>
      <trkpt lat="42.50876" lon="2.2255">
        <ele>1013.85</ele>
        <time>2016-06-29T09:56:57Z</time>
      </trkpt>
      <trkpt lat="42.50872" lon="2.22557">
        <ele>1013.85</ele>
        <time>2016-06-29T09:57:03Z</time>
      </trkpt>
      <trkpt lat="42.50859" lon="2.22561">
        <ele>1013.85</ele>
        <time>2016-06-29T09:57:16Z</time>
      </trkpt>
      <trkpt lat="42.50855" lon="2.22568">
        <ele>1013.85</ele>
        <time>2016-06-29T09:57:28Z</time>
      </trkpt>
      <trkpt lat="42.50856" lon="2.22569">
        <ele>1013.85</ele>
        <time>2016-06-29T09:57:29Z</time>
      </trkpt>
      <trkpt lat="42.5086" lon="2.2258">
        <ele>1013.85</ele>
        <time>2016-06-29T09:57:38Z</time>
      </trkpt>
      <trkpt lat="42.50865" lon="2.22598">
        <ele>1013.85</ele>
        <time>2016-06-29T09:57:52Z</time>
      </trkpt>
      <trkpt lat="42.50871" lon="2.22607">
        <ele>1013.85</ele>
        <time>2016-06-29T09:58:01Z</time>
      </trkpt>
      <trkpt lat="42.50875" lon="2.22617">
        <ele>1013.85</ele>
        <time>2016-06-29T09:58:09Z</time>
      </trkpt>
      <trkpt lat="42.50869" lon="2.22625">
        <ele>1013.85</ele>
        <time>2016-06-29T09:58:13Z</time>
      </trkpt>
      <trkpt lat="42.50869" lon="2.22629">
        <ele>1013.85</ele>
        <time>2016-06-29T09:58:16Z</time>
      </trkpt>
      <trkpt lat="42.50869" lon="2.22636">
        <ele>1013.85</ele>
        <time>2016-06-29T09:58:21Z</time>
      </trkpt>
      <trkpt lat="42.5087" lon="2.22646">
        <ele>1013.85</ele>
        <time>2016-06-29T09:58:29Z</time>
      </trkpt>
      <trkpt lat="42.5087" lon="2.22657">
        <ele>1013.85</ele>
        <time>2016-06-29T09:58:35Z</time>
      </trkpt>
      <trkpt lat="42.50865" lon="2.22673">
        <ele>1013.85</ele>
        <time>2016-06-29T09:58:45Z</time>
      </trkpt>
      <trkpt lat="42.50866" lon="2.22678">
        <ele>1013.85</ele>
        <time>2016-06-29T09:58:49Z</time>
      </trkpt>
      <trkpt lat="42.50865" lon="2.22681">
        <ele>1013.85</ele>
        <time>2016-06-29T09:58:51Z</time>
      </trkpt>
      <trkpt lat="42.50879" lon="2.22693">
        <ele>1012.41</ele>
        <time>2016-06-29T09:59:03Z</time>
      </trkpt>
      <trkpt lat="42.5088" lon="2.22702">
        <ele>1012.41</ele>
        <time>2016-06-29T09:59:13Z</time>
      </trkpt>
      <trkpt lat="42.5088" lon="2.22709">
        <ele>1012.41</ele>
        <time>2016-06-29T09:59:20Z</time>
      </trkpt>
      <trkpt lat="42.50881" lon="2.22716">
        <ele>1012.41</ele>
        <time>2016-06-29T09:59:25Z</time>
      </trkpt>
      <trkpt lat="42.50868" lon="2.22738">
        <ele>1012.41</ele>
        <time>2016-06-29T09:59:38Z</time>
      </trkpt>
      <trkpt lat="42.50868" lon="2.22744">
        <ele>1011.93</ele>
        <time>2016-06-29T09:59:42Z</time>
      </trkpt>
      <trkpt lat="42.50869" lon="2.22757">
        <ele>1011.93</ele>
        <time>2016-06-29T09:59:54Z</time>
      </trkpt>
      <trkpt lat="42.50866" lon="2.22761">
        <ele>1011.93</ele>
        <time>2016-06-29T10:00:07Z</time>
      </trkpt>
      <trkpt lat="42.50864" lon="2.22762">
        <ele>1013.37</ele>
        <time>2016-06-29T10:00:10Z</time>
      </trkpt>
      <trkpt lat="42.50854" lon="2.2277">
        <ele>1014.33</ele>
        <time>2016-06-29T10:00:19Z</time>
      </trkpt>
      <trkpt lat="42.50841" lon="2.22783">
        <ele>1014.81</ele>
        <time>2016-06-29T10:00:31Z</time>
      </trkpt>
      <trkpt lat="42.50831" lon="2.22789">
        <ele>1014.81</ele>
        <time>2016-06-29T10:00:44Z</time>
      </trkpt>
      <trkpt lat="42.50829" lon="2.2279">
        <ele>1014.81</ele>
        <time>2016-06-29T10:01:00Z</time>
      </trkpt>
      <trkpt lat="42.50827" lon="2.2279">
        <ele>1014.81</ele>
        <time>2016-06-29T10:01:25Z</time>
      </trkpt>
      <trkpt lat="42.50826" lon="2.22791">
        <ele>1014.33</ele>
        <time>2016-06-29T10:01:42Z</time>
      </trkpt>
      <trkpt lat="42.50825" lon="2.22792">
        <ele>1014.33</ele>
        <time>2016-06-29T10:01:52Z</time>
      </trkpt>
      <trkpt lat="42.50821" lon="2.22801">
        <ele>1014.33</ele>
        <time>2016-06-29T10:02:04Z</time>
      </trkpt>
      <trkpt lat="42.50824" lon="2.22809">
        <ele>1014.33</ele>
        <time>2016-06-29T10:02:16Z</time>
      </trkpt>
      <trkpt lat="42.50821" lon="2.2282">
        <ele>1014.33</ele>
        <time>2016-06-29T10:02:26Z</time>
      </trkpt>
      <trkpt lat="42.50822" lon="2.2282">
        <ele>1014.33</ele>
        <time>2016-06-29T10:02:29Z</time>
      </trkpt>
      <trkpt lat="42.50831" lon="2.22822">
        <ele>1014.33</ele>
        <time>2016-06-29T10:02:41Z</time>
      </trkpt>
      <trkpt lat="42.50831" lon="2.22819">
        <ele>1014.81</ele>
        <time>2016-06-29T10:02:53Z</time>
      </trkpt>
      <trkpt lat="42.50833" lon="2.2282">
        <ele>1014.81</ele>
        <time>2016-06-29T10:03:05Z</time>
      </trkpt>
      <trkpt lat="42.50833" lon="2.22823">
        <ele>1014.33</ele>
        <time>2016-06-29T10:03:20Z</time>
      </trkpt>
      <trkpt lat="42.50833" lon="2.22823">
        <ele>1014.33</ele>
        <time>2016-06-29T10:03:24Z</time>
      </trkpt>
      <trkpt lat="42.50832" lon="2.22824">
        <ele>1014.33</ele>
        <time>2016-06-29T10:03:35Z</time>
      </trkpt>
      <trkpt lat="42.50832" lon="2.22824">
        <ele>1014.33</ele>
        <time>2016-06-29T10:03:36Z</time>
      </trkpt>
      <trkpt lat="42.50835" lon="2.22836">
        <ele>1012.89</ele>
        <time>2016-06-29T10:03:46Z</time>
      </trkpt>
      <trkpt lat="42.50843" lon="2.22842">
        <ele>1012.89</ele>
        <time>2016-06-29T10:03:58Z</time>
      </trkpt>
      <trkpt lat="42.50843" lon="2.22842">
        <ele>1012.89</ele>
        <time>2016-06-29T10:04:00Z</time>
      </trkpt>
      <trkpt lat="42.50845" lon="2.22838">
        <ele>1012.41</ele>
        <time>2016-06-29T10:04:11Z</time>
      </trkpt>
      <trkpt lat="42.50844" lon="2.22838">
        <ele>1012.41</ele>
        <time>2016-06-29T10:04:16Z</time>
      </trkpt>
      <trkpt lat="42.50841" lon="2.22843">
        <ele>1012.41</ele>
        <time>2016-06-29T10:04:20Z</time>
      </trkpt>
      <trkpt lat="42.50835" lon="2.22854">
        <ele>1012.41</ele>
        <time>2016-06-29T10:04:28Z</time>
      </trkpt>
      <trkpt lat="42.50839" lon="2.22864">
        <ele>1012.41</ele>
        <time>2016-06-29T10:04:35Z</time>
      </trkpt>
      <trkpt lat="42.50841" lon="2.22869">
        <ele>1013.85</ele>
        <time>2016-06-29T10:04:39Z</time>
      </trkpt>
      <trkpt lat="42.50841" lon="2.2287">
        <ele>1013.85</ele>
        <time>2016-06-29T10:04:40Z</time>
      </trkpt>
      <trkpt lat="42.50846" lon="2.22882">
        <ele>1013.37</ele>
        <time>2016-06-29T10:04:50Z</time>
      </trkpt>
      <trkpt lat="42.50844" lon="2.22886">
        <ele>1014.33</ele>
        <time>2016-06-29T10:04:53Z</time>
      </trkpt>
      <trkpt lat="42.5084" lon="2.22902">
        <ele>1014.81</ele>
        <time>2016-06-29T10:05:03Z</time>
      </trkpt>
      <trkpt lat="42.5086" lon="2.22905">
        <ele>1015.77</ele>
        <time>2016-06-29T10:05:12Z</time>
      </trkpt>
      <trkpt lat="42.5086" lon="2.22911">
        <ele>1015.77</ele>
        <time>2016-06-29T10:05:22Z</time>
      </trkpt>
      <trkpt lat="42.50858" lon="2.22924">
        <ele>1016.73</ele>
        <time>2016-06-29T10:05:35Z</time>
      </trkpt>
      <trkpt lat="42.50857" lon="2.22925">
        <ele>1016.73</ele>
        <time>2016-06-29T10:05:42Z</time>
      </trkpt>
      <trkpt lat="42.50851" lon="2.22934">
        <ele>1017.21</ele>
        <time>2016-06-29T10:05:54Z</time>
      </trkpt>
      <trkpt lat="42.50847" lon="2.22934">
        <ele>1018.17</ele>
        <time>2016-06-29T10:06:05Z</time>
      </trkpt>
      <trkpt lat="42.50846" lon="2.22932">
        <ele>1017.69</ele>
        <time>2016-06-29T10:06:21Z</time>
      </trkpt>
      <trkpt lat="42.50844" lon="2.2293">
        <ele>1017.69</ele>
        <time>2016-06-29T10:06:43Z</time>
      </trkpt>
      <trkpt lat="42.50846" lon="2.22931">
        <ele>1018.17</ele>
        <time>2016-06-29T10:06:57Z</time>
      </trkpt>
      <trkpt lat="42.50848" lon="2.22934">
        <ele>1019.13</ele>
        <time>2016-06-29T10:07:09Z</time>
      </trkpt>
      <trkpt lat="42.5085" lon="2.22942">
        <ele>1019.62</ele>
        <time>2016-06-29T10:07:17Z</time>
      </trkpt>
      <trkpt lat="42.50851" lon="2.22944">
        <ele>1019.62</ele>
        <time>2016-06-29T10:07:19Z</time>
      </trkpt>
      <trkpt lat="42.50853" lon="2.2295">
        <ele>1019.62</ele>
        <time>2016-06-29T10:07:28Z</time>
      </trkpt>
      <trkpt lat="42.50847" lon="2.22954">
        <ele>1020.1</ele>
        <time>2016-06-29T10:07:40Z</time>
      </trkpt>
      <trkpt lat="42.50837" lon="2.22966">
        <ele>1020.1</ele>
        <time>2016-06-29T10:07:54Z</time>
      </trkpt>
      <trkpt lat="42.50834" lon="2.22971">
        <ele>1020.58</ele>
        <time>2016-06-29T10:08:01Z</time>
      </trkpt>
      <trkpt lat="42.50832" lon="2.22974">
        <ele>1020.58</ele>
        <time>2016-06-29T10:08:04Z</time>
      </trkpt>
      <trkpt lat="42.50826" lon="2.22987">
        <ele>1021.54</ele>
        <time>2016-06-29T10:08:15Z</time>
      </trkpt>
      <trkpt lat="42.50826" lon="2.22989">
        <ele>1022.02</ele>
        <time>2016-06-29T10:08:17Z</time>
      </trkpt>
      <trkpt lat="42.50822" lon="2.22999">
        <ele>1022.98</ele>
        <time>2016-06-29T10:08:25Z</time>
      </trkpt>
      <trkpt lat="42.50814" lon="2.23011">
        <ele>1023.46</ele>
        <time>2016-06-29T10:08:37Z</time>
      </trkpt>
      <trkpt lat="42.50812" lon="2.23014">
        <ele>1023.46</ele>
        <time>2016-06-29T10:08:42Z</time>
      </trkpt>
      <trkpt lat="42.50807" lon="2.23024">
        <ele>1023.46</ele>
        <time>2016-06-29T10:08:54Z</time>
      </trkpt>
      <trkpt lat="42.50807" lon="2.23029">
        <ele>1023.94</ele>
        <time>2016-06-29T10:09:05Z</time>
      </trkpt>
      <trkpt lat="42.50804" lon="2.23032">
        <ele>1023.94</ele>
        <time>2016-06-29T10:09:18Z</time>
      </trkpt>
      <trkpt lat="42.50799" lon="2.23034">
        <ele>1023.94</ele>
        <time>2016-06-29T10:09:47Z</time>
      </trkpt>
      <trkpt lat="42.50795" lon="2.23042">
        <ele>1023.94</ele>
        <time>2016-06-29T10:09:59Z</time>
      </trkpt>
      <trkpt lat="42.50795" lon="2.23047">
        <ele>1023.94</ele>
        <time>2016-06-29T10:10:11Z</time>
      </trkpt>
      <trkpt lat="42.50789" lon="2.23056">
        <ele>1024.42</ele>
        <time>2016-06-29T10:10:23Z</time>
      </trkpt>
      <trkpt lat="42.50787" lon="2.2306">
        <ele>1024.9</ele>
        <time>2016-06-29T10:10:28Z</time>
      </trkpt>
      <trkpt lat="42.50783" lon="2.23063">
        <ele>1025.38</ele>
        <time>2016-06-29T10:10:33Z</time>
      </trkpt>
      <trkpt lat="42.50777" lon="2.23074">
        <ele>1026.34</ele>
        <time>2016-06-29T10:10:46Z</time>
      </trkpt>
      <trkpt lat="42.50775" lon="2.23079">
        <ele>1026.34</ele>
        <time>2016-06-29T10:10:56Z</time>
      </trkpt>
      <trkpt lat="42.50767" lon="2.23087">
        <ele>1027.31</ele>
        <time>2016-06-29T10:11:08Z</time>
      </trkpt>
      <trkpt lat="42.50763" lon="2.23093">
        <ele>1028.27</ele>
        <time>2016-06-29T10:11:21Z</time>
      </trkpt>
      <trkpt lat="42.50757" lon="2.23099">
        <ele>1029.23</ele>
        <time>2016-06-29T10:11:32Z</time>
      </trkpt>
      <trkpt lat="42.50749" lon="2.23101">
        <ele>1029.23</ele>
        <time>2016-06-29T10:11:45Z</time>
      </trkpt>
      <trkpt lat="42.50747" lon="2.23102">
        <ele>1029.23</ele>
        <time>2016-06-29T10:11:55Z</time>
      </trkpt>
      <trkpt lat="42.50745" lon="2.23095">
        <ele>1028.75</ele>
        <time>2016-06-29T10:12:03Z</time>
      </trkpt>
      <trkpt lat="42.50741" lon="2.23091">
        <ele>1028.75</ele>
        <time>2016-06-29T10:12:10Z</time>
      </trkpt>
      <trkpt lat="42.5074" lon="2.23091">
        <ele>1028.75</ele>
        <time>2016-06-29T10:12:11Z</time>
      </trkpt>
      <trkpt lat="42.50738" lon="2.23092">
        <ele>1028.75</ele>
        <time>2016-06-29T10:12:13Z</time>
      </trkpt>
      <trkpt lat="42.50733" lon="2.23095">
        <ele>1029.23</ele>
        <time>2016-06-29T10:12:24Z</time>
      </trkpt>
      <trkpt lat="42.50732" lon="2.23098">
        <ele>1029.23</ele>
        <time>2016-06-29T10:12:30Z</time>
      </trkpt>
      <trkpt lat="42.50727" lon="2.23102">
        <ele>1031.15</ele>
        <time>2016-06-29T10:12:43Z</time>
      </trkpt>
      <trkpt lat="42.50727" lon="2.23105">
        <ele>1032.59</ele>
        <time>2016-06-29T10:12:57Z</time>
      </trkpt>
      <trkpt lat="42.50722" lon="2.23106">
        <ele>1033.07</ele>
        <time>2016-06-29T10:13:08Z</time>
      </trkpt>
      <trkpt lat="42.50713" lon="2.23107">
        <ele>1033.55</ele>
        <time>2016-06-29T10:13:20Z</time>
      </trkpt>
      <trkpt lat="42.50711" lon="2.23105">
        <ele>1034.04</ele>
        <time>2016-06-29T10:13:31Z</time>
      </trkpt>
      <trkpt lat="42.50706" lon="2.23106">
        <ele>1034.52</ele>
        <time>2016-06-29T10:13:41Z</time>
      </trkpt>
      <trkpt lat="42.50703" lon="2.23109">
        <ele>1035.96</ele>
        <time>2016-06-29T10:13:54Z</time>
      </trkpt>
      <trkpt lat="42.50685" lon="2.23115">
        <ele>1038.36</ele>
        <time>2016-06-29T10:14:08Z</time>
      </trkpt>
      <trkpt lat="42.5068" lon="2.23117">
        <ele>1038.84</ele>
        <time>2016-06-29T10:14:12Z</time>
      </trkpt>
      <trkpt lat="42.50663" lon="2.23114">
        <ele>1039.32</ele>
        <time>2016-06-29T10:14:26Z</time>
      </trkpt>
      <trkpt lat="42.50659" lon="2.23119">
        <ele>1040.76</ele>
        <time>2016-06-29T10:14:39Z</time>
      </trkpt>
      <trkpt lat="42.50655" lon="2.2312">
        <ele>1040.76</ele>
        <time>2016-06-29T10:14:44Z</time>
      </trkpt>
      <trkpt lat="42.50648" lon="2.23114">
        <ele>1040.76</ele>
        <time>2016-06-29T10:14:59Z</time>
      </trkpt>
      <trkpt lat="42.50649" lon="2.23113">
        <ele>1040.76</ele>
        <time>2016-06-29T10:15:18Z</time>
      </trkpt>
      <trkpt lat="42.50652" lon="2.23106">
        <ele>1040.28</ele>
        <time>2016-06-29T10:15:31Z</time>
      </trkpt>
      <trkpt lat="42.50652" lon="2.23104">
        <ele>1039.32</ele>
        <time>2016-06-29T10:15:44Z</time>
      </trkpt>
      <trkpt lat="42.50652" lon="2.23101">
        <ele>1040.28</ele>
        <time>2016-06-29T10:15:57Z</time>
      </trkpt>
      <trkpt lat="42.50649" lon="2.23101">
        <ele>1041.25</ele>
        <time>2016-06-29T10:16:06Z</time>
      </trkpt>
      <trkpt lat="42.50648" lon="2.23099">
        <ele>1043.17</ele>
        <time>2016-06-29T10:16:20Z</time>
      </trkpt>
      <trkpt lat="42.50646" lon="2.23097">
        <ele>1044.13</ele>
        <time>2016-06-29T10:16:29Z</time>
      </trkpt>
      <trkpt lat="42.50628" lon="2.231">
        <ele>1045.57</ele>
        <time>2016-06-29T10:16:45Z</time>
      </trkpt>
      <trkpt lat="42.50617" lon="2.23095">
        <ele>1047.49</ele>
        <time>2016-06-29T10:16:57Z</time>
      </trkpt>
      <trkpt lat="42.50614" lon="2.2309">
        <ele>1047.49</ele>
        <time>2016-06-29T10:17:20Z</time>
      </trkpt>
      <trkpt lat="42.50598" lon="2.23095">
        <ele>1047.97</ele>
        <time>2016-06-29T10:17:33Z</time>
      </trkpt>
      <trkpt lat="42.50587" lon="2.231">
        <ele>1048.45</ele>
        <time>2016-06-29T10:17:46Z</time>
      </trkpt>
      <trkpt lat="42.50567" lon="2.23096">
        <ele>1048.94</ele>
        <time>2016-06-29T10:17:58Z</time>
      </trkpt>
      <trkpt lat="42.50559" lon="2.2307">
        <ele>1048.94</ele>
        <time>2016-06-29T10:18:12Z</time>
      </trkpt>
      <trkpt lat="42.50553" lon="2.23065">
        <ele>1048.94</ele>
        <time>2016-06-29T10:18:28Z</time>
      </trkpt>
      <trkpt lat="42.50552" lon="2.23067">
        <ele>1048.94</ele>
        <time>2016-06-29T10:18:31Z</time>
      </trkpt>
      <trkpt lat="42.50543" lon="2.23076">
        <ele>1048.94</ele>
        <time>2016-06-29T10:18:39Z</time>
      </trkpt>
      <trkpt lat="42.50529" lon="2.23102">
        <ele>1048.94</ele>
        <time>2016-06-29T10:18:51Z</time>
      </trkpt>
      <trkpt lat="42.50528" lon="2.23102">
        <ele>1048.94</ele>
        <time>2016-06-29T10:18:53Z</time>
      </trkpt>
      <trkpt lat="42.50522" lon="2.23099">
        <ele>1050.38</ele>
        <time>2016-06-29T10:19:04Z</time>
      </trkpt>
      <trkpt lat="42.50517" lon="2.23103">
        <ele>1052.3</ele>
        <time>2016-06-29T10:19:17Z</time>
      </trkpt>
      <trkpt lat="42.50516" lon="2.23103">
        <ele>1053.26</ele>
        <time>2016-06-29T10:19:22Z</time>
      </trkpt>
      <trkpt lat="42.50513" lon="2.23094">
        <ele>1053.74</ele>
        <time>2016-06-29T10:19:35Z</time>
      </trkpt>
      <trkpt lat="42.50514" lon="2.23093">
        <ele>1054.7</ele>
        <time>2016-06-29T10:19:38Z</time>
      </trkpt>
      <trkpt lat="42.50514" lon="2.23094">
        <ele>1054.7</ele>
        <time>2016-06-29T10:19:48Z</time>
      </trkpt>
      <trkpt lat="42.50518" lon="2.23107">
        <ele>1055.67</ele>
        <time>2016-06-29T10:20:00Z</time>
      </trkpt>
      <trkpt lat="42.50524" lon="2.23122">
        <ele>1055.67</ele>
        <time>2016-06-29T10:20:12Z</time>
      </trkpt>
      <trkpt lat="42.5052" lon="2.23121">
        <ele>1055.67</ele>
        <time>2016-06-29T10:20:23Z</time>
      </trkpt>
      <trkpt lat="42.50517" lon="2.23122">
        <ele>1056.63</ele>
        <time>2016-06-29T10:20:37Z</time>
      </trkpt>
      <trkpt lat="42.50518" lon="2.2312">
        <ele>1056.63</ele>
        <time>2016-06-29T10:20:49Z</time>
      </trkpt>
      <trkpt lat="42.50516" lon="2.23115">
        <ele>1056.63</ele>
        <time>2016-06-29T10:20:58Z</time>
      </trkpt>
      <trkpt lat="42.50516" lon="2.23113">
        <ele>1056.63</ele>
        <time>2016-06-29T10:21:03Z</time>
      </trkpt>
      <trkpt lat="42.50514" lon="2.2311">
        <ele>1057.11</ele>
        <time>2016-06-29T10:21:08Z</time>
      </trkpt>
      <trkpt lat="42.50516" lon="2.231">
        <ele>1058.55</ele>
        <time>2016-06-29T10:21:18Z</time>
      </trkpt>
      <trkpt lat="42.50514" lon="2.2309">
        <ele>1059.03</ele>
        <time>2016-06-29T10:21:26Z</time>
      </trkpt>
      <trkpt lat="42.50513" lon="2.23085">
        <ele>1059.51</ele>
        <time>2016-06-29T10:21:32Z</time>
      </trkpt>
      <trkpt lat="42.50516" lon="2.23076">
        <ele>1059.99</ele>
        <time>2016-06-29T10:21:41Z</time>
      </trkpt>
      <trkpt lat="42.50519" lon="2.23073">
        <ele>1060.95</ele>
        <time>2016-06-29T10:21:44Z</time>
      </trkpt>
      <trkpt lat="42.50521" lon="2.23063">
        <ele>1061.43</ele>
        <time>2016-06-29T10:21:56Z</time>
      </trkpt>
      <trkpt lat="42.50522" lon="2.23059">
        <ele>1062.39</ele>
        <time>2016-06-29T10:22:04Z</time>
      </trkpt>
      <trkpt lat="42.50528" lon="2.23053">
        <ele>1062.87</ele>
        <time>2016-06-29T10:22:10Z</time>
      </trkpt>
      <trkpt lat="42.5054" lon="2.2304">
        <ele>1063.84</ele>
        <time>2016-06-29T10:22:22Z</time>
      </trkpt>
      <trkpt lat="42.50537" lon="2.23032">
        <ele>1065.76</ele>
        <time>2016-06-29T10:22:33Z</time>
      </trkpt>
      <trkpt lat="42.50532" lon="2.23025">
        <ele>1066.72</ele>
        <time>2016-06-29T10:22:44Z</time>
      </trkpt>
      <trkpt lat="42.50524" lon="2.23018">
        <ele>1066.72</ele>
        <time>2016-06-29T10:22:54Z</time>
      </trkpt>
      <trkpt lat="42.50523" lon="2.23014">
        <ele>1066.72</ele>
        <time>2016-06-29T10:23:15Z</time>
      </trkpt>
      <trkpt lat="42.50523" lon="2.23013">
        <ele>1066.72</ele>
        <time>2016-06-29T10:23:41Z</time>
      </trkpt>
      <trkpt lat="42.50522" lon="2.23013">
        <ele>1066.72</ele>
        <time>2016-06-29T10:24:03Z</time>
      </trkpt>
      <trkpt lat="42.50522" lon="2.23013">
        <ele>1066.72</ele>
        <time>2016-06-29T10:24:19Z</time>
      </trkpt>
      <trkpt lat="42.5052" lon="2.23016">
        <ele>1066.72</ele>
        <time>2016-06-29T10:24:29Z</time>
      </trkpt>
      <trkpt lat="42.50518" lon="2.23016">
        <ele>1069.12</ele>
        <time>2016-06-29T10:24:45Z</time>
      </trkpt>
      <trkpt lat="42.50514" lon="2.23012">
        <ele>1070.57</ele>
        <time>2016-06-29T10:25:00Z</time>
      </trkpt>
      <trkpt lat="42.50511" lon="2.23003">
        <ele>1071.05</ele>
        <time>2016-06-29T10:25:14Z</time>
      </trkpt>
      <trkpt lat="42.50506" lon="2.22997">
        <ele>1071.05</ele>
        <time>2016-06-29T10:25:26Z</time>
      </trkpt>
      <trkpt lat="42.50503" lon="2.2299">
        <ele>1072.01</ele>
        <time>2016-06-29T10:25:41Z</time>
      </trkpt>
      <trkpt lat="42.50502" lon="2.2299">
        <ele>1072.01</ele>
        <time>2016-06-29T10:25:53Z</time>
      </trkpt>
      <trkpt lat="42.50502" lon="2.2299">
        <ele>1070.57</ele>
        <time>2016-06-29T10:25:57Z</time>
      </trkpt>
      <trkpt lat="42.50499" lon="2.22992">
        <ele>1070.57</ele>
        <time>2016-06-29T10:26:07Z</time>
      </trkpt>
      <trkpt lat="42.50498" lon="2.22994">
        <ele>1070.57</ele>
        <time>2016-06-29T10:26:09Z</time>
      </trkpt>
      <trkpt lat="42.50498" lon="2.22997">
        <ele>1070.57</ele>
        <time>2016-06-29T10:26:12Z</time>
      </trkpt>
      <trkpt lat="42.50497" lon="2.22997">
        <ele>1070.57</ele>
        <time>2016-06-29T10:26:13Z</time>
      </trkpt>
      <trkpt lat="42.50494" lon="2.2301">
        <ele>1071.53</ele>
        <time>2016-06-29T10:26:26Z</time>
      </trkpt>
      <trkpt lat="42.5049" lon="2.23017">
        <ele>1072.01</ele>
        <time>2016-06-29T10:26:33Z</time>
      </trkpt>
      <trkpt lat="42.50489" lon="2.2302">
        <ele>1072.01</ele>
        <time>2016-06-29T10:26:38Z</time>
      </trkpt>
      <trkpt lat="42.50487" lon="2.23029">
        <ele>1073.45</ele>
        <time>2016-06-29T10:26:47Z</time>
      </trkpt>
      <trkpt lat="42.50486" lon="2.23034">
        <ele>1074.89</ele>
        <time>2016-06-29T10:26:56Z</time>
      </trkpt>
      <trkpt lat="42.50484" lon="2.23038">
        <ele>1075.37</ele>
        <time>2016-06-29T10:27:02Z</time>
      </trkpt>
      <trkpt lat="42.50467" lon="2.23062">
        <ele>1077.29</ele>
        <time>2016-06-29T10:27:14Z</time>
      </trkpt>
      <trkpt lat="42.5046" lon="2.23058">
        <ele>1078.74</ele>
        <time>2016-06-29T10:27:28Z</time>
      </trkpt>
      <trkpt lat="42.50461" lon="2.23053">
        <ele>1079.7</ele>
        <time>2016-06-29T10:27:38Z</time>
      </trkpt>
      <trkpt lat="42.50457" lon="2.23046">
        <ele>1080.18</ele>
        <time>2016-06-29T10:27:48Z</time>
      </trkpt>
      <trkpt lat="42.50454" lon="2.23038">
        <ele>1082.1</ele>
        <time>2016-06-29T10:28:01Z</time>
      </trkpt>
      <trkpt lat="42.5045" lon="2.23034">
        <ele>1082.58</ele>
        <time>2016-06-29T10:28:15Z</time>
      </trkpt>
      <trkpt lat="42.50446" lon="2.23028">
        <ele>1083.54</ele>
        <time>2016-06-29T10:28:29Z</time>
      </trkpt>
      <trkpt lat="42.50445" lon="2.23029">
        <ele>1084.02</ele>
        <time>2016-06-29T10:28:40Z</time>
      </trkpt>
      <trkpt lat="42.50446" lon="2.23027">
        <ele>1084.5</ele>
        <time>2016-06-29T10:28:50Z</time>
      </trkpt>
      <trkpt lat="42.50446" lon="2.23032">
        <ele>1084.5</ele>
        <time>2016-06-29T10:29:01Z</time>
      </trkpt>
      <trkpt lat="42.50439" lon="2.23033">
        <ele>1084.5</ele>
        <time>2016-06-29T10:29:11Z</time>
      </trkpt>
      <trkpt lat="42.50435" lon="2.23032">
        <ele>1084.99</ele>
        <time>2016-06-29T10:29:24Z</time>
      </trkpt>
      <trkpt lat="42.50431" lon="2.23029">
        <ele>1085.47</ele>
        <time>2016-06-29T10:29:34Z</time>
      </trkpt>
      <trkpt lat="42.5043" lon="2.2302">
        <ele>1086.43</ele>
        <time>2016-06-29T10:29:44Z</time>
      </trkpt>
      <trkpt lat="42.50427" lon="2.23008">
        <ele>1086.91</ele>
        <time>2016-06-29T10:29:55Z</time>
      </trkpt>
      <trkpt lat="42.50424" lon="2.23001">
        <ele>1086.91</ele>
        <time>2016-06-29T10:30:03Z</time>
      </trkpt>
      <trkpt lat="42.50424" lon="2.22998">
        <ele>1086.91</ele>
        <time>2016-06-29T10:30:06Z</time>
      </trkpt>
      <trkpt lat="42.50422" lon="2.22993">
        <ele>1088.35</ele>
        <time>2016-06-29T10:30:15Z</time>
      </trkpt>
      <trkpt lat="42.50416" lon="2.2299">
        <ele>1089.31</ele>
        <time>2016-06-29T10:30:26Z</time>
      </trkpt>
      <trkpt lat="42.50415" lon="2.2299">
        <ele>1089.31</ele>
        <time>2016-06-29T10:30:27Z</time>
      </trkpt>
      <trkpt lat="42.50408" lon="2.22991">
        <ele>1090.75</ele>
        <time>2016-06-29T10:30:38Z</time>
      </trkpt>
      <trkpt lat="42.50408" lon="2.22991">
        <ele>1090.75</ele>
        <time>2016-06-29T10:30:39Z</time>
      </trkpt>
      <trkpt lat="42.504" lon="2.22995">
        <ele>1091.71</ele>
        <time>2016-06-29T10:30:51Z</time>
      </trkpt>
      <trkpt lat="42.50399" lon="2.22998">
        <ele>1093.16</ele>
        <time>2016-06-29T10:31:03Z</time>
      </trkpt>
      <trkpt lat="42.50398" lon="2.22999">
        <ele>1093.16</ele>
        <time>2016-06-29T10:31:04Z</time>
      </trkpt>
      <trkpt lat="42.50395" lon="2.23002">
        <ele>1093.64</ele>
        <time>2016-06-29T10:31:16Z</time>
      </trkpt>
      <trkpt lat="42.50391" lon="2.23003">
        <ele>1095.56</ele>
        <time>2016-06-29T10:31:29Z</time>
      </trkpt>
      <trkpt lat="42.50377" lon="2.23012">
        <ele>1096.52</ele>
        <time>2016-06-29T10:31:44Z</time>
      </trkpt>
      <trkpt lat="42.50373" lon="2.23016">
        <ele>1096.52</ele>
        <time>2016-06-29T10:31:53Z</time>
      </trkpt>
      <trkpt lat="42.5037" lon="2.23015">
        <ele>1097</ele>
        <time>2016-06-29T10:31:58Z</time>
      </trkpt>
      <trkpt lat="42.50366" lon="2.23017">
        <ele>1097.48</ele>
        <time>2016-06-29T10:32:05Z</time>
      </trkpt>
      <trkpt lat="42.50362" lon="2.23024">
        <ele>1098.44</ele>
        <time>2016-06-29T10:32:17Z</time>
      </trkpt>
      <trkpt lat="42.50349" lon="2.23033">
        <ele>1100.37</ele>
        <time>2016-06-29T10:32:30Z</time>
      </trkpt>
      <trkpt lat="42.50341" lon="2.23041">
        <ele>1100.85</ele>
        <time>2016-06-29T10:32:39Z</time>
      </trkpt>
      <trkpt lat="42.50331" lon="2.23039">
        <ele>1101.81</ele>
        <time>2016-06-29T10:32:52Z</time>
      </trkpt>
      <trkpt lat="42.50321" lon="2.23035">
        <ele>1102.29</ele>
        <time>2016-06-29T10:33:02Z</time>
      </trkpt>
      <trkpt lat="42.50309" lon="2.2304">
        <ele>1103.25</ele>
        <time>2016-06-29T10:33:15Z</time>
      </trkpt>
      <trkpt lat="42.50305" lon="2.23048">
        <ele>1104.21</ele>
        <time>2016-06-29T10:33:27Z</time>
      </trkpt>
      <trkpt lat="42.503" lon="2.23054">
        <ele>1105.65</ele>
        <time>2016-06-29T10:33:36Z</time>
      </trkpt>
      <trkpt lat="42.50297" lon="2.23057">
        <ele>1106.13</ele>
        <time>2016-06-29T10:33:39Z</time>
      </trkpt>
      <trkpt lat="42.50294" lon="2.23058">
        <ele>1108.06</ele>
        <time>2016-06-29T10:33:53Z</time>
      </trkpt>
      <trkpt lat="42.50292" lon="2.23058">
        <ele>1108.54</ele>
        <time>2016-06-29T10:34:11Z</time>
      </trkpt>
      <trkpt lat="42.50292" lon="2.23058">
        <ele>1108.54</ele>
        <time>2016-06-29T10:34:25Z</time>
      </trkpt>
      <trkpt lat="42.50291" lon="2.23057">
        <ele>1108.54</ele>
        <time>2016-06-29T10:34:40Z</time>
      </trkpt>
      <trkpt lat="42.50287" lon="2.23058">
        <ele>1108.54</ele>
        <time>2016-06-29T10:34:57Z</time>
      </trkpt>
      <trkpt lat="42.50289" lon="2.2306">
        <ele>1109.02</ele>
        <time>2016-06-29T10:35:21Z</time>
      </trkpt>
      <trkpt lat="42.5029" lon="2.23051">
        <ele>1109.02</ele>
        <time>2016-06-29T10:35:40Z</time>
      </trkpt>
      <trkpt lat="42.50292" lon="2.23059">
        <ele>1109.02</ele>
        <time>2016-06-29T10:36:00Z</time>
      </trkpt>
      <trkpt lat="42.50294" lon="2.23057">
        <ele>1109.02</ele>
        <time>2016-06-29T10:36:12Z</time>
      </trkpt>
      <trkpt lat="42.50293" lon="2.23053">
        <ele>1109.02</ele>
        <time>2016-06-29T10:36:26Z</time>
      </trkpt>
      <trkpt lat="42.50294" lon="2.23044">
        <ele>1109.02</ele>
        <time>2016-06-29T10:36:43Z</time>
      </trkpt>
      <trkpt lat="42.50291" lon="2.23039">
        <ele>1109.5</ele>
        <time>2016-06-29T10:36:56Z</time>
      </trkpt>
      <trkpt lat="42.50286" lon="2.23035">
        <ele>1109.5</ele>
        <time>2016-06-29T10:37:07Z</time>
      </trkpt>
      <trkpt lat="42.50285" lon="2.23037">
        <ele>1109.5</ele>
        <time>2016-06-29T10:37:16Z</time>
      </trkpt>
      <trkpt lat="42.50284" lon="2.23039">
        <ele>1108.06</ele>
        <time>2016-06-29T10:37:21Z</time>
      </trkpt>
      <trkpt lat="42.50279" lon="2.2304">
        <ele>1107.58</ele>
        <time>2016-06-29T10:37:29Z</time>
      </trkpt>
      <trkpt lat="42.50269" lon="2.23045">
        <ele>1107.58</ele>
        <time>2016-06-29T10:37:38Z</time>
      </trkpt>
      <trkpt lat="42.50264" lon="2.23047">
        <ele>1107.58</ele>
        <time>2016-06-29T10:37:43Z</time>
      </trkpt>
      <trkpt lat="42.50263" lon="2.23052">
        <ele>1109.02</ele>
        <time>2016-06-29T10:37:48Z</time>
      </trkpt>
      <trkpt lat="42.50258" lon="2.23061">
        <ele>1110.94</ele>
        <time>2016-06-29T10:37:58Z</time>
      </trkpt>
      <trkpt lat="42.50258" lon="2.23062">
        <ele>1111.42</ele>
        <time>2016-06-29T10:38:00Z</time>
      </trkpt>
      <trkpt lat="42.5025" lon="2.23078">
        <ele>1114.31</ele>
        <time>2016-06-29T10:38:11Z</time>
      </trkpt>
      <trkpt lat="42.50246" lon="2.23085">
        <ele>1117.67</ele>
        <time>2016-06-29T10:38:18Z</time>
      </trkpt>
      <trkpt lat="42.50242" lon="2.23097">
        <ele>1117.67</ele>
        <time>2016-06-29T10:38:30Z</time>
      </trkpt>
      <trkpt lat="42.50239" lon="2.23114">
        <ele>1117.67</ele>
        <time>2016-06-29T10:38:39Z</time>
      </trkpt>
      <trkpt lat="42.50235" lon="2.23121">
        <ele>1117.67</ele>
        <time>2016-06-29T10:38:49Z</time>
      </trkpt>
      <trkpt lat="42.50229" lon="2.2313">
        <ele>1117.67</ele>
        <time>2016-06-29T10:38:58Z</time>
      </trkpt>
      <trkpt lat="42.50224" lon="2.2314">
        <ele>1118.63</ele>
        <time>2016-06-29T10:39:07Z</time>
      </trkpt>
      <trkpt lat="42.50216" lon="2.23149">
        <ele>1120.07</ele>
        <time>2016-06-29T10:39:19Z</time>
      </trkpt>
      <trkpt lat="42.50214" lon="2.23152">
        <ele>1120.55</ele>
        <time>2016-06-29T10:39:23Z</time>
      </trkpt>
      <trkpt lat="42.50211" lon="2.23156">
        <ele>1122</ele>
        <time>2016-06-29T10:39:33Z</time>
      </trkpt>
      <trkpt lat="42.50208" lon="2.23156">
        <ele>1122.96</ele>
        <time>2016-06-29T10:39:43Z</time>
      </trkpt>
      <trkpt lat="42.50204" lon="2.23157">
        <ele>1124.88</ele>
        <time>2016-06-29T10:39:56Z</time>
      </trkpt>
      <trkpt lat="42.50201" lon="2.23156">
        <ele>1124.88</ele>
        <time>2016-06-29T10:40:06Z</time>
      </trkpt>
      <trkpt lat="42.50193" lon="2.23154">
        <ele>1125.84</ele>
        <time>2016-06-29T10:40:17Z</time>
      </trkpt>
      <trkpt lat="42.50187" lon="2.23157">
        <ele>1127.28</ele>
        <time>2016-06-29T10:40:28Z</time>
      </trkpt>
      <trkpt lat="42.50185" lon="2.23158">
        <ele>1127.28</ele>
        <time>2016-06-29T10:40:30Z</time>
      </trkpt>
      <trkpt lat="42.50177" lon="2.23161">
        <ele>1128.24</ele>
        <time>2016-06-29T10:40:40Z</time>
      </trkpt>
      <trkpt lat="42.50169" lon="2.2316">
        <ele>1129.69</ele>
        <time>2016-06-29T10:40:51Z</time>
      </trkpt>
      <trkpt lat="42.50168" lon="2.23161">
        <ele>1130.17</ele>
        <time>2016-06-29T10:40:53Z</time>
      </trkpt>
      <trkpt lat="42.50164" lon="2.23165">
        <ele>1130.17</ele>
        <time>2016-06-29T10:40:57Z</time>
      </trkpt>
      <trkpt lat="42.50159" lon="2.23174">
        <ele>1131.61</ele>
        <time>2016-06-29T10:41:06Z</time>
      </trkpt>
      <trkpt lat="42.50155" lon="2.23183">
        <ele>1132.09</ele>
        <time>2016-06-29T10:41:14Z</time>
      </trkpt>
      <trkpt lat="42.50154" lon="2.23187">
        <ele>1132.57</ele>
        <time>2016-06-29T10:41:17Z</time>
      </trkpt>
      <trkpt lat="42.50149" lon="2.23201">
        <ele>1133.53</ele>
        <time>2016-06-29T10:41:29Z</time>
      </trkpt>
      <trkpt lat="42.50144" lon="2.23214">
        <ele>1134.49</ele>
        <time>2016-06-29T10:41:39Z</time>
      </trkpt>
      <trkpt lat="42.50137" lon="2.23224">
        <ele>1134.97</ele>
        <time>2016-06-29T10:41:48Z</time>
      </trkpt>
      <trkpt lat="42.50134" lon="2.23229">
        <ele>1135.45</ele>
        <time>2016-06-29T10:41:52Z</time>
      </trkpt>
      <trkpt lat="42.5013" lon="2.23234">
        <ele>1135.45</ele>
        <time>2016-06-29T10:41:56Z</time>
      </trkpt>
      <trkpt lat="42.50123" lon="2.23247">
        <ele>1136.42</ele>
        <time>2016-06-29T10:42:07Z</time>
      </trkpt>
      <trkpt lat="42.50112" lon="2.23257">
        <ele>1138.82</ele>
        <time>2016-06-29T10:42:19Z</time>
      </trkpt>
      <trkpt lat="42.50102" lon="2.23267">
        <ele>1139.3</ele>
        <time>2016-06-29T10:42:29Z</time>
      </trkpt>
      <trkpt lat="42.5009" lon="2.23273">
        <ele>1140.74</ele>
        <time>2016-06-29T10:42:40Z</time>
      </trkpt>
      <trkpt lat="42.50082" lon="2.23273">
        <ele>1141.7</ele>
        <time>2016-06-29T10:42:48Z</time>
      </trkpt>
      <trkpt lat="42.5007" lon="2.23272">
        <ele>1143.14</ele>
        <time>2016-06-29T10:42:59Z</time>
      </trkpt>
      <trkpt lat="42.50055" lon="2.23267">
        <ele>1144.59</ele>
        <time>2016-06-29T10:43:12Z</time>
      </trkpt>
      <trkpt lat="42.50054" lon="2.23267">
        <ele>1145.07</ele>
        <time>2016-06-29T10:43:13Z</time>
      </trkpt>
      <trkpt lat="42.50052" lon="2.23266">
        <ele>1145.07</ele>
        <time>2016-06-29T10:43:15Z</time>
      </trkpt>
      <trkpt lat="42.50046" lon="2.23275">
        <ele>1146.99</ele>
        <time>2016-06-29T10:43:26Z</time>
      </trkpt>
      <trkpt lat="42.50045" lon="2.23278">
        <ele>1146.99</ele>
        <time>2016-06-29T10:43:29Z</time>
      </trkpt>
      <trkpt lat="42.50045" lon="2.23293">
        <ele>1148.43</ele>
        <time>2016-06-29T10:43:40Z</time>
      </trkpt>
      <trkpt lat="42.50046" lon="2.23294">
        <ele>1148.43</ele>
        <time>2016-06-29T10:43:41Z</time>
      </trkpt>
      <trkpt lat="42.50049" lon="2.23315">
        <ele>1149.87</ele>
        <time>2016-06-29T10:43:53Z</time>
      </trkpt>
      <trkpt lat="42.50048" lon="2.23323">
        <ele>1149.87</ele>
        <time>2016-06-29T10:43:58Z</time>
      </trkpt>
      <trkpt lat="42.50051" lon="2.23335">
        <ele>1150.35</ele>
        <time>2016-06-29T10:44:04Z</time>
      </trkpt>
      <trkpt lat="42.5005" lon="2.23345">
        <ele>1150.84</ele>
        <time>2016-06-29T10:44:09Z</time>
      </trkpt>
      <trkpt lat="42.5005" lon="2.23348">
        <ele>1151.32</ele>
        <time>2016-06-29T10:44:11Z</time>
      </trkpt>
      <trkpt lat="42.50051" lon="2.23354">
        <ele>1151.8</ele>
        <time>2016-06-29T10:44:14Z</time>
      </trkpt>
      <trkpt lat="42.50051" lon="2.23358">
        <ele>1151.8</ele>
        <time>2016-06-29T10:44:17Z</time>
      </trkpt>
      <trkpt lat="42.50051" lon="2.23369">
        <ele>1153.24</ele>
        <time>2016-06-29T10:44:26Z</time>
      </trkpt>
      <trkpt lat="42.50045" lon="2.23377">
        <ele>1154.2</ele>
        <time>2016-06-29T10:44:31Z</time>
      </trkpt>
      <trkpt lat="42.50034" lon="2.23386">
        <ele>1155.64</ele>
        <time>2016-06-29T10:44:43Z</time>
      </trkpt>
      <trkpt lat="42.50027" lon="2.23393">
        <ele>1156.6</ele>
        <time>2016-06-29T10:44:52Z</time>
      </trkpt>
      <trkpt lat="42.50018" lon="2.23403">
        <ele>1158.53</ele>
        <time>2016-06-29T10:45:01Z</time>
      </trkpt>
      <trkpt lat="42.50015" lon="2.23405">
        <ele>1159.01</ele>
        <time>2016-06-29T10:45:04Z</time>
      </trkpt>
      <trkpt lat="42.5001" lon="2.23408">
        <ele>1159.97</ele>
        <time>2016-06-29T10:45:10Z</time>
      </trkpt>
      <trkpt lat="42.50001" lon="2.23417">
        <ele>1160.93</ele>
        <time>2016-06-29T10:45:18Z</time>
      </trkpt>
      <trkpt lat="42.49993" lon="2.23426">
        <ele>1162.37</ele>
        <time>2016-06-29T10:45:26Z</time>
      </trkpt>
      <trkpt lat="42.49984" lon="2.23434">
        <ele>1163.81</ele>
        <time>2016-06-29T10:45:37Z</time>
      </trkpt>
      <trkpt lat="42.49977" lon="2.2344">
        <ele>1164.29</ele>
        <time>2016-06-29T10:45:45Z</time>
      </trkpt>
      <trkpt lat="42.49968" lon="2.23447">
        <ele>1166.22</ele>
        <time>2016-06-29T10:45:53Z</time>
      </trkpt>
      <trkpt lat="42.49961" lon="2.23452">
        <ele>1167.66</ele>
        <time>2016-06-29T10:46:04Z</time>
      </trkpt>
      <trkpt lat="42.49955" lon="2.23457">
        <ele>1169.58</ele>
        <time>2016-06-29T10:46:14Z</time>
      </trkpt>
      <trkpt lat="42.49944" lon="2.23466">
        <ele>1171.02</ele>
        <time>2016-06-29T10:46:25Z</time>
      </trkpt>
      <trkpt lat="42.49943" lon="2.23467">
        <ele>1171.02</ele>
        <time>2016-06-29T10:46:26Z</time>
      </trkpt>
      <trkpt lat="42.49933" lon="2.23481">
        <ele>1172.47</ele>
        <time>2016-06-29T10:46:37Z</time>
      </trkpt>
      <trkpt lat="42.49929" lon="2.23491">
        <ele>1173.43</ele>
        <time>2016-06-29T10:46:46Z</time>
      </trkpt>
      <trkpt lat="42.49924" lon="2.23497">
        <ele>1173.91</ele>
        <time>2016-06-29T10:46:52Z</time>
      </trkpt>
      <trkpt lat="42.49923" lon="2.235">
        <ele>1173.91</ele>
        <time>2016-06-29T10:46:55Z</time>
      </trkpt>
      <trkpt lat="42.49921" lon="2.23503">
        <ele>1174.39</ele>
        <time>2016-06-29T10:46:57Z</time>
      </trkpt>
      <trkpt lat="42.49913" lon="2.23516">
        <ele>1174.87</ele>
        <time>2016-06-29T10:47:06Z</time>
      </trkpt>
      <trkpt lat="42.49907" lon="2.23524">
        <ele>1176.31</ele>
        <time>2016-06-29T10:47:13Z</time>
      </trkpt>
      <trkpt lat="42.49905" lon="2.23529">
        <ele>1176.79</ele>
        <time>2016-06-29T10:47:17Z</time>
      </trkpt>
      <trkpt lat="42.49898" lon="2.23538">
        <ele>1177.75</ele>
        <time>2016-06-29T10:47:26Z</time>
      </trkpt>
      <trkpt lat="42.49893" lon="2.23541">
        <ele>1178.23</ele>
        <time>2016-06-29T10:47:29Z</time>
      </trkpt>
      <trkpt lat="42.49884" lon="2.2355">
        <ele>1179.19</ele>
        <time>2016-06-29T10:47:40Z</time>
      </trkpt>
      <trkpt lat="42.49883" lon="2.2355">
        <ele>1179.19</ele>
        <time>2016-06-29T10:47:41Z</time>
      </trkpt>
      <trkpt lat="42.49876" lon="2.2356">
        <ele>1180.64</ele>
        <time>2016-06-29T10:47:52Z</time>
      </trkpt>
      <trkpt lat="42.49869" lon="2.23569">
        <ele>1182.08</ele>
        <time>2016-06-29T10:48:00Z</time>
      </trkpt>
      <trkpt lat="42.49865" lon="2.23575">
        <ele>1183.04</ele>
        <time>2016-06-29T10:48:06Z</time>
      </trkpt>
      <trkpt lat="42.49864" lon="2.23577">
        <ele>1183.04</ele>
        <time>2016-06-29T10:48:08Z</time>
      </trkpt>
      <trkpt lat="42.49861" lon="2.23579">
        <ele>1183.52</ele>
        <time>2016-06-29T10:48:11Z</time>
      </trkpt>
      <trkpt lat="42.4986" lon="2.2358">
        <ele>1183.52</ele>
        <time>2016-06-29T10:48:12Z</time>
      </trkpt>
      <trkpt lat="42.49855" lon="2.23587">
        <ele>1184.48</ele>
        <time>2016-06-29T10:48:21Z</time>
      </trkpt>
      <trkpt lat="42.49853" lon="2.23588">
        <ele>1185.44</ele>
        <time>2016-06-29T10:48:23Z</time>
      </trkpt>
      <trkpt lat="42.49851" lon="2.23588">
        <ele>1185.44</ele>
        <time>2016-06-29T10:48:24Z</time>
      </trkpt>
      <trkpt lat="42.49846" lon="2.23594">
        <ele>1185.92</ele>
        <time>2016-06-29T10:48:30Z</time>
      </trkpt>
      <trkpt lat="42.4984" lon="2.236">
        <ele>1186.88</ele>
        <time>2016-06-29T10:48:39Z</time>
      </trkpt>
      <trkpt lat="42.49835" lon="2.23604">
        <ele>1187.37</ele>
        <time>2016-06-29T10:48:45Z</time>
      </trkpt>
      <trkpt lat="42.49833" lon="2.23606">
        <ele>1187.85</ele>
        <time>2016-06-29T10:48:48Z</time>
      </trkpt>
      <trkpt lat="42.49831" lon="2.23609">
        <ele>1188.33</ele>
        <time>2016-06-29T10:48:51Z</time>
      </trkpt>
      <trkpt lat="42.49823" lon="2.23615">
        <ele>1189.77</ele>
        <time>2016-06-29T10:49:02Z</time>
      </trkpt>
      <trkpt lat="42.49818" lon="2.23618">
        <ele>1191.21</ele>
        <time>2016-06-29T10:49:08Z</time>
      </trkpt>
      <trkpt lat="42.49808" lon="2.23624">
        <ele>1192.65</ele>
        <time>2016-06-29T10:49:19Z</time>
      </trkpt>
      <trkpt lat="42.49808" lon="2.23625">
        <ele>1192.65</ele>
        <time>2016-06-29T10:49:21Z</time>
      </trkpt>
      <trkpt lat="42.49798" lon="2.23631">
        <ele>1194.09</ele>
        <time>2016-06-29T10:49:32Z</time>
      </trkpt>
      <trkpt lat="42.49791" lon="2.23638">
        <ele>1195.06</ele>
        <time>2016-06-29T10:49:40Z</time>
      </trkpt>
      <trkpt lat="42.49788" lon="2.23644">
        <ele>1195.54</ele>
        <time>2016-06-29T10:49:43Z</time>
      </trkpt>
      <trkpt lat="42.49776" lon="2.23653">
        <ele>1196.98</ele>
        <time>2016-06-29T10:49:53Z</time>
      </trkpt>
      <trkpt lat="42.49775" lon="2.23654">
        <ele>1196.98</ele>
        <time>2016-06-29T10:49:54Z</time>
      </trkpt>
      <trkpt lat="42.49771" lon="2.23657">
        <ele>1198.42</ele>
        <time>2016-06-29T10:49:59Z</time>
      </trkpt>
      <trkpt lat="42.49768" lon="2.23659">
        <ele>1197.94</ele>
        <time>2016-06-29T10:50:02Z</time>
      </trkpt>
      <trkpt lat="42.49763" lon="2.23664">
        <ele>1199.38</ele>
        <time>2016-06-29T10:50:07Z</time>
      </trkpt>
      <trkpt lat="42.49761" lon="2.23665">
        <ele>1199.38</ele>
        <time>2016-06-29T10:50:09Z</time>
      </trkpt>
      <trkpt lat="42.49756" lon="2.23664">
        <ele>1200.34</ele>
        <time>2016-06-29T10:50:15Z</time>
      </trkpt>
      <trkpt lat="42.49745" lon="2.23663">
        <ele>1201.3</ele>
        <time>2016-06-29T10:50:26Z</time>
      </trkpt>
      <trkpt lat="42.49741" lon="2.2366">
        <ele>1202.27</ele>
        <time>2016-06-29T10:50:29Z</time>
      </trkpt>
      <trkpt lat="42.49733" lon="2.23657">
        <ele>1202.27</ele>
        <time>2016-06-29T10:50:38Z</time>
      </trkpt>
      <trkpt lat="42.49723" lon="2.23657">
        <ele>1203.23</ele>
        <time>2016-06-29T10:50:48Z</time>
      </trkpt>
      <trkpt lat="42.49711" lon="2.23656">
        <ele>1205.15</ele>
        <time>2016-06-29T10:51:00Z</time>
      </trkpt>
      <trkpt lat="42.49707" lon="2.23656">
        <ele>1205.15</ele>
        <time>2016-06-29T10:51:04Z</time>
      </trkpt>
      <trkpt lat="42.49698" lon="2.23657">
        <ele>1206.59</ele>
        <time>2016-06-29T10:51:16Z</time>
      </trkpt>
      <trkpt lat="42.49696" lon="2.23657">
        <ele>1206.59</ele>
        <time>2016-06-29T10:51:17Z</time>
      </trkpt>
      <trkpt lat="42.49686" lon="2.23657">
        <ele>1207.55</ele>
        <time>2016-06-29T10:51:27Z</time>
      </trkpt>
      <trkpt lat="42.49679" lon="2.23659">
        <ele>1208.51</ele>
        <time>2016-06-29T10:51:34Z</time>
      </trkpt>
      <trkpt lat="42.49678" lon="2.23661">
        <ele>1208.51</ele>
        <time>2016-06-29T10:51:35Z</time>
      </trkpt>
      <trkpt lat="42.49676" lon="2.2366">
        <ele>1208.51</ele>
        <time>2016-06-29T10:51:36Z</time>
      </trkpt>
      <trkpt lat="42.49675" lon="2.23659">
        <ele>1208.51</ele>
        <time>2016-06-29T10:51:37Z</time>
      </trkpt>
      <trkpt lat="42.49672" lon="2.23661">
        <ele>1209.48</ele>
        <time>2016-06-29T10:51:39Z</time>
      </trkpt>
      <trkpt lat="42.49669" lon="2.23664">
        <ele>1209.48</ele>
        <time>2016-06-29T10:51:41Z</time>
      </trkpt>
      <trkpt lat="42.49662" lon="2.23668">
        <ele>1209.48</ele>
        <time>2016-06-29T10:51:48Z</time>
      </trkpt>
      <trkpt lat="42.49657" lon="2.23671">
        <ele>1209.96</ele>
        <time>2016-06-29T10:51:52Z</time>
      </trkpt>
      <trkpt lat="42.49648" lon="2.23677">
        <ele>1210.92</ele>
        <time>2016-06-29T10:52:02Z</time>
      </trkpt>
      <trkpt lat="42.49646" lon="2.23679">
        <ele>1211.4</ele>
        <time>2016-06-29T10:52:06Z</time>
      </trkpt>
      <trkpt lat="42.49634" lon="2.23683">
        <ele>1212.84</ele>
        <time>2016-06-29T10:52:17Z</time>
      </trkpt>
      <trkpt lat="42.49621" lon="2.23684">
        <ele>1213.8</ele>
        <time>2016-06-29T10:52:28Z</time>
      </trkpt>
      <trkpt lat="42.49618" lon="2.23683">
        <ele>1214.76</ele>
        <time>2016-06-29T10:52:32Z</time>
      </trkpt>
      <trkpt lat="42.49615" lon="2.23683">
        <ele>1214.76</ele>
        <time>2016-06-29T10:52:37Z</time>
      </trkpt>
      <trkpt lat="42.49608" lon="2.23685">
        <ele>1215.72</ele>
        <time>2016-06-29T10:52:45Z</time>
      </trkpt>
      <trkpt lat="42.49604" lon="2.23683">
        <ele>1217.17</ele>
        <time>2016-06-29T10:52:54Z</time>
      </trkpt>
      <trkpt lat="42.49597" lon="2.23685">
        <ele>1218.61</ele>
        <time>2016-06-29T10:53:02Z</time>
      </trkpt>
      <trkpt lat="42.49596" lon="2.23685">
        <ele>1218.13</ele>
        <time>2016-06-29T10:53:04Z</time>
      </trkpt>
      <trkpt lat="42.49594" lon="2.23684">
        <ele>1219.09</ele>
        <time>2016-06-29T10:53:06Z</time>
      </trkpt>
      <trkpt lat="42.49591" lon="2.23682">
        <ele>1219.09</ele>
        <time>2016-06-29T10:53:10Z</time>
      </trkpt>
      <trkpt lat="42.4959" lon="2.23681">
        <ele>1219.57</ele>
        <time>2016-06-29T10:53:13Z</time>
      </trkpt>
      <trkpt lat="42.49583" lon="2.23682">
        <ele>1220.53</ele>
        <time>2016-06-29T10:53:22Z</time>
      </trkpt>
      <trkpt lat="42.49582" lon="2.23683">
        <ele>1220.53</ele>
        <time>2016-06-29T10:53:24Z</time>
      </trkpt>
      <trkpt lat="42.49571" lon="2.23689">
        <ele>1220.05</ele>
        <time>2016-06-29T10:53:34Z</time>
      </trkpt>
      <trkpt lat="42.49566" lon="2.23683">
        <ele>1221.01</ele>
        <time>2016-06-29T10:53:44Z</time>
      </trkpt>
      <trkpt lat="42.49562" lon="2.23686">
        <ele>1221.97</ele>
        <time>2016-06-29T10:53:55Z</time>
      </trkpt>
      <trkpt lat="42.49563" lon="2.23686">
        <ele>1223.42</ele>
        <time>2016-06-29T10:54:04Z</time>
      </trkpt>
      <trkpt lat="42.49563" lon="2.23686">
        <ele>1223.42</ele>
        <time>2016-06-29T10:54:05Z</time>
      </trkpt>
      <trkpt lat="42.49555" lon="2.23691">
        <ele>1225.34</ele>
        <time>2016-06-29T10:54:18Z</time>
      </trkpt>
      <trkpt lat="42.49547" lon="2.23696">
        <ele>1226.78</ele>
        <time>2016-06-29T10:54:29Z</time>
      </trkpt>
      <trkpt lat="42.49547" lon="2.23697">
        <ele>1227.26</ele>
        <time>2016-06-29T10:54:31Z</time>
      </trkpt>
      <trkpt lat="42.49544" lon="2.23699">
        <ele>1227.26</ele>
        <time>2016-06-29T10:54:34Z</time>
      </trkpt>
      <trkpt lat="42.49538" lon="2.2371">
        <ele>1227.26</ele>
        <time>2016-06-29T10:54:48Z</time>
      </trkpt>
      <trkpt lat="42.49527" lon="2.23712">
        <ele>1228.22</ele>
        <time>2016-06-29T10:54:59Z</time>
      </trkpt>
      <trkpt lat="42.49523" lon="2.23714">
        <ele>1228.22</ele>
        <time>2016-06-29T10:55:11Z</time>
      </trkpt>
      <trkpt lat="42.49521" lon="2.23715">
        <ele>1228.22</ele>
        <time>2016-06-29T10:55:13Z</time>
      </trkpt>
      <trkpt lat="42.49517" lon="2.23716">
        <ele>1228.22</ele>
        <time>2016-06-29T10:55:17Z</time>
      </trkpt>
      <trkpt lat="42.4951" lon="2.23717">
        <ele>1227.74</ele>
        <time>2016-06-29T10:55:24Z</time>
      </trkpt>
      <trkpt lat="42.49511" lon="2.23722">
        <ele>1227.74</ele>
        <time>2016-06-29T10:55:33Z</time>
      </trkpt>
      <trkpt lat="42.49511" lon="2.23726">
        <ele>1227.74</ele>
        <time>2016-06-29T10:55:42Z</time>
      </trkpt>
      <trkpt lat="42.49504" lon="2.23735">
        <ele>1228.7</ele>
        <time>2016-06-29T10:55:55Z</time>
      </trkpt>
      <trkpt lat="42.495" lon="2.23734">
        <ele>1229.18</ele>
        <time>2016-06-29T10:56:04Z</time>
      </trkpt>
      <trkpt lat="42.49497" lon="2.23734">
        <ele>1229.66</ele>
        <time>2016-06-29T10:56:09Z</time>
      </trkpt>
      <trkpt lat="42.49495" lon="2.23736">
        <ele>1229.66</ele>
        <time>2016-06-29T10:56:11Z</time>
      </trkpt>
      <trkpt lat="42.49488" lon="2.23742">
        <ele>1231.11</ele>
        <time>2016-06-29T10:56:24Z</time>
      </trkpt>
      <trkpt lat="42.4948" lon="2.23749">
        <ele>1232.55</ele>
        <time>2016-06-29T10:56:35Z</time>
      </trkpt>
      <trkpt lat="42.49477" lon="2.23751">
        <ele>1233.03</ele>
        <time>2016-06-29T10:56:39Z</time>
      </trkpt>
      <trkpt lat="42.49473" lon="2.23756">
        <ele>1233.99</ele>
        <time>2016-06-29T10:56:47Z</time>
      </trkpt>
      <trkpt lat="42.4947" lon="2.23758">
        <ele>1234.47</ele>
        <time>2016-06-29T10:56:52Z</time>
      </trkpt>
      <trkpt lat="42.49467" lon="2.23761">
        <ele>1234.47</ele>
        <time>2016-06-29T10:56:55Z</time>
      </trkpt>
      <trkpt lat="42.49462" lon="2.23766">
        <ele>1235.43</ele>
        <time>2016-06-29T10:57:04Z</time>
      </trkpt>
      <trkpt lat="42.49458" lon="2.23773">
        <ele>1236.39</ele>
        <time>2016-06-29T10:57:14Z</time>
      </trkpt>
      <trkpt lat="42.49457" lon="2.23775">
        <ele>1235.91</ele>
        <time>2016-06-29T10:57:16Z</time>
      </trkpt>
      <trkpt lat="42.49454" lon="2.23781">
        <ele>1237.35</ele>
        <time>2016-06-29T10:57:22Z</time>
      </trkpt>
      <trkpt lat="42.49453" lon="2.23782">
        <ele>1236.87</ele>
        <time>2016-06-29T10:57:26Z</time>
      </trkpt>
      <trkpt lat="42.49451" lon="2.23784">
        <ele>1237.35</ele>
        <time>2016-06-29T10:57:29Z</time>
      </trkpt>
      <trkpt lat="42.49445" lon="2.23787">
        <ele>1238.32</ele>
        <time>2016-06-29T10:57:36Z</time>
      </trkpt>
      <trkpt lat="42.4944" lon="2.23797">
        <ele>1238.8</ele>
        <time>2016-06-29T10:57:45Z</time>
      </trkpt>
      <trkpt lat="42.49431" lon="2.2381">
        <ele>1240.24</ele>
        <time>2016-06-29T10:57:56Z</time>
      </trkpt>
      <trkpt lat="42.49425" lon="2.23818">
        <ele>1241.2</ele>
        <time>2016-06-29T10:58:06Z</time>
      </trkpt>
      <trkpt lat="42.49418" lon="2.23824">
        <ele>1241.68</ele>
        <time>2016-06-29T10:58:16Z</time>
      </trkpt>
      <trkpt lat="42.49415" lon="2.23825">
        <ele>1242.16</ele>
        <time>2016-06-29T10:58:20Z</time>
      </trkpt>
      <trkpt lat="42.4941" lon="2.2383">
        <ele>1243.6</ele>
        <time>2016-06-29T10:58:29Z</time>
      </trkpt>
      <trkpt lat="42.49406" lon="2.23833">
        <ele>1245.04</ele>
        <time>2016-06-29T10:58:37Z</time>
      </trkpt>
      <trkpt lat="42.49399" lon="2.23842">
        <ele>1246.49</ele>
        <time>2016-06-29T10:58:46Z</time>
      </trkpt>
      <trkpt lat="42.49384" lon="2.23855">
        <ele>1247.93</ele>
        <time>2016-06-29T10:58:56Z</time>
      </trkpt>
      <trkpt lat="42.49384" lon="2.23856">
        <ele>1248.41</ele>
        <time>2016-06-29T10:58:57Z</time>
      </trkpt>
      <trkpt lat="42.49375" lon="2.23867">
        <ele>1248.89</ele>
        <time>2016-06-29T10:59:03Z</time>
      </trkpt>
      <trkpt lat="42.49372" lon="2.23869">
        <ele>1249.37</ele>
        <time>2016-06-29T10:59:05Z</time>
      </trkpt>
      <trkpt lat="42.49365" lon="2.23875">
        <ele>1249.85</ele>
        <time>2016-06-29T10:59:12Z</time>
      </trkpt>
      <trkpt lat="42.49362" lon="2.2388">
        <ele>1250.81</ele>
        <time>2016-06-29T10:59:17Z</time>
      </trkpt>
      <trkpt lat="42.49353" lon="2.23885">
        <ele>1250.81</ele>
        <time>2016-06-29T10:59:25Z</time>
      </trkpt>
      <trkpt lat="42.49342" lon="2.2389">
        <ele>1252.74</ele>
        <time>2016-06-29T10:59:36Z</time>
      </trkpt>
      <trkpt lat="42.49341" lon="2.2389">
        <ele>1252.25</ele>
        <time>2016-06-29T10:59:37Z</time>
      </trkpt>
      <trkpt lat="42.49338" lon="2.23891">
        <ele>1253.22</ele>
        <time>2016-06-29T10:59:49Z</time>
      </trkpt>
      <trkpt lat="42.49339" lon="2.23891">
        <ele>1253.7</ele>
        <time>2016-06-29T11:00:03Z</time>
      </trkpt>
      <trkpt lat="42.4934" lon="2.2389">
        <ele>1253.7</ele>
        <time>2016-06-29T11:00:14Z</time>
      </trkpt>
      <trkpt lat="42.49339" lon="2.23889">
        <ele>1253.7</ele>
        <time>2016-06-29T11:00:29Z</time>
      </trkpt>
      <trkpt lat="42.49338" lon="2.23889">
        <ele>1253.7</ele>
        <time>2016-06-29T11:00:34Z</time>
      </trkpt>
      <trkpt lat="42.49332" lon="2.23891">
        <ele>1254.18</ele>
        <time>2016-06-29T11:00:42Z</time>
      </trkpt>
      <trkpt lat="42.49329" lon="2.23892">
        <ele>1254.18</ele>
        <time>2016-06-29T11:00:44Z</time>
      </trkpt>
      <trkpt lat="42.49322" lon="2.23889">
        <ele>1254.66</ele>
        <time>2016-06-29T11:00:52Z</time>
      </trkpt>
      <trkpt lat="42.49314" lon="2.23893">
        <ele>1255.62</ele>
        <time>2016-06-29T11:00:59Z</time>
      </trkpt>
      <trkpt lat="42.4931" lon="2.23893">
        <ele>1255.62</ele>
        <time>2016-06-29T11:01:02Z</time>
      </trkpt>
      <trkpt lat="42.493" lon="2.2389">
        <ele>1257.54</ele>
        <time>2016-06-29T11:01:14Z</time>
      </trkpt>
      <trkpt lat="42.49296" lon="2.23889">
        <ele>1258.02</ele>
        <time>2016-06-29T11:01:17Z</time>
      </trkpt>
      <trkpt lat="42.49288" lon="2.23889">
        <ele>1258.5</ele>
        <time>2016-06-29T11:01:23Z</time>
      </trkpt>
      <trkpt lat="42.49285" lon="2.23888">
        <ele>1258.98</ele>
        <time>2016-06-29T11:01:27Z</time>
      </trkpt>
      <trkpt lat="42.49281" lon="2.23886">
        <ele>1259.46</ele>
        <time>2016-06-29T11:01:30Z</time>
      </trkpt>
      <trkpt lat="42.49278" lon="2.23886">
        <ele>1259.46</ele>
        <time>2016-06-29T11:01:32Z</time>
      </trkpt>
      <trkpt lat="42.49278" lon="2.23884">
        <ele>1259.46</ele>
        <time>2016-06-29T11:01:34Z</time>
      </trkpt>
      <trkpt lat="42.49276" lon="2.23882">
        <ele>1259.94</ele>
        <time>2016-06-29T11:01:36Z</time>
      </trkpt>
      <trkpt lat="42.49269" lon="2.23883">
        <ele>1260.43</ele>
        <time>2016-06-29T11:01:43Z</time>
      </trkpt>
      <trkpt lat="42.49263" lon="2.23876">
        <ele>1262.35</ele>
        <time>2016-06-29T11:01:56Z</time>
      </trkpt>
      <trkpt lat="42.49262" lon="2.23871">
        <ele>1264.75</ele>
        <time>2016-06-29T11:02:06Z</time>
      </trkpt>
      <trkpt lat="42.49256" lon="2.23869">
        <ele>1268.12</ele>
        <time>2016-06-29T11:02:12Z</time>
      </trkpt>
      <trkpt lat="42.49255" lon="2.23869">
        <ele>1269.08</ele>
        <time>2016-06-29T11:02:13Z</time>
      </trkpt>
      <trkpt lat="42.49251" lon="2.23866">
        <ele>1271</ele>
        <time>2016-06-29T11:02:23Z</time>
      </trkpt>
      <trkpt lat="42.49248" lon="2.23859">
        <ele>1271.48</ele>
        <time>2016-06-29T11:02:33Z</time>
      </trkpt>
      <trkpt lat="42.49244" lon="2.23853">
        <ele>1273.4</ele>
        <time>2016-06-29T11:02:45Z</time>
      </trkpt>
      <trkpt lat="42.49238" lon="2.2385">
        <ele>1274.36</ele>
        <time>2016-06-29T11:02:55Z</time>
      </trkpt>
      <trkpt lat="42.49237" lon="2.23851">
        <ele>1274.36</ele>
        <time>2016-06-29T11:02:56Z</time>
      </trkpt>
      <trkpt lat="42.49231" lon="2.23853">
        <ele>1274.36</ele>
        <time>2016-06-29T11:03:01Z</time>
      </trkpt>
      <trkpt lat="42.49229" lon="2.23852">
        <ele>1273.88</ele>
        <time>2016-06-29T11:03:04Z</time>
      </trkpt>
      <trkpt lat="42.49226" lon="2.23855">
        <ele>1273.88</ele>
        <time>2016-06-29T11:03:07Z</time>
      </trkpt>
      <trkpt lat="42.49219" lon="2.23859">
        <ele>1272.92</ele>
        <time>2016-06-29T11:03:13Z</time>
      </trkpt>
      <trkpt lat="42.49218" lon="2.2386">
        <ele>1272.44</ele>
        <time>2016-06-29T11:03:14Z</time>
      </trkpt>
      <trkpt lat="42.49216" lon="2.23862">
        <ele>1271.48</ele>
        <time>2016-06-29T11:03:21Z</time>
      </trkpt>
      <trkpt lat="42.49211" lon="2.23866">
        <ele>1271.48</ele>
        <time>2016-06-29T11:03:31Z</time>
      </trkpt>
      <trkpt lat="42.49209" lon="2.23867">
        <ele>1271.48</ele>
        <time>2016-06-29T11:03:33Z</time>
      </trkpt>
      <trkpt lat="42.49204" lon="2.23867">
        <ele>1271.48</ele>
        <time>2016-06-29T11:03:37Z</time>
      </trkpt>
      <trkpt lat="42.49195" lon="2.23871">
        <ele>1271.96</ele>
        <time>2016-06-29T11:03:44Z</time>
      </trkpt>
      <trkpt lat="42.49188" lon="2.23869">
        <ele>1273.4</ele>
        <time>2016-06-29T11:03:53Z</time>
      </trkpt>
      <trkpt lat="42.49181" lon="2.23866">
        <ele>1273.88</ele>
        <time>2016-06-29T11:04:00Z</time>
      </trkpt>
      <trkpt lat="42.49176" lon="2.23863">
        <ele>1274.85</ele>
        <time>2016-06-29T11:04:04Z</time>
      </trkpt>
      <trkpt lat="42.49174" lon="2.23866">
        <ele>1274.85</ele>
        <time>2016-06-29T11:04:06Z</time>
      </trkpt>
      <trkpt lat="42.49165" lon="2.23863">
        <ele>1277.25</ele>
        <time>2016-06-29T11:04:16Z</time>
      </trkpt>
      <trkpt lat="42.49162" lon="2.23862">
        <ele>1277.73</ele>
        <time>2016-06-29T11:04:19Z</time>
      </trkpt>
      <trkpt lat="42.49156" lon="2.23862">
        <ele>1278.69</ele>
        <time>2016-06-29T11:04:26Z</time>
      </trkpt>
      <trkpt lat="42.4915" lon="2.23863">
        <ele>1279.65</ele>
        <time>2016-06-29T11:04:35Z</time>
      </trkpt>
      <trkpt lat="42.49146" lon="2.23863">
        <ele>1280.61</ele>
        <time>2016-06-29T11:04:41Z</time>
      </trkpt>
      <trkpt lat="42.49142" lon="2.23865">
        <ele>1281.57</ele>
        <time>2016-06-29T11:04:50Z</time>
      </trkpt>
      <trkpt lat="42.49141" lon="2.23866">
        <ele>1281.57</ele>
        <time>2016-06-29T11:04:52Z</time>
      </trkpt>
      <trkpt lat="42.4914" lon="2.23867">
        <ele>1282.54</ele>
        <time>2016-06-29T11:04:54Z</time>
      </trkpt>
      <trkpt lat="42.49137" lon="2.2387">
        <ele>1283.02</ele>
        <time>2016-06-29T11:04:58Z</time>
      </trkpt>
      <trkpt lat="42.49133" lon="2.23871">
        <ele>1283.02</ele>
        <time>2016-06-29T11:05:02Z</time>
      </trkpt>
      <trkpt lat="42.49128" lon="2.23874">
        <ele>1283.98</ele>
        <time>2016-06-29T11:05:12Z</time>
      </trkpt>
      <trkpt lat="42.49127" lon="2.23875">
        <ele>1283.98</ele>
        <time>2016-06-29T11:05:13Z</time>
      </trkpt>
      <trkpt lat="42.49121" lon="2.23882">
        <ele>1284.94</ele>
        <time>2016-06-29T11:05:22Z</time>
      </trkpt>
      <trkpt lat="42.49118" lon="2.23883">
        <ele>1285.9</ele>
        <time>2016-06-29T11:05:24Z</time>
      </trkpt>
      <trkpt lat="42.49113" lon="2.23888">
        <ele>1286.38</ele>
        <time>2016-06-29T11:05:34Z</time>
      </trkpt>
      <trkpt lat="42.49103" lon="2.23895">
        <ele>1287.82</ele>
        <time>2016-06-29T11:05:44Z</time>
      </trkpt>
      <trkpt lat="42.49099" lon="2.239">
        <ele>1289.27</ele>
        <time>2016-06-29T11:05:52Z</time>
      </trkpt>
      <trkpt lat="42.49093" lon="2.23906">
        <ele>1290.71</ele>
        <time>2016-06-29T11:06:00Z</time>
      </trkpt>
      <trkpt lat="42.49089" lon="2.23908">
        <ele>1291.19</ele>
        <time>2016-06-29T11:06:04Z</time>
      </trkpt>
      <trkpt lat="42.49088" lon="2.23909">
        <ele>1292.15</ele>
        <time>2016-06-29T11:06:10Z</time>
      </trkpt>
      <trkpt lat="42.49086" lon="2.23911">
        <ele>1294.07</ele>
        <time>2016-06-29T11:06:20Z</time>
      </trkpt>
      <trkpt lat="42.49078" lon="2.23918">
        <ele>1295.51</ele>
        <time>2016-06-29T11:06:31Z</time>
      </trkpt>
      <trkpt lat="42.4907" lon="2.2392">
        <ele>1296.48</ele>
        <time>2016-06-29T11:06:38Z</time>
      </trkpt>
      <trkpt lat="42.49066" lon="2.23921">
        <ele>1297.44</ele>
        <time>2016-06-29T11:06:44Z</time>
      </trkpt>
      <trkpt lat="42.49065" lon="2.23921">
        <ele>1297.44</ele>
        <time>2016-06-29T11:06:45Z</time>
      </trkpt>
      <trkpt lat="42.49062" lon="2.23924">
        <ele>1298.4</ele>
        <time>2016-06-29T11:06:48Z</time>
      </trkpt>
      <trkpt lat="42.49054" lon="2.23925">
        <ele>1299.36</ele>
        <time>2016-06-29T11:06:57Z</time>
      </trkpt>
      <trkpt lat="42.4905" lon="2.23925">
        <ele>1299.84</ele>
        <time>2016-06-29T11:07:01Z</time>
      </trkpt>
      <trkpt lat="42.49043" lon="2.23927">
        <ele>1300.8</ele>
        <time>2016-06-29T11:07:09Z</time>
      </trkpt>
      <trkpt lat="42.49021" lon="2.2396">
        <ele>1302.72</ele>
        <time>2016-06-29T11:07:19Z</time>
      </trkpt>
      <trkpt lat="42.4902" lon="2.23965">
        <ele>1303.2</ele>
        <time>2016-06-29T11:07:22Z</time>
      </trkpt>
      <trkpt lat="42.49009" lon="2.23971">
        <ele>1303.69</ele>
        <time>2016-06-29T11:07:29Z</time>
      </trkpt>
      <trkpt lat="42.49001" lon="2.23965">
        <ele>1305.61</ele>
        <time>2016-06-29T11:07:41Z</time>
      </trkpt>
      <trkpt lat="42.48996" lon="2.23959">
        <ele>1307.53</ele>
        <time>2016-06-29T11:07:49Z</time>
      </trkpt>
      <trkpt lat="42.48995" lon="2.23957">
        <ele>1307.05</ele>
        <time>2016-06-29T11:07:50Z</time>
      </trkpt>
      <trkpt lat="42.48988" lon="2.2395">
        <ele>1308.97</ele>
        <time>2016-06-29T11:08:01Z</time>
      </trkpt>
      <trkpt lat="42.48981" lon="2.23941">
        <ele>1310.9</ele>
        <time>2016-06-29T11:08:14Z</time>
      </trkpt>
      <trkpt lat="42.48968" lon="2.23935">
        <ele>1312.34</ele>
        <time>2016-06-29T11:08:27Z</time>
      </trkpt>
      <trkpt lat="42.48965" lon="2.23932">
        <ele>1312.82</ele>
        <time>2016-06-29T11:08:31Z</time>
      </trkpt>
      <trkpt lat="42.48963" lon="2.23931">
        <ele>1313.3</ele>
        <time>2016-06-29T11:08:33Z</time>
      </trkpt>
      <trkpt lat="42.48955" lon="2.23932">
        <ele>1314.74</ele>
        <time>2016-06-29T11:08:38Z</time>
      </trkpt>
      <trkpt lat="42.48949" lon="2.23926">
        <ele>1315.7</ele>
        <time>2016-06-29T11:08:47Z</time>
      </trkpt>
      <trkpt lat="42.48946" lon="2.23925">
        <ele>1316.66</ele>
        <time>2016-06-29T11:08:51Z</time>
      </trkpt>
      <trkpt lat="42.4894" lon="2.23924">
        <ele>1318.1</ele>
        <time>2016-06-29T11:09:04Z</time>
      </trkpt>
      <trkpt lat="42.48937" lon="2.23922">
        <ele>1318.59</ele>
        <time>2016-06-29T11:09:24Z</time>
      </trkpt>
      <trkpt lat="42.48932" lon="2.23922">
        <ele>1319.07</ele>
        <time>2016-06-29T11:09:45Z</time>
      </trkpt>
      <trkpt lat="42.48929" lon="2.23922">
        <ele>1319.55</ele>
        <time>2016-06-29T11:10:04Z</time>
      </trkpt>
      <trkpt lat="42.48926" lon="2.23921">
        <ele>1320.03</ele>
        <time>2016-06-29T11:10:14Z</time>
      </trkpt>
      <trkpt lat="42.48924" lon="2.23918">
        <ele>1320.51</ele>
        <time>2016-06-29T11:10:19Z</time>
      </trkpt>
      <trkpt lat="42.48918" lon="2.23907">
        <ele>1322.43</ele>
        <time>2016-06-29T11:10:30Z</time>
      </trkpt>
      <trkpt lat="42.48917" lon="2.23904">
        <ele>1322.91</ele>
        <time>2016-06-29T11:10:33Z</time>
      </trkpt>
      <trkpt lat="42.48918" lon="2.23891">
        <ele>1324.35</ele>
        <time>2016-06-29T11:10:43Z</time>
      </trkpt>
      <trkpt lat="42.48915" lon="2.2389">
        <ele>1324.83</ele>
        <time>2016-06-29T11:10:45Z</time>
      </trkpt>
      <trkpt lat="42.48909" lon="2.23887">
        <ele>1326.28</ele>
        <time>2016-06-29T11:10:51Z</time>
      </trkpt>
      <trkpt lat="42.48904" lon="2.23878">
        <ele>1327.24</ele>
        <time>2016-06-29T11:11:00Z</time>
      </trkpt>
      <trkpt lat="42.48899" lon="2.23877">
        <ele>1328.68</ele>
        <time>2016-06-29T11:11:07Z</time>
      </trkpt>
      <trkpt lat="42.48893" lon="2.23868">
        <ele>1330.6</ele>
        <time>2016-06-29T11:11:18Z</time>
      </trkpt>
      <trkpt lat="42.48892" lon="2.23866">
        <ele>1331.08</ele>
        <time>2016-06-29T11:11:22Z</time>
      </trkpt>
      <trkpt lat="42.48888" lon="2.23859">
        <ele>1332.52</ele>
        <time>2016-06-29T11:11:32Z</time>
      </trkpt>
      <trkpt lat="42.48881" lon="2.23857">
        <ele>1333.49</ele>
        <time>2016-06-29T11:11:40Z</time>
      </trkpt>
      <trkpt lat="42.48878" lon="2.23848">
        <ele>1334.45</ele>
        <time>2016-06-29T11:11:48Z</time>
      </trkpt>
      <trkpt lat="42.48877" lon="2.23843">
        <ele>1334.93</ele>
        <time>2016-06-29T11:11:53Z</time>
      </trkpt>
      <trkpt lat="42.48869" lon="2.23836">
        <ele>1336.37</ele>
        <time>2016-06-29T11:12:04Z</time>
      </trkpt>
      <trkpt lat="42.48865" lon="2.23832">
        <ele>1336.85</ele>
        <time>2016-06-29T11:12:09Z</time>
      </trkpt>
      <trkpt lat="42.4886" lon="2.23823">
        <ele>1338.29</ele>
        <time>2016-06-29T11:12:20Z</time>
      </trkpt>
      <trkpt lat="42.48854" lon="2.23817">
        <ele>1339.73</ele>
        <time>2016-06-29T11:12:29Z</time>
      </trkpt>
      <trkpt lat="42.48852" lon="2.2381">
        <ele>1340.22</ele>
        <time>2016-06-29T11:12:37Z</time>
      </trkpt>
      <trkpt lat="42.48846" lon="2.23806">
        <ele>1340.7</ele>
        <time>2016-06-29T11:12:45Z</time>
      </trkpt>
      <trkpt lat="42.48846" lon="2.23802">
        <ele>1341.18</ele>
        <time>2016-06-29T11:12:49Z</time>
      </trkpt>
      <trkpt lat="42.48842" lon="2.23796">
        <ele>1341.66</ele>
        <time>2016-06-29T11:12:55Z</time>
      </trkpt>
      <trkpt lat="42.48843" lon="2.23791">
        <ele>1342.14</ele>
        <time>2016-06-29T11:12:58Z</time>
      </trkpt>
      <trkpt lat="42.48842" lon="2.23784">
        <ele>1342.62</ele>
        <time>2016-06-29T11:13:03Z</time>
      </trkpt>
      <trkpt lat="42.48838" lon="2.23781">
        <ele>1345.98</ele>
        <time>2016-06-29T11:13:12Z</time>
      </trkpt>
      <trkpt lat="42.48835" lon="2.23782">
        <ele>1346.46</ele>
        <time>2016-06-29T11:13:14Z</time>
      </trkpt>
      <trkpt lat="42.48824" lon="2.23782">
        <ele>1347.43</ele>
        <time>2016-06-29T11:13:25Z</time>
      </trkpt>
      <trkpt lat="42.4882" lon="2.23781">
        <ele>1347.43</ele>
        <time>2016-06-29T11:13:32Z</time>
      </trkpt>
      <trkpt lat="42.48817" lon="2.2378">
        <ele>1347.43</ele>
        <time>2016-06-29T11:13:35Z</time>
      </trkpt>
      <trkpt lat="42.48807" lon="2.23774">
        <ele>1349.35</ele>
        <time>2016-06-29T11:13:47Z</time>
      </trkpt>
      <trkpt lat="42.48806" lon="2.23774">
        <ele>1349.35</ele>
        <time>2016-06-29T11:13:48Z</time>
      </trkpt>
      <trkpt lat="42.488" lon="2.23773">
        <ele>1349.83</ele>
        <time>2016-06-29T11:13:55Z</time>
      </trkpt>
      <trkpt lat="42.48796" lon="2.23774">
        <ele>1350.31</ele>
        <time>2016-06-29T11:13:59Z</time>
      </trkpt>
      <trkpt lat="42.48792" lon="2.23774">
        <ele>1350.79</ele>
        <time>2016-06-29T11:14:04Z</time>
      </trkpt>
      <trkpt lat="42.48786" lon="2.23773">
        <ele>1351.75</ele>
        <time>2016-06-29T11:14:11Z</time>
      </trkpt>
      <trkpt lat="42.48784" lon="2.23774">
        <ele>1352.23</ele>
        <time>2016-06-29T11:14:14Z</time>
      </trkpt>
      <trkpt lat="42.48777" lon="2.23776">
        <ele>1353.67</ele>
        <time>2016-06-29T11:14:23Z</time>
      </trkpt>
      <trkpt lat="42.48769" lon="2.2378">
        <ele>1355.12</ele>
        <time>2016-06-29T11:14:33Z</time>
      </trkpt>
      <trkpt lat="42.48768" lon="2.2378">
        <ele>1355.12</ele>
        <time>2016-06-29T11:14:35Z</time>
      </trkpt>
      <trkpt lat="42.48768" lon="2.2378">
        <ele>1355.6</ele>
        <time>2016-06-29T11:14:36Z</time>
      </trkpt>
      <trkpt lat="42.48764" lon="2.23779">
        <ele>1356.08</ele>
        <time>2016-06-29T11:14:42Z</time>
      </trkpt>
      <trkpt lat="42.48762" lon="2.23781">
        <ele>1357.04</ele>
        <time>2016-06-29T11:14:44Z</time>
      </trkpt>
      <trkpt lat="42.48757" lon="2.23788">
        <ele>1358</ele>
        <time>2016-06-29T11:14:54Z</time>
      </trkpt>
      <trkpt lat="42.48752" lon="2.23792">
        <ele>1359.44</ele>
        <time>2016-06-29T11:15:04Z</time>
      </trkpt>
      <trkpt lat="42.48743" lon="2.238">
        <ele>1361.36</ele>
        <time>2016-06-29T11:15:17Z</time>
      </trkpt>
      <trkpt lat="42.48735" lon="2.23804">
        <ele>1363.29</ele>
        <time>2016-06-29T11:15:28Z</time>
      </trkpt>
      <trkpt lat="42.48733" lon="2.23803">
        <ele>1363.29</ele>
        <time>2016-06-29T11:15:31Z</time>
      </trkpt>
      <trkpt lat="42.48723" lon="2.23801">
        <ele>1364.73</ele>
        <time>2016-06-29T11:15:42Z</time>
      </trkpt>
      <trkpt lat="42.48714" lon="2.23803">
        <ele>1366.65</ele>
        <time>2016-06-29T11:15:53Z</time>
      </trkpt>
      <trkpt lat="42.48713" lon="2.23803">
        <ele>1366.65</ele>
        <time>2016-06-29T11:15:54Z</time>
      </trkpt>
      <trkpt lat="42.48709" lon="2.23805">
        <ele>1367.61</ele>
        <time>2016-06-29T11:15:59Z</time>
      </trkpt>
      <trkpt lat="42.48707" lon="2.23806">
        <ele>1367.61</ele>
        <time>2016-06-29T11:16:02Z</time>
      </trkpt>
      <trkpt lat="42.487" lon="2.23808">
        <ele>1368.57</ele>
        <time>2016-06-29T11:16:11Z</time>
      </trkpt>
      <trkpt lat="42.48695" lon="2.23811">
        <ele>1369.54</ele>
        <time>2016-06-29T11:16:17Z</time>
      </trkpt>
      <trkpt lat="42.48684" lon="2.23815">
        <ele>1371.46</ele>
        <time>2016-06-29T11:16:29Z</time>
      </trkpt>
      <trkpt lat="42.48676" lon="2.23816">
        <ele>1372.42</ele>
        <time>2016-06-29T11:16:38Z</time>
      </trkpt>
      <trkpt lat="42.48671" lon="2.23814">
        <ele>1372.9</ele>
        <time>2016-06-29T11:16:44Z</time>
      </trkpt>
      <trkpt lat="42.48665" lon="2.23811">
        <ele>1374.34</ele>
        <time>2016-06-29T11:16:53Z</time>
      </trkpt>
      <trkpt lat="42.48659" lon="2.23812">
        <ele>1374.82</ele>
        <time>2016-06-29T11:16:56Z</time>
      </trkpt>
      <trkpt lat="42.48653" lon="2.23808">
        <ele>1375.78</ele>
        <time>2016-06-29T11:17:03Z</time>
      </trkpt>
      <trkpt lat="42.4865" lon="2.23807">
        <ele>1375.78</ele>
        <time>2016-06-29T11:17:06Z</time>
      </trkpt>
      <trkpt lat="42.48645" lon="2.23803">
        <ele>1376.75</ele>
        <time>2016-06-29T11:17:10Z</time>
      </trkpt>
      <trkpt lat="42.48642" lon="2.23799">
        <ele>1377.71</ele>
        <time>2016-06-29T11:17:17Z</time>
      </trkpt>
      <trkpt lat="42.48637" lon="2.23798">
        <ele>1378.19</ele>
        <time>2016-06-29T11:17:21Z</time>
      </trkpt>
      <trkpt lat="42.48627" lon="2.23798">
        <ele>1379.15</ele>
        <time>2016-06-29T11:17:30Z</time>
      </trkpt>
      <trkpt lat="42.48626" lon="2.23796">
        <ele>1379.63</ele>
        <time>2016-06-29T11:17:34Z</time>
      </trkpt>
      <trkpt lat="42.48624" lon="2.23792">
        <ele>1381.07</ele>
        <time>2016-06-29T11:17:39Z</time>
      </trkpt>
      <trkpt lat="42.48622" lon="2.23794">
        <ele>1381.55</ele>
        <time>2016-06-29T11:17:41Z</time>
      </trkpt>
      <trkpt lat="42.48612" lon="2.23795">
        <ele>1382.99</ele>
        <time>2016-06-29T11:17:52Z</time>
      </trkpt>
      <trkpt lat="42.48609" lon="2.23795">
        <ele>1383.47</ele>
        <time>2016-06-29T11:17:55Z</time>
      </trkpt>
      <trkpt lat="42.486" lon="2.23799">
        <ele>1385.4</ele>
        <time>2016-06-29T11:18:06Z</time>
      </trkpt>
      <trkpt lat="42.48596" lon="2.23797">
        <ele>1386.84</ele>
        <time>2016-06-29T11:18:17Z</time>
      </trkpt>
      <trkpt lat="42.48581" lon="2.23803">
        <ele>1388.28</ele>
        <time>2016-06-29T11:18:28Z</time>
      </trkpt>
      <trkpt lat="42.48578" lon="2.23803">
        <ele>1389.72</ele>
        <time>2016-06-29T11:18:34Z</time>
      </trkpt>
      <trkpt lat="42.48575" lon="2.23804">
        <ele>1390.2</ele>
        <time>2016-06-29T11:18:38Z</time>
      </trkpt>
      <trkpt lat="42.48568" lon="2.238">
        <ele>1392.13</ele>
        <time>2016-06-29T11:18:49Z</time>
      </trkpt>
      <trkpt lat="42.48565" lon="2.23798">
        <ele>1393.09</ele>
        <time>2016-06-29T11:18:56Z</time>
      </trkpt>
      <trkpt lat="42.48559" lon="2.23795">
        <ele>1394.53</ele>
        <time>2016-06-29T11:19:07Z</time>
      </trkpt>
      <trkpt lat="42.48548" lon="2.238">
        <ele>1395.49</ele>
        <time>2016-06-29T11:19:14Z</time>
      </trkpt>
      <trkpt lat="42.48538" lon="2.23807">
        <ele>1396.45</ele>
        <time>2016-06-29T11:19:25Z</time>
      </trkpt>
      <trkpt lat="42.48534" lon="2.23811">
        <ele>1397.89</ele>
        <time>2016-06-29T11:19:30Z</time>
      </trkpt>
      <trkpt lat="42.48528" lon="2.23816">
        <ele>1398.37</ele>
        <time>2016-06-29T11:19:36Z</time>
      </trkpt>
      <trkpt lat="42.48521" lon="2.23822">
        <ele>1400.78</ele>
        <time>2016-06-29T11:19:48Z</time>
      </trkpt>
      <trkpt lat="42.48517" lon="2.23824">
        <ele>1401.26</ele>
        <time>2016-06-29T11:19:54Z</time>
      </trkpt>
      <trkpt lat="42.48513" lon="2.23825">
        <ele>1402.22</ele>
        <time>2016-06-29T11:20:00Z</time>
      </trkpt>
      <trkpt lat="42.48514" lon="2.23824">
        <ele>1403.18</ele>
        <time>2016-06-29T11:20:03Z</time>
      </trkpt>
      <trkpt lat="42.48502" lon="2.23826">
        <ele>1404.62</ele>
        <time>2016-06-29T11:20:14Z</time>
      </trkpt>
      <trkpt lat="42.48497" lon="2.23827">
        <ele>1405.1</ele>
        <time>2016-06-29T11:20:28Z</time>
      </trkpt>
      <trkpt lat="42.48497" lon="2.23827">
        <ele>1405.58</ele>
        <time>2016-06-29T11:20:47Z</time>
      </trkpt>
      <trkpt lat="42.48497" lon="2.23827">
        <ele>1405.58</ele>
        <time>2016-06-29T11:20:50Z</time>
      </trkpt>
      <trkpt lat="42.48492" lon="2.2383">
        <ele>1407.51</ele>
        <time>2016-06-29T11:21:00Z</time>
      </trkpt>
      <trkpt lat="42.48488" lon="2.2383">
        <ele>1407.99</ele>
        <time>2016-06-29T11:21:04Z</time>
      </trkpt>
      <trkpt lat="42.48483" lon="2.2383">
        <ele>1409.43</ele>
        <time>2016-06-29T11:21:15Z</time>
      </trkpt>
      <trkpt lat="42.48472" lon="2.23833">
        <ele>1411.35</ele>
        <time>2016-06-29T11:21:26Z</time>
      </trkpt>
      <trkpt lat="42.48472" lon="2.23835">
        <ele>1411.83</ele>
        <time>2016-06-29T11:21:28Z</time>
      </trkpt>
      <trkpt lat="42.4847" lon="2.23838">
        <ele>1412.79</ele>
        <time>2016-06-29T11:21:37Z</time>
      </trkpt>
      <trkpt lat="42.48465" lon="2.2384">
        <ele>1414.24</ele>
        <time>2016-06-29T11:21:46Z</time>
      </trkpt>
      <trkpt lat="42.48462" lon="2.23842">
        <ele>1415.68</ele>
        <time>2016-06-29T11:21:55Z</time>
      </trkpt>
      <trkpt lat="42.48454" lon="2.2385">
        <ele>1416.64</ele>
        <time>2016-06-29T11:22:07Z</time>
      </trkpt>
      <trkpt lat="42.48449" lon="2.23855">
        <ele>1417.6</ele>
        <time>2016-06-29T11:22:13Z</time>
      </trkpt>
      <trkpt lat="42.4844" lon="2.23859">
        <ele>1419.52</ele>
        <time>2016-06-29T11:22:24Z</time>
      </trkpt>
      <trkpt lat="42.48433" lon="2.23864">
        <ele>1420.97</ele>
        <time>2016-06-29T11:22:35Z</time>
      </trkpt>
      <trkpt lat="42.48425" lon="2.23866">
        <ele>1422.89</ele>
        <time>2016-06-29T11:22:46Z</time>
      </trkpt>
      <trkpt lat="42.4842" lon="2.23871">
        <ele>1423.85</ele>
        <time>2016-06-29T11:22:56Z</time>
      </trkpt>
      <trkpt lat="42.48413" lon="2.23871">
        <ele>1425.29</ele>
        <time>2016-06-29T11:23:05Z</time>
      </trkpt>
      <trkpt lat="42.48404" lon="2.2387">
        <ele>1426.25</ele>
        <time>2016-06-29T11:23:16Z</time>
      </trkpt>
      <trkpt lat="42.48398" lon="2.23871">
        <ele>1427.7</ele>
        <time>2016-06-29T11:23:25Z</time>
      </trkpt>
      <trkpt lat="42.48391" lon="2.23869">
        <ele>1429.14</ele>
        <time>2016-06-29T11:23:37Z</time>
      </trkpt>
      <trkpt lat="42.4839" lon="2.23868">
        <ele>1429.62</ele>
        <time>2016-06-29T11:23:40Z</time>
      </trkpt>
      <trkpt lat="42.48389" lon="2.23866">
        <ele>1430.1</ele>
        <time>2016-06-29T11:23:43Z</time>
      </trkpt>
      <trkpt lat="42.48386" lon="2.23866">
        <ele>1430.1</ele>
        <time>2016-06-29T11:23:46Z</time>
      </trkpt>
      <trkpt lat="42.48377" lon="2.23865">
        <ele>1431.54</ele>
        <time>2016-06-29T11:23:56Z</time>
      </trkpt>
      <trkpt lat="42.48369" lon="2.23865">
        <ele>1433.46</ele>
        <time>2016-06-29T11:24:08Z</time>
      </trkpt>
      <trkpt lat="42.48362" lon="2.23869">
        <ele>1434.91</ele>
        <time>2016-06-29T11:24:19Z</time>
      </trkpt>
      <trkpt lat="42.48358" lon="2.23871">
        <ele>1435.39</ele>
        <time>2016-06-29T11:24:26Z</time>
      </trkpt>
      <trkpt lat="42.4835" lon="2.23872">
        <ele>1437.31</ele>
        <time>2016-06-29T11:24:36Z</time>
      </trkpt>
      <trkpt lat="42.48345" lon="2.23874">
        <ele>1438.75</ele>
        <time>2016-06-29T11:24:46Z</time>
      </trkpt>
      <trkpt lat="42.4834" lon="2.23881">
        <ele>1440.19</ele>
        <time>2016-06-29T11:24:57Z</time>
      </trkpt>
      <trkpt lat="42.48338" lon="2.23884">
        <ele>1440.19</ele>
        <time>2016-06-29T11:24:59Z</time>
      </trkpt>
      <trkpt lat="42.48337" lon="2.23887">
        <ele>1440.67</ele>
        <time>2016-06-29T11:25:02Z</time>
      </trkpt>
      <trkpt lat="42.48332" lon="2.23893">
        <ele>1442.11</ele>
        <time>2016-06-29T11:25:09Z</time>
      </trkpt>
      <trkpt lat="42.48324" lon="2.23899">
        <ele>1443.08</ele>
        <time>2016-06-29T11:25:18Z</time>
      </trkpt>
      <trkpt lat="42.48323" lon="2.23899">
        <ele>1443.56</ele>
        <time>2016-06-29T11:25:19Z</time>
      </trkpt>
      <trkpt lat="42.48315" lon="2.23902">
        <ele>1444.52</ele>
        <time>2016-06-29T11:25:29Z</time>
      </trkpt>
      <trkpt lat="42.48307" lon="2.23904">
        <ele>1445.96</ele>
        <time>2016-06-29T11:25:38Z</time>
      </trkpt>
      <trkpt lat="42.48297" lon="2.23907">
        <ele>1447.4</ele>
        <time>2016-06-29T11:25:50Z</time>
      </trkpt>
      <trkpt lat="42.48291" lon="2.23911">
        <ele>1449.32</ele>
        <time>2016-06-29T11:25:59Z</time>
      </trkpt>
      <trkpt lat="42.48282" lon="2.23914">
        <ele>1450.29</ele>
        <time>2016-06-29T11:26:11Z</time>
      </trkpt>
      <trkpt lat="42.48275" lon="2.2392">
        <ele>1452.21</ele>
        <time>2016-06-29T11:26:22Z</time>
      </trkpt>
      <trkpt lat="42.48245" lon="2.2394">
        <ele>1454.13</ele>
        <time>2016-06-29T11:26:36Z</time>
      </trkpt>
      <trkpt lat="42.48239" lon="2.23943">
        <ele>1455.57</ele>
        <time>2016-06-29T11:26:45Z</time>
      </trkpt>
      <trkpt lat="42.48233" lon="2.23943">
        <ele>1456.53</ele>
        <time>2016-06-29T11:26:51Z</time>
      </trkpt>
      <trkpt lat="42.48227" lon="2.23941">
        <ele>1457.98</ele>
        <time>2016-06-29T11:27:03Z</time>
      </trkpt>
      <trkpt lat="42.48225" lon="2.23941">
        <ele>1459.9</ele>
        <time>2016-06-29T11:27:20Z</time>
      </trkpt>
      <trkpt lat="42.48223" lon="2.23953">
        <ele>1460.38</ele>
        <time>2016-06-29T11:27:41Z</time>
      </trkpt>
      <trkpt lat="42.48218" lon="2.23952">
        <ele>1460.86</ele>
        <time>2016-06-29T11:27:51Z</time>
      </trkpt>
      <trkpt lat="42.48209" lon="2.23951">
        <ele>1462.3</ele>
        <time>2016-06-29T11:28:03Z</time>
      </trkpt>
      <trkpt lat="42.48206" lon="2.23951">
        <ele>1462.78</ele>
        <time>2016-06-29T11:28:08Z</time>
      </trkpt>
      <trkpt lat="42.48195" lon="2.23943">
        <ele>1463.74</ele>
        <time>2016-06-29T11:28:18Z</time>
      </trkpt>
      <trkpt lat="42.48186" lon="2.23943">
        <ele>1465.19</ele>
        <time>2016-06-29T11:28:25Z</time>
      </trkpt>
      <trkpt lat="42.48179" lon="2.23939">
        <ele>1466.15</ele>
        <time>2016-06-29T11:28:34Z</time>
      </trkpt>
      <trkpt lat="42.48178" lon="2.23939">
        <ele>1466.15</ele>
        <time>2016-06-29T11:28:35Z</time>
      </trkpt>
      <trkpt lat="42.48167" lon="2.23939">
        <ele>1468.07</ele>
        <time>2016-06-29T11:28:46Z</time>
      </trkpt>
      <trkpt lat="42.48163" lon="2.23938">
        <ele>1469.03</ele>
        <time>2016-06-29T11:28:56Z</time>
      </trkpt>
      <trkpt lat="42.48157" lon="2.23943">
        <ele>1470.95</ele>
        <time>2016-06-29T11:29:09Z</time>
      </trkpt>
      <trkpt lat="42.48148" lon="2.23941">
        <ele>1472.4</ele>
        <time>2016-06-29T11:29:19Z</time>
      </trkpt>
      <trkpt lat="42.48142" lon="2.2394">
        <ele>1473.36</ele>
        <time>2016-06-29T11:29:26Z</time>
      </trkpt>
      <trkpt lat="42.48137" lon="2.23939">
        <ele>1473.84</ele>
        <time>2016-06-29T11:29:32Z</time>
      </trkpt>
      <trkpt lat="42.48124" lon="2.23941">
        <ele>1475.28</ele>
        <time>2016-06-29T11:29:44Z</time>
      </trkpt>
      <trkpt lat="42.48115" lon="2.23944">
        <ele>1477.2</ele>
        <time>2016-06-29T11:29:55Z</time>
      </trkpt>
      <trkpt lat="42.48105" lon="2.23949">
        <ele>1479.13</ele>
        <time>2016-06-29T11:30:07Z</time>
      </trkpt>
      <trkpt lat="42.48095" lon="2.23949">
        <ele>1481.05</ele>
        <time>2016-06-29T11:30:21Z</time>
      </trkpt>
      <trkpt lat="42.48083" lon="2.23946">
        <ele>1482.97</ele>
        <time>2016-06-29T11:30:33Z</time>
      </trkpt>
      <trkpt lat="42.48077" lon="2.2395">
        <ele>1484.89</ele>
        <time>2016-06-29T11:30:44Z</time>
      </trkpt>
      <trkpt lat="42.48076" lon="2.2395">
        <ele>1484.89</ele>
        <time>2016-06-29T11:30:45Z</time>
      </trkpt>
      <trkpt lat="42.48066" lon="2.23951">
        <ele>1487.3</ele>
        <time>2016-06-29T11:30:57Z</time>
      </trkpt>
      <trkpt lat="42.48059" lon="2.23953">
        <ele>1488.26</ele>
        <time>2016-06-29T11:31:07Z</time>
      </trkpt>
      <trkpt lat="42.48052" lon="2.23955">
        <ele>1490.66</ele>
        <time>2016-06-29T11:31:18Z</time>
      </trkpt>
      <trkpt lat="42.48047" lon="2.23955">
        <ele>1491.14</ele>
        <time>2016-06-29T11:31:23Z</time>
      </trkpt>
      <trkpt lat="42.48038" lon="2.23958">
        <ele>1493.06</ele>
        <time>2016-06-29T11:31:33Z</time>
      </trkpt>
      <trkpt lat="42.48034" lon="2.23957">
        <ele>1494.03</ele>
        <time>2016-06-29T11:31:39Z</time>
      </trkpt>
      <trkpt lat="42.48027" lon="2.2396">
        <ele>1495.47</ele>
        <time>2016-06-29T11:31:50Z</time>
      </trkpt>
      <trkpt lat="42.48022" lon="2.23961">
        <ele>1496.43</ele>
        <time>2016-06-29T11:31:59Z</time>
      </trkpt>
      <trkpt lat="42.48019" lon="2.23961">
        <ele>1496.91</ele>
        <time>2016-06-29T11:32:03Z</time>
      </trkpt>
      <trkpt lat="42.48015" lon="2.23968">
        <ele>1498.35</ele>
        <time>2016-06-29T11:32:13Z</time>
      </trkpt>
      <trkpt lat="42.48006" lon="2.2397">
        <ele>1500.27</ele>
        <time>2016-06-29T11:32:25Z</time>
      </trkpt>
      <trkpt lat="42.47992" lon="2.23972">
        <ele>1501.72</ele>
        <time>2016-06-29T11:32:35Z</time>
      </trkpt>
      <trkpt lat="42.47981" lon="2.23971">
        <ele>1502.68</ele>
        <time>2016-06-29T11:32:44Z</time>
      </trkpt>
      <trkpt lat="42.47975" lon="2.23965">
        <ele>1503.64</ele>
        <time>2016-06-29T11:32:54Z</time>
      </trkpt>
      <trkpt lat="42.47973" lon="2.23963">
        <ele>1504.6</ele>
        <time>2016-06-29T11:32:58Z</time>
      </trkpt>
      <trkpt lat="42.47967" lon="2.23959">
        <ele>1505.56</ele>
        <time>2016-06-29T11:33:09Z</time>
      </trkpt>
      <trkpt lat="42.47961" lon="2.23963">
        <ele>1506.52</ele>
        <time>2016-06-29T11:33:19Z</time>
      </trkpt>
      <trkpt lat="42.47958" lon="2.23962">
        <ele>1507.97</ele>
        <time>2016-06-29T11:33:27Z</time>
      </trkpt>
      <trkpt lat="42.47955" lon="2.23962">
        <ele>1508.45</ele>
        <time>2016-06-29T11:33:30Z</time>
      </trkpt>
      <trkpt lat="42.47948" lon="2.23964">
        <ele>1509.89</ele>
        <time>2016-06-29T11:33:41Z</time>
      </trkpt>
      <trkpt lat="42.47948" lon="2.23964">
        <ele>1509.89</ele>
        <time>2016-06-29T11:33:42Z</time>
      </trkpt>
      <trkpt lat="42.47946" lon="2.23962">
        <ele>1509.89</ele>
        <time>2016-06-29T11:33:44Z</time>
      </trkpt>
      <trkpt lat="42.47943" lon="2.23962">
        <ele>1510.85</ele>
        <time>2016-06-29T11:33:47Z</time>
      </trkpt>
      <trkpt lat="42.47939" lon="2.23959">
        <ele>1511.33</ele>
        <time>2016-06-29T11:33:50Z</time>
      </trkpt>
      <trkpt lat="42.4793" lon="2.23963">
        <ele>1512.29</ele>
        <time>2016-06-29T11:34:02Z</time>
      </trkpt>
      <trkpt lat="42.4793" lon="2.23965">
        <ele>1512.77</ele>
        <time>2016-06-29T11:34:05Z</time>
      </trkpt>
      <trkpt lat="42.47922" lon="2.23969">
        <ele>1513.73</ele>
        <time>2016-06-29T11:34:15Z</time>
      </trkpt>
      <trkpt lat="42.47925" lon="2.23967">
        <ele>1514.21</ele>
        <time>2016-06-29T11:34:29Z</time>
      </trkpt>
      <trkpt lat="42.47914" lon="2.23976">
        <ele>1515.18</ele>
        <time>2016-06-29T11:34:48Z</time>
      </trkpt>
      <trkpt lat="42.47916" lon="2.23978">
        <ele>1515.18</ele>
        <time>2016-06-29T11:35:05Z</time>
      </trkpt>
      <trkpt lat="42.47915" lon="2.23979">
        <ele>1515.18</ele>
        <time>2016-06-29T11:35:09Z</time>
      </trkpt>
      <trkpt lat="42.47911" lon="2.23978">
        <ele>1515.66</ele>
        <time>2016-06-29T11:35:16Z</time>
      </trkpt>
      <trkpt lat="42.47909" lon="2.23978">
        <ele>1516.14</ele>
        <time>2016-06-29T11:35:21Z</time>
      </trkpt>
      <trkpt lat="42.47909" lon="2.23977">
        <ele>1516.62</ele>
        <time>2016-06-29T11:35:25Z</time>
      </trkpt>
      <trkpt lat="42.479" lon="2.23985">
        <ele>1518.06</ele>
        <time>2016-06-29T11:35:35Z</time>
      </trkpt>
      <trkpt lat="42.47898" lon="2.23986">
        <ele>1518.54</ele>
        <time>2016-06-29T11:35:37Z</time>
      </trkpt>
      <trkpt lat="42.47883" lon="2.2399">
        <ele>1520.94</ele>
        <time>2016-06-29T11:35:50Z</time>
      </trkpt>
      <trkpt lat="42.47875" lon="2.23988">
        <ele>1521.9</ele>
        <time>2016-06-29T11:35:58Z</time>
      </trkpt>
      <trkpt lat="42.47872" lon="2.23988">
        <ele>1522.87</ele>
        <time>2016-06-29T11:36:05Z</time>
      </trkpt>
      <trkpt lat="42.47869" lon="2.23985">
        <ele>1523.83</ele>
        <time>2016-06-29T11:36:10Z</time>
      </trkpt>
      <trkpt lat="42.47864" lon="2.23985">
        <ele>1524.79</ele>
        <time>2016-06-29T11:36:18Z</time>
      </trkpt>
      <trkpt lat="42.47858" lon="2.23984">
        <ele>1525.75</ele>
        <time>2016-06-29T11:36:26Z</time>
      </trkpt>
      <trkpt lat="42.47852" lon="2.23983">
        <ele>1527.19</ele>
        <time>2016-06-29T11:36:35Z</time>
      </trkpt>
      <trkpt lat="42.47841" lon="2.23982">
        <ele>1529.11</ele>
        <time>2016-06-29T11:36:44Z</time>
      </trkpt>
      <trkpt lat="42.47835" lon="2.23981">
        <ele>1530.08</ele>
        <time>2016-06-29T11:36:54Z</time>
      </trkpt>
      <trkpt lat="42.47831" lon="2.23981">
        <ele>1531.04</ele>
        <time>2016-06-29T11:37:01Z</time>
      </trkpt>
      <trkpt lat="42.47822" lon="2.23984">
        <ele>1532.48</ele>
        <time>2016-06-29T11:37:11Z</time>
      </trkpt>
      <trkpt lat="42.47822" lon="2.23984">
        <ele>1532.48</ele>
        <time>2016-06-29T11:37:12Z</time>
      </trkpt>
      <trkpt lat="42.47816" lon="2.23981">
        <ele>1533.92</ele>
        <time>2016-06-29T11:37:23Z</time>
      </trkpt>
      <trkpt lat="42.4781" lon="2.23979">
        <ele>1535.36</ele>
        <time>2016-06-29T11:37:33Z</time>
      </trkpt>
      <trkpt lat="42.47811" lon="2.2398">
        <ele>1535.84</ele>
        <time>2016-06-29T11:37:34Z</time>
      </trkpt>
      <trkpt lat="42.47807" lon="2.23979">
        <ele>1536.32</ele>
        <time>2016-06-29T11:37:38Z</time>
      </trkpt>
      <trkpt lat="42.47807" lon="2.23978">
        <ele>1536.8</ele>
        <time>2016-06-29T11:37:42Z</time>
      </trkpt>
      <trkpt lat="42.47805" lon="2.23978">
        <ele>1537.29</ele>
        <time>2016-06-29T11:37:45Z</time>
      </trkpt>
      <trkpt lat="42.47797" lon="2.23977">
        <ele>1538.25</ele>
        <time>2016-06-29T11:37:53Z</time>
      </trkpt>
      <trkpt lat="42.47795" lon="2.23973">
        <ele>1539.69</ele>
        <time>2016-06-29T11:38:03Z</time>
      </trkpt>
      <trkpt lat="42.47791" lon="2.23971">
        <ele>1540.65</ele>
        <time>2016-06-29T11:38:10Z</time>
      </trkpt>
      <trkpt lat="42.47786" lon="2.23972">
        <ele>1541.13</ele>
        <time>2016-06-29T11:38:13Z</time>
      </trkpt>
      <trkpt lat="42.4778" lon="2.23972">
        <ele>1543.05</ele>
        <time>2016-06-29T11:38:21Z</time>
      </trkpt>
      <trkpt lat="42.47772" lon="2.23972">
        <ele>1544.01</ele>
        <time>2016-06-29T11:38:28Z</time>
      </trkpt>
      <trkpt lat="42.47768" lon="2.23972">
        <ele>1544.5</ele>
        <time>2016-06-29T11:38:34Z</time>
      </trkpt>
      <trkpt lat="42.47765" lon="2.23971">
        <ele>1544.5</ele>
        <time>2016-06-29T11:38:36Z</time>
      </trkpt>
      <trkpt lat="42.47759" lon="2.23972">
        <ele>1545.46</ele>
        <time>2016-06-29T11:38:42Z</time>
      </trkpt>
      <trkpt lat="42.47759" lon="2.23974">
        <ele>1545.94</ele>
        <time>2016-06-29T11:38:45Z</time>
      </trkpt>
      <trkpt lat="42.47749" lon="2.23974">
        <ele>1546.9</ele>
        <time>2016-06-29T11:38:52Z</time>
      </trkpt>
      <trkpt lat="42.47738" lon="2.23976">
        <ele>1548.34</ele>
        <time>2016-06-29T11:39:01Z</time>
      </trkpt>
      <trkpt lat="42.47735" lon="2.23979">
        <ele>1550.26</ele>
        <time>2016-06-29T11:39:10Z</time>
      </trkpt>
      <trkpt lat="42.47731" lon="2.2398">
        <ele>1550.74</ele>
        <time>2016-06-29T11:39:15Z</time>
      </trkpt>
      <trkpt lat="42.47729" lon="2.23983">
        <ele>1551.71</ele>
        <time>2016-06-29T11:39:22Z</time>
      </trkpt>
      <trkpt lat="42.47723" lon="2.23982">
        <ele>1553.15</ele>
        <time>2016-06-29T11:39:31Z</time>
      </trkpt>
      <trkpt lat="42.47721" lon="2.23982">
        <ele>1553.63</ele>
        <time>2016-06-29T11:39:35Z</time>
      </trkpt>
      <trkpt lat="42.47719" lon="2.23981">
        <ele>1553.63</ele>
        <time>2016-06-29T11:39:37Z</time>
      </trkpt>
      <trkpt lat="42.47713" lon="2.23982">
        <ele>1554.59</ele>
        <time>2016-06-29T11:39:42Z</time>
      </trkpt>
      <trkpt lat="42.4771" lon="2.23984">
        <ele>1554.59</ele>
        <time>2016-06-29T11:39:44Z</time>
      </trkpt>
      <trkpt lat="42.47707" lon="2.23983">
        <ele>1555.07</ele>
        <time>2016-06-29T11:39:49Z</time>
      </trkpt>
      <trkpt lat="42.47699" lon="2.23984">
        <ele>1556.51</ele>
        <time>2016-06-29T11:40:00Z</time>
      </trkpt>
      <trkpt lat="42.47688" lon="2.23985">
        <ele>1557.95</ele>
        <time>2016-06-29T11:40:08Z</time>
      </trkpt>
      <trkpt lat="42.47678" lon="2.2399">
        <ele>1558.92</ele>
        <time>2016-06-29T11:40:19Z</time>
      </trkpt>
      <trkpt lat="42.47676" lon="2.23986">
        <ele>1559.88</ele>
        <time>2016-06-29T11:40:32Z</time>
      </trkpt>
      <trkpt lat="42.47673" lon="2.23979">
        <ele>1560.36</ele>
        <time>2016-06-29T11:40:39Z</time>
      </trkpt>
      <trkpt lat="42.4767" lon="2.23977">
        <ele>1560.36</ele>
        <time>2016-06-29T11:40:41Z</time>
      </trkpt>
      <trkpt lat="42.47658" lon="2.23972">
        <ele>1561.8</ele>
        <time>2016-06-29T11:40:50Z</time>
      </trkpt>
      <trkpt lat="42.47646" lon="2.2397">
        <ele>1562.76</ele>
        <time>2016-06-29T11:41:00Z</time>
      </trkpt>
      <trkpt lat="42.47644" lon="2.23969">
        <ele>1563.24</ele>
        <time>2016-06-29T11:41:03Z</time>
      </trkpt>
      <trkpt lat="42.47634" lon="2.23973">
        <ele>1564.68</ele>
        <time>2016-06-29T11:41:13Z</time>
      </trkpt>
      <trkpt lat="42.4763" lon="2.23975">
        <ele>1566.12</ele>
        <time>2016-06-29T11:41:29Z</time>
      </trkpt>
      <trkpt lat="42.47624" lon="2.23972">
        <ele>1566.61</ele>
        <time>2016-06-29T11:41:35Z</time>
      </trkpt>
      <trkpt lat="42.47622" lon="2.23969">
        <ele>1566.61</ele>
        <time>2016-06-29T11:41:38Z</time>
      </trkpt>
      <trkpt lat="42.47615" lon="2.23963">
        <ele>1567.57</ele>
        <time>2016-06-29T11:41:47Z</time>
      </trkpt>
      <trkpt lat="42.47607" lon="2.23961">
        <ele>1568.53</ele>
        <time>2016-06-29T11:41:55Z</time>
      </trkpt>
      <trkpt lat="42.47601" lon="2.23959">
        <ele>1569.01</ele>
        <time>2016-06-29T11:42:01Z</time>
      </trkpt>
      <trkpt lat="42.47599" lon="2.23956">
        <ele>1570.93</ele>
        <time>2016-06-29T11:42:09Z</time>
      </trkpt>
      <trkpt lat="42.47589" lon="2.23956">
        <ele>1572.37</ele>
        <time>2016-06-29T11:42:21Z</time>
      </trkpt>
      <trkpt lat="42.47584" lon="2.23954">
        <ele>1573.82</ele>
        <time>2016-06-29T11:42:28Z</time>
      </trkpt>
      <trkpt lat="42.47577" lon="2.23958">
        <ele>1574.78</ele>
        <time>2016-06-29T11:42:35Z</time>
      </trkpt>
      <trkpt lat="42.47573" lon="2.23962">
        <ele>1575.74</ele>
        <time>2016-06-29T11:42:40Z</time>
      </trkpt>
      <trkpt lat="42.47568" lon="2.23959">
        <ele>1577.66</ele>
        <time>2016-06-29T11:42:52Z</time>
      </trkpt>
      <trkpt lat="42.47567" lon="2.23958">
        <ele>1577.66</ele>
        <time>2016-06-29T11:42:54Z</time>
      </trkpt>
      <trkpt lat="42.47562" lon="2.2396">
        <ele>1578.14</ele>
        <time>2016-06-29T11:42:58Z</time>
      </trkpt>
      <trkpt lat="42.47549" lon="2.23967">
        <ele>1580.06</ele>
        <time>2016-06-29T11:43:09Z</time>
      </trkpt>
      <trkpt lat="42.47546" lon="2.23968">
        <ele>1580.06</ele>
        <time>2016-06-29T11:43:11Z</time>
      </trkpt>
      <trkpt lat="42.47539" lon="2.23967">
        <ele>1581.99</ele>
        <time>2016-06-29T11:43:20Z</time>
      </trkpt>
      <trkpt lat="42.47534" lon="2.23968">
        <ele>1582.47</ele>
        <time>2016-06-29T11:43:26Z</time>
      </trkpt>
      <trkpt lat="42.47525" lon="2.23972">
        <ele>1583.91</ele>
        <time>2016-06-29T11:43:35Z</time>
      </trkpt>
      <trkpt lat="42.47517" lon="2.23971">
        <ele>1584.87</ele>
        <time>2016-06-29T11:43:46Z</time>
      </trkpt>
      <trkpt lat="42.47516" lon="2.23971">
        <ele>1585.35</ele>
        <time>2016-06-29T11:43:47Z</time>
      </trkpt>
      <trkpt lat="42.47508" lon="2.23971">
        <ele>1585.83</ele>
        <time>2016-06-29T11:43:56Z</time>
      </trkpt>
      <trkpt lat="42.47508" lon="2.23972">
        <ele>1586.79</ele>
        <time>2016-06-29T11:43:57Z</time>
      </trkpt>
      <trkpt lat="42.47501" lon="2.23969">
        <ele>1587.27</ele>
        <time>2016-06-29T11:44:04Z</time>
      </trkpt>
      <trkpt lat="42.47491" lon="2.23965">
        <ele>1588.72</ele>
        <time>2016-06-29T11:44:16Z</time>
      </trkpt>
      <trkpt lat="42.47486" lon="2.23958">
        <ele>1590.64</ele>
        <time>2016-06-29T11:44:23Z</time>
      </trkpt>
      <trkpt lat="42.47474" lon="2.2395">
        <ele>1591.6</ele>
        <time>2016-06-29T11:44:34Z</time>
      </trkpt>
      <trkpt lat="42.47477" lon="2.23941">
        <ele>1592.08</ele>
        <time>2016-06-29T11:44:38Z</time>
      </trkpt>
      <trkpt lat="42.47477" lon="2.2394">
        <ele>1592.08</ele>
        <time>2016-06-29T11:44:40Z</time>
      </trkpt>
      <trkpt lat="42.47473" lon="2.23938">
        <ele>1592.56</ele>
        <time>2016-06-29T11:44:44Z</time>
      </trkpt>
      <trkpt lat="42.47468" lon="2.23938">
        <ele>1593.04</ele>
        <time>2016-06-29T11:44:48Z</time>
      </trkpt>
      <trkpt lat="42.47459" lon="2.23932">
        <ele>1594.96</ele>
        <time>2016-06-29T11:44:58Z</time>
      </trkpt>
      <trkpt lat="42.47452" lon="2.23927">
        <ele>1595.93</ele>
        <time>2016-06-29T11:45:09Z</time>
      </trkpt>
      <trkpt lat="42.47441" lon="2.23923">
        <ele>1596.89</ele>
        <time>2016-06-29T11:45:19Z</time>
      </trkpt>
      <trkpt lat="42.47437" lon="2.23919">
        <ele>1597.37</ele>
        <time>2016-06-29T11:45:24Z</time>
      </trkpt>
      <trkpt lat="42.47427" lon="2.23918">
        <ele>1598.81</ele>
        <time>2016-06-29T11:45:31Z</time>
      </trkpt>
      <trkpt lat="42.47418" lon="2.23914">
        <ele>1599.77</ele>
        <time>2016-06-29T11:45:40Z</time>
      </trkpt>
      <trkpt lat="42.4741" lon="2.23909">
        <ele>1600.73</ele>
        <time>2016-06-29T11:45:48Z</time>
      </trkpt>
      <trkpt lat="42.47409" lon="2.23908">
        <ele>1600.73</ele>
        <time>2016-06-29T11:45:49Z</time>
      </trkpt>
      <trkpt lat="42.474" lon="2.23908">
        <ele>1601.69</ele>
        <time>2016-06-29T11:46:00Z</time>
      </trkpt>
      <trkpt lat="42.47396" lon="2.23909">
        <ele>1602.66</ele>
        <time>2016-06-29T11:46:05Z</time>
      </trkpt>
      <trkpt lat="42.47382" lon="2.23905">
        <ele>1603.62</ele>
        <time>2016-06-29T11:46:15Z</time>
      </trkpt>
      <trkpt lat="42.47374" lon="2.23905">
        <ele>1605.54</ele>
        <time>2016-06-29T11:46:25Z</time>
      </trkpt>
      <trkpt lat="42.47369" lon="2.23906">
        <ele>1605.54</ele>
        <time>2016-06-29T11:46:29Z</time>
      </trkpt>
      <trkpt lat="42.47366" lon="2.23906">
        <ele>1605.54</ele>
        <time>2016-06-29T11:46:30Z</time>
      </trkpt>
      <trkpt lat="42.47354" lon="2.23907">
        <ele>1607.46</ele>
        <time>2016-06-29T11:46:39Z</time>
      </trkpt>
      <trkpt lat="42.47353" lon="2.23906">
        <ele>1607.94</ele>
        <time>2016-06-29T11:46:42Z</time>
      </trkpt>
      <trkpt lat="42.47344" lon="2.23902">
        <ele>1608.42</ele>
        <time>2016-06-29T11:46:50Z</time>
      </trkpt>
      <trkpt lat="42.47343" lon="2.23901">
        <ele>1608.9</ele>
        <time>2016-06-29T11:46:51Z</time>
      </trkpt>
      <trkpt lat="42.47334" lon="2.239">
        <ele>1610.35</ele>
        <time>2016-06-29T11:46:59Z</time>
      </trkpt>
      <trkpt lat="42.47326" lon="2.23903">
        <ele>1611.31</ele>
        <time>2016-06-29T11:47:08Z</time>
      </trkpt>
      <trkpt lat="42.47324" lon="2.23903">
        <ele>1611.79</ele>
        <time>2016-06-29T11:47:12Z</time>
      </trkpt>
      <trkpt lat="42.47316" lon="2.23903">
        <ele>1612.75</ele>
        <time>2016-06-29T11:47:22Z</time>
      </trkpt>
      <trkpt lat="42.47304" lon="2.23897">
        <ele>1613.71</ele>
        <time>2016-06-29T11:47:31Z</time>
      </trkpt>
      <trkpt lat="42.47295" lon="2.23896">
        <ele>1615.15</ele>
        <time>2016-06-29T11:47:37Z</time>
      </trkpt>
      <trkpt lat="42.47282" lon="2.23895">
        <ele>1615.63</ele>
        <time>2016-06-29T11:47:43Z</time>
      </trkpt>
      <trkpt lat="42.47272" lon="2.23887">
        <ele>1616.59</ele>
        <time>2016-06-29T11:47:53Z</time>
      </trkpt>
      <trkpt lat="42.4726" lon="2.23881">
        <ele>1618.52</ele>
        <time>2016-06-29T11:48:04Z</time>
      </trkpt>
      <trkpt lat="42.47257" lon="2.23881">
        <ele>1618.52</ele>
        <time>2016-06-29T11:48:06Z</time>
      </trkpt>
      <trkpt lat="42.47251" lon="2.23885">
        <ele>1619</ele>
        <time>2016-06-29T11:48:10Z</time>
      </trkpt>
      <trkpt lat="42.47249" lon="2.23886">
        <ele>1619</ele>
        <time>2016-06-29T11:48:11Z</time>
      </trkpt>
      <trkpt lat="42.47248" lon="2.23886">
        <ele>1619.48</ele>
        <time>2016-06-29T11:48:16Z</time>
      </trkpt>
      <trkpt lat="42.47248" lon="2.2388">
        <ele>1620.44</ele>
        <time>2016-06-29T11:48:22Z</time>
      </trkpt>
      <trkpt lat="42.4724" lon="2.23875">
        <ele>1620.44</ele>
        <time>2016-06-29T11:48:27Z</time>
      </trkpt>
      <trkpt lat="42.47237" lon="2.23874">
        <ele>1620.92</ele>
        <time>2016-06-29T11:48:29Z</time>
      </trkpt>
      <trkpt lat="42.47235" lon="2.23873">
        <ele>1620.92</ele>
        <time>2016-06-29T11:48:30Z</time>
      </trkpt>
      <trkpt lat="42.47236" lon="2.23867">
        <ele>1621.4</ele>
        <time>2016-06-29T11:48:37Z</time>
      </trkpt>
      <trkpt lat="42.47236" lon="2.23867">
        <ele>1621.88</ele>
        <time>2016-06-29T11:48:38Z</time>
      </trkpt>
      <trkpt lat="42.47262" lon="2.23868">
        <ele>1622.36</ele>
        <time>2016-06-29T11:48:47Z</time>
      </trkpt>
      <trkpt lat="42.47263" lon="2.23865">
        <ele>1622.84</ele>
        <time>2016-06-29T11:48:49Z</time>
      </trkpt>
      <trkpt lat="42.47258" lon="2.23859">
        <ele>1623.8</ele>
        <time>2016-06-29T11:48:59Z</time>
      </trkpt>
      <trkpt lat="42.47255" lon="2.2385">
        <ele>1625.73</ele>
        <time>2016-06-29T11:49:11Z</time>
      </trkpt>
      <trkpt lat="42.47253" lon="2.23846">
        <ele>1626.69</ele>
        <time>2016-06-29T11:49:16Z</time>
      </trkpt>
      <trkpt lat="42.47252" lon="2.23841">
        <ele>1627.65</ele>
        <time>2016-06-29T11:49:25Z</time>
      </trkpt>
      <trkpt lat="42.47245" lon="2.23831">
        <ele>1629.57</ele>
        <time>2016-06-29T11:49:36Z</time>
      </trkpt>
      <trkpt lat="42.4724" lon="2.23819">
        <ele>1631.49</ele>
        <time>2016-06-29T11:49:46Z</time>
      </trkpt>
      <trkpt lat="42.47241" lon="2.23813">
        <ele>1633.42</ele>
        <time>2016-06-29T11:50:02Z</time>
      </trkpt>
      <trkpt lat="42.47233" lon="2.23805">
        <ele>1634.86</ele>
        <time>2016-06-29T11:50:13Z</time>
      </trkpt>
      <trkpt lat="42.47228" lon="2.23804">
        <ele>1636.3</ele>
        <time>2016-06-29T11:50:18Z</time>
      </trkpt>
      <trkpt lat="42.47224" lon="2.23795">
        <ele>1637.26</ele>
        <time>2016-06-29T11:50:28Z</time>
      </trkpt>
      <trkpt lat="42.47225" lon="2.23791">
        <ele>1637.74</ele>
        <time>2016-06-29T11:50:35Z</time>
      </trkpt>
      <trkpt lat="42.47214" lon="2.23781">
        <ele>1642.07</ele>
        <time>2016-06-29T11:50:46Z</time>
      </trkpt>
      <trkpt lat="42.47213" lon="2.23778">
        <ele>1644.95</ele>
        <time>2016-06-29T11:50:51Z</time>
      </trkpt>
      <trkpt lat="42.47211" lon="2.23775">
        <ele>1644.47</ele>
        <time>2016-06-29T11:51:08Z</time>
      </trkpt>
      <trkpt lat="42.47212" lon="2.23772">
        <ele>1644.47</ele>
        <time>2016-06-29T11:51:21Z</time>
      </trkpt>
      <trkpt lat="42.47214" lon="2.23771">
        <ele>1644.47</ele>
        <time>2016-06-29T11:51:24Z</time>
      </trkpt>
      <trkpt lat="42.47215" lon="2.23766">
        <ele>1646.4</ele>
        <time>2016-06-29T11:51:36Z</time>
      </trkpt>
      <trkpt lat="42.47218" lon="2.23764">
        <ele>1648.32</ele>
        <time>2016-06-29T11:51:52Z</time>
      </trkpt>
      <trkpt lat="42.47221" lon="2.23763">
        <ele>1650.24</ele>
        <time>2016-06-29T11:52:05Z</time>
      </trkpt>
      <trkpt lat="42.47226" lon="2.23762">
        <ele>1652.64</ele>
        <time>2016-06-29T11:52:16Z</time>
      </trkpt>
      <trkpt lat="42.47226" lon="2.23759">
        <ele>1655.05</ele>
        <time>2016-06-29T11:52:28Z</time>
      </trkpt>
      <trkpt lat="42.47216" lon="2.23763">
        <ele>1655.53</ele>
        <time>2016-06-29T11:52:46Z</time>
      </trkpt>
      <trkpt lat="42.47218" lon="2.23763">
        <ele>1656.01</ele>
        <time>2016-06-29T11:52:55Z</time>
      </trkpt>
      <trkpt lat="42.47216" lon="2.23757">
        <ele>1657.45</ele>
        <time>2016-06-29T11:53:04Z</time>
      </trkpt>
      <trkpt lat="42.47219" lon="2.2375">
        <ele>1659.85</ele>
        <time>2016-06-29T11:53:16Z</time>
      </trkpt>
      <trkpt lat="42.4722" lon="2.23746">
        <ele>1663.22</ele>
        <time>2016-06-29T11:53:29Z</time>
      </trkpt>
      <trkpt lat="42.47219" lon="2.23743">
        <ele>1666.58</ele>
        <time>2016-06-29T11:53:36Z</time>
      </trkpt>
      <trkpt lat="42.47219" lon="2.2374">
        <ele>1667.06</ele>
        <time>2016-06-29T11:53:49Z</time>
      </trkpt>
      <trkpt lat="42.47219" lon="2.23736">
        <ele>1668.51</ele>
        <time>2016-06-29T11:54:15Z</time>
      </trkpt>
      <trkpt lat="42.47219" lon="2.23731">
        <ele>1668.99</ele>
        <time>2016-06-29T11:54:31Z</time>
      </trkpt>
      <trkpt lat="42.47218" lon="2.23728">
        <ele>1671.39</ele>
        <time>2016-06-29T11:54:43Z</time>
      </trkpt>
      <trkpt lat="42.47219" lon="2.23721">
        <ele>1673.79</ele>
        <time>2016-06-29T11:54:55Z</time>
      </trkpt>
      <trkpt lat="42.47214" lon="2.23716">
        <ele>1675.72</ele>
        <time>2016-06-29T11:55:06Z</time>
      </trkpt>
      <trkpt lat="42.47207" lon="2.23712">
        <ele>1676.68</ele>
        <time>2016-06-29T11:55:16Z</time>
      </trkpt>
      <trkpt lat="42.47204" lon="2.23711">
        <ele>1676.68</ele>
        <time>2016-06-29T11:55:20Z</time>
      </trkpt>
      <trkpt lat="42.47195" lon="2.23705">
        <ele>1677.16</ele>
        <time>2016-06-29T11:55:32Z</time>
      </trkpt>
      <trkpt lat="42.4719" lon="2.23701">
        <ele>1679.08</ele>
        <time>2016-06-29T11:55:43Z</time>
      </trkpt>
      <trkpt lat="42.47182" lon="2.23696">
        <ele>1680.52</ele>
        <time>2016-06-29T11:55:55Z</time>
      </trkpt>
      <trkpt lat="42.47176" lon="2.23696">
        <ele>1681.48</ele>
        <time>2016-06-29T11:56:03Z</time>
      </trkpt>
      <trkpt lat="42.47168" lon="2.23696">
        <ele>1681.48</ele>
        <time>2016-06-29T11:56:14Z</time>
      </trkpt>
      <trkpt lat="42.4716" lon="2.23694">
        <ele>1681.96</ele>
        <time>2016-06-29T11:56:25Z</time>
      </trkpt>
      <trkpt lat="42.47155" lon="2.23687">
        <ele>1684.85</ele>
        <time>2016-06-29T11:56:36Z</time>
      </trkpt>
      <trkpt lat="42.47153" lon="2.23686">
        <ele>1686.77</ele>
        <time>2016-06-29T11:56:47Z</time>
      </trkpt>
      <trkpt lat="42.4715" lon="2.23685">
        <ele>1689.17</ele>
        <time>2016-06-29T11:56:58Z</time>
      </trkpt>
      <trkpt lat="42.47145" lon="2.23682">
        <ele>1690.62</ele>
        <time>2016-06-29T11:57:11Z</time>
      </trkpt>
      <trkpt lat="42.47145" lon="2.23681">
        <ele>1692.06</ele>
        <time>2016-06-29T11:57:29Z</time>
      </trkpt>
      <trkpt lat="42.47137" lon="2.23676">
        <ele>1692.06</ele>
        <time>2016-06-29T11:57:41Z</time>
      </trkpt>
      <trkpt lat="42.47129" lon="2.23677">
        <ele>1692.06</ele>
        <time>2016-06-29T11:57:50Z</time>
      </trkpt>
      <trkpt lat="42.4712" lon="2.23674">
        <ele>1691.1</ele>
        <time>2016-06-29T11:57:59Z</time>
      </trkpt>
      <trkpt lat="42.47118" lon="2.23672">
        <ele>1691.1</ele>
        <time>2016-06-29T11:58:01Z</time>
      </trkpt>
      <trkpt lat="42.47114" lon="2.2367">
        <ele>1690.14</ele>
        <time>2016-06-29T11:58:05Z</time>
      </trkpt>
      <trkpt lat="42.47109" lon="2.23658">
        <ele>1690.14</ele>
        <time>2016-06-29T11:58:17Z</time>
      </trkpt>
      <trkpt lat="42.47105" lon="2.23651">
        <ele>1690.14</ele>
        <time>2016-06-29T11:58:28Z</time>
      </trkpt>
      <trkpt lat="42.47102" lon="2.23645">
        <ele>1690.14</ele>
        <time>2016-06-29T11:58:35Z</time>
      </trkpt>
      <trkpt lat="42.47092" lon="2.2364">
        <ele>1691.1</ele>
        <time>2016-06-29T11:58:46Z</time>
      </trkpt>
      <trkpt lat="42.4709" lon="2.23639">
        <ele>1691.1</ele>
        <time>2016-06-29T11:58:48Z</time>
      </trkpt>
      <trkpt lat="42.47087" lon="2.23637">
        <ele>1691.1</ele>
        <time>2016-06-29T11:58:52Z</time>
      </trkpt>
      <trkpt lat="42.47083" lon="2.23634">
        <ele>1691.58</ele>
        <time>2016-06-29T11:58:58Z</time>
      </trkpt>
      <trkpt lat="42.47078" lon="2.23629">
        <ele>1691.58</ele>
        <time>2016-06-29T11:59:05Z</time>
      </trkpt>
      <trkpt lat="42.47076" lon="2.2363">
        <ele>1692.54</ele>
        <time>2016-06-29T11:59:07Z</time>
      </trkpt>
      <trkpt lat="42.47073" lon="2.23628">
        <ele>1692.54</ele>
        <time>2016-06-29T11:59:10Z</time>
      </trkpt>
      <trkpt lat="42.47071" lon="2.23628">
        <ele>1693.02</ele>
        <time>2016-06-29T11:59:12Z</time>
      </trkpt>
      <trkpt lat="42.4707" lon="2.23624">
        <ele>1693.02</ele>
        <time>2016-06-29T11:59:15Z</time>
      </trkpt>
      <trkpt lat="42.47062" lon="2.2362">
        <ele>1693.98</ele>
        <time>2016-06-29T11:59:25Z</time>
      </trkpt>
      <trkpt lat="42.4706" lon="2.23618">
        <ele>1693.98</ele>
        <time>2016-06-29T11:59:29Z</time>
      </trkpt>
      <trkpt lat="42.47054" lon="2.23606">
        <ele>1695.42</ele>
        <time>2016-06-29T11:59:42Z</time>
      </trkpt>
      <trkpt lat="42.47052" lon="2.23599">
        <ele>1695.9</ele>
        <time>2016-06-29T11:59:51Z</time>
      </trkpt>
      <trkpt lat="42.47052" lon="2.23598">
        <ele>1695.9</ele>
        <time>2016-06-29T11:59:53Z</time>
      </trkpt>
      <trkpt lat="42.47049" lon="2.23589">
        <ele>1697.34</ele>
        <time>2016-06-29T12:00:05Z</time>
      </trkpt>
      <trkpt lat="42.47047" lon="2.23585">
        <ele>1697.83</ele>
        <time>2016-06-29T12:00:09Z</time>
      </trkpt>
      <trkpt lat="42.47041" lon="2.23582">
        <ele>1697.83</ele>
        <time>2016-06-29T12:00:14Z</time>
      </trkpt>
      <trkpt lat="42.47035" lon="2.23576">
        <ele>1697.83</ele>
        <time>2016-06-29T12:00:19Z</time>
      </trkpt>
      <trkpt lat="42.47035" lon="2.23569">
        <ele>1698.31</ele>
        <time>2016-06-29T12:00:28Z</time>
      </trkpt>
      <trkpt lat="42.47028" lon="2.23559">
        <ele>1700.23</ele>
        <time>2016-06-29T12:00:39Z</time>
      </trkpt>
      <trkpt lat="42.47026" lon="2.23557">
        <ele>1700.71</ele>
        <time>2016-06-29T12:00:41Z</time>
      </trkpt>
      <trkpt lat="42.47021" lon="2.23551">
        <ele>1701.67</ele>
        <time>2016-06-29T12:00:47Z</time>
      </trkpt>
      <trkpt lat="42.47012" lon="2.23545">
        <ele>1702.63</ele>
        <time>2016-06-29T12:00:57Z</time>
      </trkpt>
      <trkpt lat="42.4701" lon="2.23545">
        <ele>1702.63</ele>
        <time>2016-06-29T12:00:59Z</time>
      </trkpt>
      <trkpt lat="42.47008" lon="2.23545">
        <ele>1703.59</ele>
        <time>2016-06-29T12:01:01Z</time>
      </trkpt>
      <trkpt lat="42.47002" lon="2.2354">
        <ele>1705.04</ele>
        <time>2016-06-29T12:01:10Z</time>
      </trkpt>
      <trkpt lat="42.46992" lon="2.23534">
        <ele>1706</ele>
        <time>2016-06-29T12:01:20Z</time>
      </trkpt>
      <trkpt lat="42.4699" lon="2.23528">
        <ele>1706.96</ele>
        <time>2016-06-29T12:01:31Z</time>
      </trkpt>
      <trkpt lat="42.46988" lon="2.23526">
        <ele>1706.96</ele>
        <time>2016-06-29T12:01:47Z</time>
      </trkpt>
      <trkpt lat="42.46984" lon="2.23518">
        <ele>1706.96</ele>
        <time>2016-06-29T12:01:54Z</time>
      </trkpt>
      <trkpt lat="42.46976" lon="2.23507">
        <ele>1708.88</ele>
        <time>2016-06-29T12:02:06Z</time>
      </trkpt>
      <trkpt lat="42.46969" lon="2.23498">
        <ele>1710.32</ele>
        <time>2016-06-29T12:02:17Z</time>
      </trkpt>
      <trkpt lat="42.46964" lon="2.23493">
        <ele>1712.25</ele>
        <time>2016-06-29T12:02:28Z</time>
      </trkpt>
      <trkpt lat="42.46962" lon="2.23485">
        <ele>1713.69</ele>
        <time>2016-06-29T12:02:38Z</time>
      </trkpt>
      <trkpt lat="42.46957" lon="2.23473">
        <ele>1715.61</ele>
        <time>2016-06-29T12:02:51Z</time>
      </trkpt>
      <trkpt lat="42.46951" lon="2.23464">
        <ele>1717.53</ele>
        <time>2016-06-29T12:03:02Z</time>
      </trkpt>
      <trkpt lat="42.46947" lon="2.23459">
        <ele>1718.49</ele>
        <time>2016-06-29T12:03:13Z</time>
      </trkpt>
      <trkpt lat="42.46938" lon="2.2345">
        <ele>1720.9</ele>
        <time>2016-06-29T12:03:27Z</time>
      </trkpt>
      <trkpt lat="42.46932" lon="2.23443">
        <ele>1721.38</ele>
        <time>2016-06-29T12:03:36Z</time>
      </trkpt>
      <trkpt lat="42.46922" lon="2.2344">
        <ele>1721.86</ele>
        <time>2016-06-29T12:03:47Z</time>
      </trkpt>
      <trkpt lat="42.46911" lon="2.23435">
        <ele>1722.82</ele>
        <time>2016-06-29T12:04:00Z</time>
      </trkpt>
      <trkpt lat="42.46909" lon="2.23433">
        <ele>1722.82</ele>
        <time>2016-06-29T12:04:02Z</time>
      </trkpt>
      <trkpt lat="42.46903" lon="2.23425">
        <ele>1723.78</ele>
        <time>2016-06-29T12:04:13Z</time>
      </trkpt>
      <trkpt lat="42.46901" lon="2.23423">
        <ele>1724.74</ele>
        <time>2016-06-29T12:04:16Z</time>
      </trkpt>
      <trkpt lat="42.46895" lon="2.23418">
        <ele>1725.22</ele>
        <time>2016-06-29T12:04:25Z</time>
      </trkpt>
      <trkpt lat="42.46895" lon="2.23418">
        <ele>1725.22</ele>
        <time>2016-06-29T12:04:26Z</time>
      </trkpt>
      <trkpt lat="42.46889" lon="2.23413">
        <ele>1725.7</ele>
        <time>2016-06-29T12:04:33Z</time>
      </trkpt>
      <trkpt lat="42.46884" lon="2.23407">
        <ele>1725.7</ele>
        <time>2016-06-29T12:04:39Z</time>
      </trkpt>
      <trkpt lat="42.46884" lon="2.23404">
        <ele>1725.7</ele>
        <time>2016-06-29T12:04:41Z</time>
      </trkpt>
      <trkpt lat="42.46878" lon="2.23391">
        <ele>1726.18</ele>
        <time>2016-06-29T12:04:54Z</time>
      </trkpt>
      <trkpt lat="42.46874" lon="2.23385">
        <ele>1727.15</ele>
        <time>2016-06-29T12:05:01Z</time>
      </trkpt>
      <trkpt lat="42.46871" lon="2.23373">
        <ele>1727.63</ele>
        <time>2016-06-29T12:05:12Z</time>
      </trkpt>
      <trkpt lat="42.46871" lon="2.2336">
        <ele>1727.63</ele>
        <time>2016-06-29T12:05:25Z</time>
      </trkpt>
      <trkpt lat="42.46872" lon="2.2335">
        <ele>1728.11</ele>
        <time>2016-06-29T12:05:36Z</time>
      </trkpt>
      <trkpt lat="42.46873" lon="2.23338">
        <ele>1729.55</ele>
        <time>2016-06-29T12:05:47Z</time>
      </trkpt>
      <trkpt lat="42.4687" lon="2.23333">
        <ele>1729.55</ele>
        <time>2016-06-29T12:05:51Z</time>
      </trkpt>
      <trkpt lat="42.4687" lon="2.23329">
        <ele>1730.03</ele>
        <time>2016-06-29T12:05:54Z</time>
      </trkpt>
      <trkpt lat="42.46869" lon="2.23323">
        <ele>1730.51</ele>
        <time>2016-06-29T12:06:06Z</time>
      </trkpt>
      <trkpt lat="42.46868" lon="2.23321">
        <ele>1730.51</ele>
        <time>2016-06-29T12:06:16Z</time>
      </trkpt>
      <trkpt lat="42.46868" lon="2.23308">
        <ele>1730.99</ele>
        <time>2016-06-29T12:06:25Z</time>
      </trkpt>
      <trkpt lat="42.46865" lon="2.23304">
        <ele>1731.47</ele>
        <time>2016-06-29T12:06:29Z</time>
      </trkpt>
      <trkpt lat="42.46864" lon="2.23301">
        <ele>1731.47</ele>
        <time>2016-06-29T12:06:32Z</time>
      </trkpt>
      <trkpt lat="42.4686" lon="2.23301">
        <ele>1731.47</ele>
        <time>2016-06-29T12:06:37Z</time>
      </trkpt>
      <trkpt lat="42.46855" lon="2.23296">
        <ele>1730.03</ele>
        <time>2016-06-29T12:06:43Z</time>
      </trkpt>
      <trkpt lat="42.4685" lon="2.23294">
        <ele>1728.59</ele>
        <time>2016-06-29T12:06:47Z</time>
      </trkpt>
      <trkpt lat="42.46841" lon="2.23286">
        <ele>1727.63</ele>
        <time>2016-06-29T12:06:56Z</time>
      </trkpt>
      <trkpt lat="42.4684" lon="2.2328">
        <ele>1728.11</ele>
        <time>2016-06-29T12:07:01Z</time>
      </trkpt>
      <trkpt lat="42.46839" lon="2.23274">
        <ele>1728.11</ele>
        <time>2016-06-29T12:07:08Z</time>
      </trkpt>
      <trkpt lat="42.46837" lon="2.23272">
        <ele>1728.11</ele>
        <time>2016-06-29T12:07:10Z</time>
      </trkpt>
      <trkpt lat="42.46837" lon="2.23269">
        <ele>1728.11</ele>
        <time>2016-06-29T12:07:13Z</time>
      </trkpt>
      <trkpt lat="42.46831" lon="2.23262">
        <ele>1728.11</ele>
        <time>2016-06-29T12:07:20Z</time>
      </trkpt>
      <trkpt lat="42.46826" lon="2.23259">
        <ele>1729.07</ele>
        <time>2016-06-29T12:07:25Z</time>
      </trkpt>
      <trkpt lat="42.46824" lon="2.23254">
        <ele>1729.55</ele>
        <time>2016-06-29T12:07:39Z</time>
      </trkpt>
      <trkpt lat="42.46821" lon="2.23246">
        <ele>1729.55</ele>
        <time>2016-06-29T12:07:46Z</time>
      </trkpt>
      <trkpt lat="42.46819" lon="2.23237">
        <ele>1727.63</ele>
        <time>2016-06-29T12:07:58Z</time>
      </trkpt>
      <trkpt lat="42.46812" lon="2.2322">
        <ele>1725.7</ele>
        <time>2016-06-29T12:08:11Z</time>
      </trkpt>
      <trkpt lat="42.46812" lon="2.23219">
        <ele>1725.7</ele>
        <time>2016-06-29T12:08:12Z</time>
      </trkpt>
      <trkpt lat="42.4681" lon="2.23217">
        <ele>1725.7</ele>
        <time>2016-06-29T12:08:14Z</time>
      </trkpt>
      <trkpt lat="42.46808" lon="2.23207">
        <ele>1725.7</ele>
        <time>2016-06-29T12:08:21Z</time>
      </trkpt>
      <trkpt lat="42.46809" lon="2.23204">
        <ele>1725.7</ele>
        <time>2016-06-29T12:08:23Z</time>
      </trkpt>
      <trkpt lat="42.4681" lon="2.23191">
        <ele>1725.7</ele>
        <time>2016-06-29T12:08:35Z</time>
      </trkpt>
      <trkpt lat="42.46809" lon="2.2319">
        <ele>1725.7</ele>
        <time>2016-06-29T12:08:37Z</time>
      </trkpt>
      <trkpt lat="42.46808" lon="2.23188">
        <ele>1726.67</ele>
        <time>2016-06-29T12:08:39Z</time>
      </trkpt>
      <trkpt lat="42.46807" lon="2.23184">
        <ele>1727.15</ele>
        <time>2016-06-29T12:08:42Z</time>
      </trkpt>
      <trkpt lat="42.46805" lon="2.2318">
        <ele>1727.15</ele>
        <time>2016-06-29T12:08:45Z</time>
      </trkpt>
      <trkpt lat="42.46801" lon="2.23177">
        <ele>1727.63</ele>
        <time>2016-06-29T12:08:49Z</time>
      </trkpt>
      <trkpt lat="42.46797" lon="2.23172">
        <ele>1728.11</ele>
        <time>2016-06-29T12:08:54Z</time>
      </trkpt>
      <trkpt lat="42.46799" lon="2.23169">
        <ele>1728.11</ele>
        <time>2016-06-29T12:08:56Z</time>
      </trkpt>
      <trkpt lat="42.46796" lon="2.23156">
        <ele>1729.07</ele>
        <time>2016-06-29T12:09:05Z</time>
      </trkpt>
      <trkpt lat="42.46793" lon="2.23152">
        <ele>1729.55</ele>
        <time>2016-06-29T12:09:10Z</time>
      </trkpt>
      <trkpt lat="42.4679" lon="2.23144">
        <ele>1730.51</ele>
        <time>2016-06-29T12:09:20Z</time>
      </trkpt>
      <trkpt lat="42.46787" lon="2.2314">
        <ele>1730.99</ele>
        <time>2016-06-29T12:09:24Z</time>
      </trkpt>
      <trkpt lat="42.46779" lon="2.23133">
        <ele>1732.43</ele>
        <time>2016-06-29T12:09:35Z</time>
      </trkpt>
      <trkpt lat="42.46778" lon="2.23132">
        <ele>1732.43</ele>
        <time>2016-06-29T12:09:36Z</time>
      </trkpt>
      <trkpt lat="42.4677" lon="2.23124">
        <ele>1732.91</ele>
        <time>2016-06-29T12:09:48Z</time>
      </trkpt>
      <trkpt lat="42.46769" lon="2.23123">
        <ele>1732.91</ele>
        <time>2016-06-29T12:09:50Z</time>
      </trkpt>
      <trkpt lat="42.46765" lon="2.23114">
        <ele>1732.91</ele>
        <time>2016-06-29T12:09:58Z</time>
      </trkpt>
      <trkpt lat="42.46765" lon="2.23109">
        <ele>1733.39</ele>
        <time>2016-06-29T12:10:02Z</time>
      </trkpt>
      <trkpt lat="42.46763" lon="2.23098">
        <ele>1733.88</ele>
        <time>2016-06-29T12:10:13Z</time>
      </trkpt>
      <trkpt lat="42.46761" lon="2.23086">
        <ele>1735.8</ele>
        <time>2016-06-29T12:10:26Z</time>
      </trkpt>
      <trkpt lat="42.46759" lon="2.23076">
        <ele>1737.24</ele>
        <time>2016-06-29T12:10:37Z</time>
      </trkpt>
      <trkpt lat="42.46759" lon="2.23067">
        <ele>1739.16</ele>
        <time>2016-06-29T12:10:49Z</time>
      </trkpt>
      <trkpt lat="42.46756" lon="2.23065">
        <ele>1740.12</ele>
        <time>2016-06-29T12:10:58Z</time>
      </trkpt>
      <trkpt lat="42.46753" lon="2.2306">
        <ele>1740.6</ele>
        <time>2016-06-29T12:11:09Z</time>
      </trkpt>
      <trkpt lat="42.46752" lon="2.23057">
        <ele>1741.08</ele>
        <time>2016-06-29T12:11:37Z</time>
      </trkpt>
      <trkpt lat="42.46753" lon="2.23051">
        <ele>1742.05</ele>
        <time>2016-06-29T12:11:44Z</time>
      </trkpt>
      <trkpt lat="42.46751" lon="2.23048">
        <ele>1742.53</ele>
        <time>2016-06-29T12:11:48Z</time>
      </trkpt>
      <trkpt lat="42.46741" lon="2.23039">
        <ele>1743.49</ele>
        <time>2016-06-29T12:12:00Z</time>
      </trkpt>
      <trkpt lat="42.46734" lon="2.2303">
        <ele>1744.45</ele>
        <time>2016-06-29T12:12:12Z</time>
      </trkpt>
      <trkpt lat="42.46731" lon="2.23025">
        <ele>1745.89</ele>
        <time>2016-06-29T12:12:26Z</time>
      </trkpt>
      <trkpt lat="42.46729" lon="2.23022">
        <ele>1747.33</ele>
        <time>2016-06-29T12:12:43Z</time>
      </trkpt>
      <trkpt lat="42.46726" lon="2.23014">
        <ele>1749.74</ele>
        <time>2016-06-29T12:12:54Z</time>
      </trkpt>
      <trkpt lat="42.4672" lon="2.23009">
        <ele>1751.18</ele>
        <time>2016-06-29T12:13:06Z</time>
      </trkpt>
      <trkpt lat="42.46717" lon="2.23004">
        <ele>1753.1</ele>
        <time>2016-06-29T12:13:18Z</time>
      </trkpt>
      <trkpt lat="42.46714" lon="2.23001">
        <ele>1753.58</ele>
        <time>2016-06-29T12:13:25Z</time>
      </trkpt>
      <trkpt lat="42.46705" lon="2.22993">
        <ele>1754.06</ele>
        <time>2016-06-29T12:13:36Z</time>
      </trkpt>
      <trkpt lat="42.46702" lon="2.22988">
        <ele>1754.54</ele>
        <time>2016-06-29T12:13:41Z</time>
      </trkpt>
      <trkpt lat="42.46699" lon="2.2298">
        <ele>1755.02</ele>
        <time>2016-06-29T12:13:47Z</time>
      </trkpt>
      <trkpt lat="42.46698" lon="2.22974">
        <ele>1755.02</ele>
        <time>2016-06-29T12:13:53Z</time>
      </trkpt>
      <trkpt lat="42.46696" lon="2.22962">
        <ele>1755.99</ele>
        <time>2016-06-29T12:14:04Z</time>
      </trkpt>
      <trkpt lat="42.46695" lon="2.22961">
        <ele>1755.99</ele>
        <time>2016-06-29T12:14:05Z</time>
      </trkpt>
      <trkpt lat="42.4669" lon="2.2295">
        <ele>1756.47</ele>
        <time>2016-06-29T12:14:14Z</time>
      </trkpt>
      <trkpt lat="42.46691" lon="2.22947">
        <ele>1756.95</ele>
        <time>2016-06-29T12:14:17Z</time>
      </trkpt>
      <trkpt lat="42.46687" lon="2.22937">
        <ele>1758.39</ele>
        <time>2016-06-29T12:14:26Z</time>
      </trkpt>
      <trkpt lat="42.46688" lon="2.22935">
        <ele>1758.39</ele>
        <time>2016-06-29T12:14:28Z</time>
      </trkpt>
      <trkpt lat="42.46689" lon="2.22931">
        <ele>1759.35</ele>
        <time>2016-06-29T12:14:38Z</time>
      </trkpt>
      <trkpt lat="42.46683" lon="2.22917">
        <ele>1760.79</ele>
        <time>2016-06-29T12:14:52Z</time>
      </trkpt>
      <trkpt lat="42.46677" lon="2.22905">
        <ele>1762.71</ele>
        <time>2016-06-29T12:15:04Z</time>
      </trkpt>
      <trkpt lat="42.46672" lon="2.22896">
        <ele>1764.64</ele>
        <time>2016-06-29T12:15:14Z</time>
      </trkpt>
      <trkpt lat="42.46669" lon="2.22895">
        <ele>1766.08</ele>
        <time>2016-06-29T12:15:25Z</time>
      </trkpt>
      <trkpt lat="42.46669" lon="2.22884">
        <ele>1768</ele>
        <time>2016-06-29T12:15:37Z</time>
      </trkpt>
      <trkpt lat="42.46665" lon="2.22875">
        <ele>1768</ele>
        <time>2016-06-29T12:15:44Z</time>
      </trkpt>
      <trkpt lat="42.46665" lon="2.22869">
        <ele>1768.48</ele>
        <time>2016-06-29T12:15:49Z</time>
      </trkpt>
      <trkpt lat="42.46663" lon="2.22857">
        <ele>1768.96</ele>
        <time>2016-06-29T12:16:01Z</time>
      </trkpt>
      <trkpt lat="42.46659" lon="2.22849">
        <ele>1769.92</ele>
        <time>2016-06-29T12:16:10Z</time>
      </trkpt>
      <trkpt lat="42.46653" lon="2.22843">
        <ele>1770.89</ele>
        <time>2016-06-29T12:16:19Z</time>
      </trkpt>
      <trkpt lat="42.46645" lon="2.22839">
        <ele>1771.85</ele>
        <time>2016-06-29T12:16:29Z</time>
      </trkpt>
      <trkpt lat="42.46643" lon="2.22831">
        <ele>1772.81</ele>
        <time>2016-06-29T12:16:39Z</time>
      </trkpt>
      <trkpt lat="42.46643" lon="2.22825">
        <ele>1774.25</ele>
        <time>2016-06-29T12:16:51Z</time>
      </trkpt>
      <trkpt lat="42.4664" lon="2.22816">
        <ele>1775.21</ele>
        <time>2016-06-29T12:17:01Z</time>
      </trkpt>
      <trkpt lat="42.4664" lon="2.22813">
        <ele>1775.69</ele>
        <time>2016-06-29T12:17:05Z</time>
      </trkpt>
      <trkpt lat="42.46639" lon="2.22811">
        <ele>1776.17</ele>
        <time>2016-06-29T12:17:07Z</time>
      </trkpt>
      <trkpt lat="42.46634" lon="2.22803">
        <ele>1777.13</ele>
        <time>2016-06-29T12:17:20Z</time>
      </trkpt>
      <trkpt lat="42.46633" lon="2.228">
        <ele>1778.1</ele>
        <time>2016-06-29T12:17:25Z</time>
      </trkpt>
      <trkpt lat="42.4663" lon="2.22793">
        <ele>1778.58</ele>
        <time>2016-06-29T12:17:32Z</time>
      </trkpt>
      <trkpt lat="42.46631" lon="2.22783">
        <ele>1780.02</ele>
        <time>2016-06-29T12:17:43Z</time>
      </trkpt>
      <trkpt lat="42.4663" lon="2.22782">
        <ele>1780.02</ele>
        <time>2016-06-29T12:17:45Z</time>
      </trkpt>
      <trkpt lat="42.46627" lon="2.22774">
        <ele>1781.46</ele>
        <time>2016-06-29T12:17:53Z</time>
      </trkpt>
      <trkpt lat="42.46625" lon="2.22771">
        <ele>1781.94</ele>
        <time>2016-06-29T12:17:56Z</time>
      </trkpt>
      <trkpt lat="42.4662" lon="2.22767">
        <ele>1782.42</ele>
        <time>2016-06-29T12:18:01Z</time>
      </trkpt>
      <trkpt lat="42.46612" lon="2.22755">
        <ele>1782.9</ele>
        <time>2016-06-29T12:18:12Z</time>
      </trkpt>
      <trkpt lat="42.46609" lon="2.22753">
        <ele>1783.38</ele>
        <time>2016-06-29T12:18:15Z</time>
      </trkpt>
      <trkpt lat="42.46602" lon="2.22741">
        <ele>1784.82</ele>
        <time>2016-06-29T12:18:29Z</time>
      </trkpt>
      <trkpt lat="42.46602" lon="2.2274">
        <ele>1785.31</ele>
        <time>2016-06-29T12:18:31Z</time>
      </trkpt>
      <trkpt lat="42.46601" lon="2.22738">
        <ele>1785.31</ele>
        <time>2016-06-29T12:18:33Z</time>
      </trkpt>
      <trkpt lat="42.46598" lon="2.22727">
        <ele>1785.79</ele>
        <time>2016-06-29T12:18:42Z</time>
      </trkpt>
      <trkpt lat="42.46599" lon="2.22721">
        <ele>1786.27</ele>
        <time>2016-06-29T12:18:48Z</time>
      </trkpt>
      <trkpt lat="42.46599" lon="2.22719">
        <ele>1787.23</ele>
        <time>2016-06-29T12:18:50Z</time>
      </trkpt>
      <trkpt lat="42.466" lon="2.22716">
        <ele>1787.23</ele>
        <time>2016-06-29T12:18:52Z</time>
      </trkpt>
      <trkpt lat="42.46601" lon="2.22712">
        <ele>1787.71</ele>
        <time>2016-06-29T12:18:56Z</time>
      </trkpt>
      <trkpt lat="42.46599" lon="2.22705">
        <ele>1788.67</ele>
        <time>2016-06-29T12:19:03Z</time>
      </trkpt>
      <trkpt lat="42.46596" lon="2.22701">
        <ele>1788.67</ele>
        <time>2016-06-29T12:19:08Z</time>
      </trkpt>
      <trkpt lat="42.46595" lon="2.22693">
        <ele>1788.67</ele>
        <time>2016-06-29T12:19:14Z</time>
      </trkpt>
      <trkpt lat="42.46595" lon="2.22691">
        <ele>1788.67</ele>
        <time>2016-06-29T12:19:16Z</time>
      </trkpt>
      <trkpt lat="42.46592" lon="2.22685">
        <ele>1789.15</ele>
        <time>2016-06-29T12:19:21Z</time>
      </trkpt>
      <trkpt lat="42.46588" lon="2.22679">
        <ele>1789.15</ele>
        <time>2016-06-29T12:19:28Z</time>
      </trkpt>
      <trkpt lat="42.46576" lon="2.22669">
        <ele>1790.11</ele>
        <time>2016-06-29T12:19:41Z</time>
      </trkpt>
      <trkpt lat="42.46568" lon="2.22667">
        <ele>1790.11</ele>
        <time>2016-06-29T12:19:48Z</time>
      </trkpt>
      <trkpt lat="42.46562" lon="2.22666">
        <ele>1790.11</ele>
        <time>2016-06-29T12:19:53Z</time>
      </trkpt>
      <trkpt lat="42.46558" lon="2.22663">
        <ele>1790.11</ele>
        <time>2016-06-29T12:19:56Z</time>
      </trkpt>
      <trkpt lat="42.46554" lon="2.2266">
        <ele>1790.11</ele>
        <time>2016-06-29T12:20:10Z</time>
      </trkpt>
      <trkpt lat="42.46553" lon="2.22657">
        <ele>1790.11</ele>
        <time>2016-06-29T12:20:15Z</time>
      </trkpt>
      <trkpt lat="42.4655" lon="2.22646">
        <ele>1792.03</ele>
        <time>2016-06-29T12:20:28Z</time>
      </trkpt>
      <trkpt lat="42.46551" lon="2.22641">
        <ele>1793.48</ele>
        <time>2016-06-29T12:20:36Z</time>
      </trkpt>
      <trkpt lat="42.46551" lon="2.22638">
        <ele>1795.88</ele>
        <time>2016-06-29T12:20:50Z</time>
      </trkpt>
      <trkpt lat="42.46549" lon="2.22636">
        <ele>1796.36</ele>
        <time>2016-06-29T12:21:00Z</time>
      </trkpt>
      <trkpt lat="42.46543" lon="2.22635">
        <ele>1797.32</ele>
        <time>2016-06-29T12:21:07Z</time>
      </trkpt>
      <trkpt lat="42.46539" lon="2.22634">
        <ele>1797.8</ele>
        <time>2016-06-29T12:21:11Z</time>
      </trkpt>
      <trkpt lat="42.46535" lon="2.22631">
        <ele>1797.8</ele>
        <time>2016-06-29T12:21:18Z</time>
      </trkpt>
      <trkpt lat="42.4653" lon="2.22626">
        <ele>1797.8</ele>
        <time>2016-06-29T12:21:26Z</time>
      </trkpt>
      <trkpt lat="42.46522" lon="2.2263">
        <ele>1797.8</ele>
        <time>2016-06-29T12:21:34Z</time>
      </trkpt>
      <trkpt lat="42.46518" lon="2.22626">
        <ele>1797.8</ele>
        <time>2016-06-29T12:21:40Z</time>
      </trkpt>
      <trkpt lat="42.46512" lon="2.2262">
        <ele>1796.84</ele>
        <time>2016-06-29T12:21:51Z</time>
      </trkpt>
      <trkpt lat="42.4651" lon="2.2262">
        <ele>1796.84</ele>
        <time>2016-06-29T12:21:53Z</time>
      </trkpt>
      <trkpt lat="42.46506" lon="2.22615">
        <ele>1797.8</ele>
        <time>2016-06-29T12:22:05Z</time>
      </trkpt>
      <trkpt lat="42.46503" lon="2.22611">
        <ele>1798.28</ele>
        <time>2016-06-29T12:22:09Z</time>
      </trkpt>
      <trkpt lat="42.46495" lon="2.22599">
        <ele>1799.24</ele>
        <time>2016-06-29T12:22:20Z</time>
      </trkpt>
      <trkpt lat="42.46491" lon="2.2259">
        <ele>1800.69</ele>
        <time>2016-06-29T12:22:26Z</time>
      </trkpt>
      <trkpt lat="42.4649" lon="2.22587">
        <ele>1800.69</ele>
        <time>2016-06-29T12:22:29Z</time>
      </trkpt>
      <trkpt lat="42.46492" lon="2.22576">
        <ele>1801.17</ele>
        <time>2016-06-29T12:22:36Z</time>
      </trkpt>
      <trkpt lat="42.46488" lon="2.22559">
        <ele>1802.61</ele>
        <time>2016-06-29T12:22:48Z</time>
      </trkpt>
      <trkpt lat="42.46488" lon="2.22553">
        <ele>1802.61</ele>
        <time>2016-06-29T12:22:52Z</time>
      </trkpt>
      <trkpt lat="42.46487" lon="2.22551">
        <ele>1803.09</ele>
        <time>2016-06-29T12:22:54Z</time>
      </trkpt>
      <trkpt lat="42.46484" lon="2.22535">
        <ele>1804.05</ele>
        <time>2016-06-29T12:23:04Z</time>
      </trkpt>
      <trkpt lat="42.46481" lon="2.22523">
        <ele>1804.53</ele>
        <time>2016-06-29T12:23:12Z</time>
      </trkpt>
      <trkpt lat="42.4648" lon="2.22512">
        <ele>1804.53</ele>
        <time>2016-06-29T12:23:18Z</time>
      </trkpt>
      <trkpt lat="42.46479" lon="2.22507">
        <ele>1804.53</ele>
        <time>2016-06-29T12:23:22Z</time>
      </trkpt>
      <trkpt lat="42.46477" lon="2.22483">
        <ele>1805.97</ele>
        <time>2016-06-29T12:23:37Z</time>
      </trkpt>
      <trkpt lat="42.46476" lon="2.22475">
        <ele>1805.97</ele>
        <time>2016-06-29T12:23:42Z</time>
      </trkpt>
      <trkpt lat="42.46472" lon="2.22462">
        <ele>1806.45</ele>
        <time>2016-06-29T12:23:51Z</time>
      </trkpt>
      <trkpt lat="42.46467" lon="2.22455">
        <ele>1806.94</ele>
        <time>2016-06-29T12:23:57Z</time>
      </trkpt>
      <trkpt lat="42.46466" lon="2.22447">
        <ele>1806.94</ele>
        <time>2016-06-29T12:24:03Z</time>
      </trkpt>
      <trkpt lat="42.46464" lon="2.22442">
        <ele>1807.42</ele>
        <time>2016-06-29T12:24:07Z</time>
      </trkpt>
      <trkpt lat="42.46464" lon="2.22438">
        <ele>1808.38</ele>
        <time>2016-06-29T12:24:10Z</time>
      </trkpt>
      <trkpt lat="42.46461" lon="2.22432">
        <ele>1808.38</ele>
        <time>2016-06-29T12:24:15Z</time>
      </trkpt>
      <trkpt lat="42.46455" lon="2.22417">
        <ele>1809.82</ele>
        <time>2016-06-29T12:24:27Z</time>
      </trkpt>
      <trkpt lat="42.46452" lon="2.2241">
        <ele>1810.3</ele>
        <time>2016-06-29T12:24:33Z</time>
      </trkpt>
      <trkpt lat="42.46452" lon="2.22399">
        <ele>1810.78</ele>
        <time>2016-06-29T12:24:45Z</time>
      </trkpt>
      <trkpt lat="42.46452" lon="2.22397">
        <ele>1810.78</ele>
        <time>2016-06-29T12:24:46Z</time>
      </trkpt>
      <trkpt lat="42.46456" lon="2.22388">
        <ele>1811.74</ele>
        <time>2016-06-29T12:25:00Z</time>
      </trkpt>
      <trkpt lat="42.46455" lon="2.22389">
        <ele>1812.22</ele>
        <time>2016-06-29T12:25:27Z</time>
      </trkpt>
      <trkpt lat="42.46454" lon="2.2239">
        <ele>1812.22</ele>
        <time>2016-06-29T12:25:38Z</time>
      </trkpt>
      <trkpt lat="42.4645" lon="2.22398">
        <ele>1812.22</ele>
        <time>2016-06-29T12:25:50Z</time>
      </trkpt>
      <trkpt lat="42.46449" lon="2.22397">
        <ele>1812.7</ele>
        <time>2016-06-29T12:26:11Z</time>
      </trkpt>
      <trkpt lat="42.4645" lon="2.22399">
        <ele>1812.7</ele>
        <time>2016-06-29T12:26:14Z</time>
      </trkpt>
      <trkpt lat="42.46449" lon="2.22408">
        <ele>1812.7</ele>
        <time>2016-06-29T12:26:25Z</time>
      </trkpt>
      <trkpt lat="42.46449" lon="2.22406">
        <ele>1812.7</ele>
        <time>2016-06-29T12:26:43Z</time>
      </trkpt>
      <trkpt lat="42.46451" lon="2.22404">
        <ele>1813.18</ele>
        <time>2016-06-29T12:27:03Z</time>
      </trkpt>
      <trkpt lat="42.46451" lon="2.22404">
        <ele>1813.18</ele>
        <time>2016-06-29T12:27:27Z</time>
      </trkpt>
      <trkpt lat="42.46451" lon="2.22404">
        <ele>1812.7</ele>
        <time>2016-06-29T12:27:58Z</time>
      </trkpt>
      <trkpt lat="42.46452" lon="2.22404">
        <ele>1812.7</ele>
        <time>2016-06-29T12:28:27Z</time>
      </trkpt>
      <trkpt lat="42.46446" lon="2.22405">
        <ele>1812.7</ele>
        <time>2016-06-29T12:28:38Z</time>
      </trkpt>
      <trkpt lat="42.46442" lon="2.22399">
        <ele>1812.7</ele>
        <time>2016-06-29T12:28:46Z</time>
      </trkpt>
      <trkpt lat="42.46441" lon="2.22397">
        <ele>1812.7</ele>
        <time>2016-06-29T12:28:48Z</time>
      </trkpt>
      <trkpt lat="42.4644" lon="2.2239">
        <ele>1814.15</ele>
        <time>2016-06-29T12:28:53Z</time>
      </trkpt>
      <trkpt lat="42.46435" lon="2.22382">
        <ele>1814.15</ele>
        <time>2016-06-29T12:29:08Z</time>
      </trkpt>
      <trkpt lat="42.46434" lon="2.22383">
        <ele>1815.11</ele>
        <time>2016-06-29T12:29:21Z</time>
      </trkpt>
      <trkpt lat="42.46427" lon="2.22391">
        <ele>1815.11</ele>
        <time>2016-06-29T12:29:34Z</time>
      </trkpt>
      <trkpt lat="42.46424" lon="2.22394">
        <ele>1813.66</ele>
        <time>2016-06-29T12:29:40Z</time>
      </trkpt>
      <trkpt lat="42.46421" lon="2.22393">
        <ele>1812.7</ele>
        <time>2016-06-29T12:29:56Z</time>
      </trkpt>
      <trkpt lat="42.46421" lon="2.22391">
        <ele>1812.22</ele>
        <time>2016-06-29T12:30:07Z</time>
      </trkpt>
      <trkpt lat="42.46422" lon="2.22386">
        <ele>1812.22</ele>
        <time>2016-06-29T12:30:21Z</time>
      </trkpt>
      <trkpt lat="42.46419" lon="2.22383">
        <ele>1812.22</ele>
        <time>2016-06-29T12:30:26Z</time>
      </trkpt>
      <trkpt lat="42.46414" lon="2.22381">
        <ele>1813.18</ele>
        <time>2016-06-29T12:30:33Z</time>
      </trkpt>
      <trkpt lat="42.46406" lon="2.22379">
        <ele>1813.18</ele>
        <time>2016-06-29T12:30:44Z</time>
      </trkpt>
      <trkpt lat="42.46401" lon="2.22385">
        <ele>1813.66</ele>
        <time>2016-06-29T12:30:56Z</time>
      </trkpt>
      <trkpt lat="42.46397" lon="2.22389">
        <ele>1814.63</ele>
        <time>2016-06-29T12:31:08Z</time>
      </trkpt>
      <trkpt lat="42.46394" lon="2.22386">
        <ele>1814.63</ele>
        <time>2016-06-29T12:31:21Z</time>
      </trkpt>
      <trkpt lat="42.46389" lon="2.22387">
        <ele>1815.11</ele>
        <time>2016-06-29T12:31:33Z</time>
      </trkpt>
      <trkpt lat="42.4639" lon="2.22389">
        <ele>1815.11</ele>
        <time>2016-06-29T12:31:45Z</time>
      </trkpt>
      <trkpt lat="42.4639" lon="2.22389">
        <ele>1815.11</ele>
        <time>2016-06-29T12:31:52Z</time>
      </trkpt>
      <trkpt lat="42.46388" lon="2.22391">
        <ele>1815.11</ele>
        <time>2016-06-29T12:32:05Z</time>
      </trkpt>
      <trkpt lat="42.46388" lon="2.2239">
        <ele>1815.11</ele>
        <time>2016-06-29T12:32:18Z</time>
      </trkpt>
      <trkpt lat="42.46388" lon="2.22389">
        <ele>1815.11</ele>
        <time>2016-06-29T12:32:42Z</time>
      </trkpt>
      <trkpt lat="42.46389" lon="2.22387">
        <ele>1815.11</ele>
        <time>2016-06-29T12:32:57Z</time>
      </trkpt>
      <trkpt lat="42.46389" lon="2.22386">
        <ele>1815.11</ele>
        <time>2016-06-29T12:33:17Z</time>
      </trkpt>
      <trkpt lat="42.46388" lon="2.22386">
        <ele>1815.11</ele>
        <time>2016-06-29T12:33:36Z</time>
      </trkpt>
      <trkpt lat="42.46388" lon="2.22386">
        <ele>1815.11</ele>
        <time>2016-06-29T12:33:52Z</time>
      </trkpt>
      <trkpt lat="42.46387" lon="2.22383">
        <ele>1815.11</ele>
        <time>2016-06-29T12:34:10Z</time>
      </trkpt>
      <trkpt lat="42.46387" lon="2.22381">
        <ele>1815.11</ele>
        <time>2016-06-29T12:34:16Z</time>
      </trkpt>
      <trkpt lat="42.46384" lon="2.2238">
        <ele>1816.07</ele>
        <time>2016-06-29T12:34:27Z</time>
      </trkpt>
      <trkpt lat="42.46377" lon="2.2238">
        <ele>1816.07</ele>
        <time>2016-06-29T12:34:37Z</time>
      </trkpt>
      <trkpt lat="42.46375" lon="2.22377">
        <ele>1816.07</ele>
        <time>2016-06-29T12:34:53Z</time>
      </trkpt>
      <trkpt lat="42.46371" lon="2.22375">
        <ele>1816.07</ele>
        <time>2016-06-29T12:35:05Z</time>
      </trkpt>
      <trkpt lat="42.4637" lon="2.22367">
        <ele>1816.55</ele>
        <time>2016-06-29T12:35:18Z</time>
      </trkpt>
      <trkpt lat="42.46365" lon="2.22359">
        <ele>1817.51</ele>
        <time>2016-06-29T12:35:27Z</time>
      </trkpt>
      <trkpt lat="42.46365" lon="2.22359">
        <ele>1817.51</ele>
        <time>2016-06-29T12:35:28Z</time>
      </trkpt>
      <trkpt lat="42.46355" lon="2.2236">
        <ele>1817.99</ele>
        <time>2016-06-29T12:35:39Z</time>
      </trkpt>
      <trkpt lat="42.4635" lon="2.22355">
        <ele>1818.47</ele>
        <time>2016-06-29T12:35:48Z</time>
      </trkpt>
      <trkpt lat="42.46345" lon="2.2235">
        <ele>1818.95</ele>
        <time>2016-06-29T12:35:55Z</time>
      </trkpt>
      <trkpt lat="42.46336" lon="2.2236">
        <ele>1819.43</ele>
        <time>2016-06-29T12:36:07Z</time>
      </trkpt>
      <trkpt lat="42.46333" lon="2.22371">
        <ele>1820.39</ele>
        <time>2016-06-29T12:36:18Z</time>
      </trkpt>
      <trkpt lat="42.46333" lon="2.22374">
        <ele>1820.39</ele>
        <time>2016-06-29T12:36:20Z</time>
      </trkpt>
      <trkpt lat="42.46333" lon="2.2238">
        <ele>1820.39</ele>
        <time>2016-06-29T12:36:24Z</time>
      </trkpt>
      <trkpt lat="42.46331" lon="2.22383">
        <ele>1820.39</ele>
        <time>2016-06-29T12:36:27Z</time>
      </trkpt>
      <trkpt lat="42.46329" lon="2.22384">
        <ele>1820.39</ele>
        <time>2016-06-29T12:36:29Z</time>
      </trkpt>
      <trkpt lat="42.46321" lon="2.22385">
        <ele>1820.39</ele>
        <time>2016-06-29T12:36:40Z</time>
      </trkpt>
      <trkpt lat="42.46317" lon="2.22383">
        <ele>1820.39</ele>
        <time>2016-06-29T12:36:51Z</time>
      </trkpt>
      <trkpt lat="42.46315" lon="2.22381">
        <ele>1821.35</ele>
        <time>2016-06-29T12:37:07Z</time>
      </trkpt>
      <trkpt lat="42.46312" lon="2.22379">
        <ele>1821.84</ele>
        <time>2016-06-29T12:37:24Z</time>
      </trkpt>
      <trkpt lat="42.46306" lon="2.22374">
        <ele>1822.32</ele>
        <time>2016-06-29T12:37:34Z</time>
      </trkpt>
      <trkpt lat="42.46304" lon="2.22362">
        <ele>1822.8</ele>
        <time>2016-06-29T12:37:48Z</time>
      </trkpt>
      <trkpt lat="42.46305" lon="2.22347">
        <ele>1823.28</ele>
        <time>2016-06-29T12:38:03Z</time>
      </trkpt>
      <trkpt lat="42.46299" lon="2.22346">
        <ele>1823.28</ele>
        <time>2016-06-29T12:38:20Z</time>
      </trkpt>
      <trkpt lat="42.46298" lon="2.22343">
        <ele>1823.28</ele>
        <time>2016-06-29T12:38:23Z</time>
      </trkpt>
      <trkpt lat="42.46292" lon="2.22334">
        <ele>1823.76</ele>
        <time>2016-06-29T12:38:35Z</time>
      </trkpt>
      <trkpt lat="42.46283" lon="2.22327">
        <ele>1824.72</ele>
        <time>2016-06-29T12:38:47Z</time>
      </trkpt>
      <trkpt lat="42.46278" lon="2.22322">
        <ele>1824.72</ele>
        <time>2016-06-29T12:38:58Z</time>
      </trkpt>
      <trkpt lat="42.46277" lon="2.22321">
        <ele>1824.72</ele>
        <time>2016-06-29T12:38:59Z</time>
      </trkpt>
      <trkpt lat="42.46268" lon="2.22319">
        <ele>1825.2</ele>
        <time>2016-06-29T12:39:12Z</time>
      </trkpt>
      <trkpt lat="42.46267" lon="2.22319">
        <ele>1825.68</ele>
        <time>2016-06-29T12:39:26Z</time>
      </trkpt>
      <trkpt lat="42.46265" lon="2.22311">
        <ele>1825.68</ele>
        <time>2016-06-29T12:39:40Z</time>
      </trkpt>
      <trkpt lat="42.46261" lon="2.22302">
        <ele>1826.16</ele>
        <time>2016-06-29T12:39:49Z</time>
      </trkpt>
      <trkpt lat="42.46257" lon="2.22298">
        <ele>1826.16</ele>
        <time>2016-06-29T12:40:06Z</time>
      </trkpt>
      <trkpt lat="42.46254" lon="2.22292">
        <ele>1826.64</ele>
        <time>2016-06-29T12:40:16Z</time>
      </trkpt>
      <trkpt lat="42.4625" lon="2.22288">
        <ele>1827.12</ele>
        <time>2016-06-29T12:40:32Z</time>
      </trkpt>
      <trkpt lat="42.46249" lon="2.22285">
        <ele>1828.08</ele>
        <time>2016-06-29T12:40:37Z</time>
      </trkpt>
      <trkpt lat="42.46243" lon="2.22278">
        <ele>1828.56</ele>
        <time>2016-06-29T12:40:50Z</time>
      </trkpt>
      <trkpt lat="42.46239" lon="2.22271">
        <ele>1829.05</ele>
        <time>2016-06-29T12:41:02Z</time>
      </trkpt>
      <trkpt lat="42.4624" lon="2.22266">
        <ele>1829.53</ele>
        <time>2016-06-29T12:41:20Z</time>
      </trkpt>
      <trkpt lat="42.46239" lon="2.22265">
        <ele>1830.01</ele>
        <time>2016-06-29T12:41:34Z</time>
      </trkpt>
      <trkpt lat="42.46238" lon="2.22265">
        <ele>1830.01</ele>
        <time>2016-06-29T12:41:55Z</time>
      </trkpt>
      <trkpt lat="42.46238" lon="2.22265">
        <ele>1830.49</ele>
        <time>2016-06-29T12:42:14Z</time>
      </trkpt>
      <trkpt lat="42.46237" lon="2.22264">
        <ele>1830.49</ele>
        <time>2016-06-29T12:42:43Z</time>
      </trkpt>
      <trkpt lat="42.46237" lon="2.22265">
        <ele>1830.49</ele>
        <time>2016-06-29T12:43:08Z</time>
      </trkpt>
      <trkpt lat="42.46237" lon="2.22264">
        <ele>1830.49</ele>
        <time>2016-06-29T12:43:26Z</time>
      </trkpt>
      <trkpt lat="42.46237" lon="2.22263">
        <ele>1830.97</ele>
        <time>2016-06-29T12:43:48Z</time>
      </trkpt>
      <trkpt lat="42.46238" lon="2.22262">
        <ele>1831.45</ele>
        <time>2016-06-29T12:44:16Z</time>
      </trkpt>
      <trkpt lat="42.46238" lon="2.22262">
        <ele>1831.45</ele>
        <time>2016-06-29T12:44:40Z</time>
      </trkpt>
      <trkpt lat="42.46238" lon="2.22261">
        <ele>1831.93</ele>
        <time>2016-06-29T12:45:09Z</time>
      </trkpt>
      <trkpt lat="42.46239" lon="2.22262">
        <ele>1832.41</ele>
        <time>2016-06-29T12:45:36Z</time>
      </trkpt>
      <trkpt lat="42.46239" lon="2.22261">
        <ele>1832.41</ele>
        <time>2016-06-29T12:46:00Z</time>
      </trkpt>
      <trkpt lat="42.46238" lon="2.22261">
        <ele>1832.89</ele>
        <time>2016-06-29T12:46:21Z</time>
      </trkpt>
      <trkpt lat="42.46237" lon="2.2226">
        <ele>1833.37</ele>
        <time>2016-06-29T12:46:49Z</time>
      </trkpt>
      <trkpt lat="42.46237" lon="2.2226">
        <ele>1833.37</ele>
        <time>2016-06-29T12:47:09Z</time>
      </trkpt>
      <trkpt lat="42.46238" lon="2.2226">
        <ele>1833.85</ele>
        <time>2016-06-29T12:47:31Z</time>
      </trkpt>
      <trkpt lat="42.46239" lon="2.2226">
        <ele>1833.85</ele>
        <time>2016-06-29T12:47:53Z</time>
      </trkpt>
      <trkpt lat="42.46239" lon="2.22261">
        <ele>1834.33</ele>
        <time>2016-06-29T12:48:20Z</time>
      </trkpt>
      <trkpt lat="42.46237" lon="2.22263">
        <ele>1834.33</ele>
        <time>2016-06-29T12:48:36Z</time>
      </trkpt>
      <trkpt lat="42.46237" lon="2.22264">
        <ele>1835.29</ele>
        <time>2016-06-29T12:48:58Z</time>
      </trkpt>
      <trkpt lat="42.46238" lon="2.22263">
        <ele>1835.29</ele>
        <time>2016-06-29T12:49:11Z</time>
      </trkpt>
      <trkpt lat="42.46237" lon="2.22256">
        <ele>1835.77</ele>
        <time>2016-06-29T12:49:23Z</time>
      </trkpt>
      <trkpt lat="42.46231" lon="2.22251">
        <ele>1836.74</ele>
        <time>2016-06-29T12:49:33Z</time>
      </trkpt>
      <trkpt lat="42.46229" lon="2.22246">
        <ele>1836.74</ele>
        <time>2016-06-29T12:49:38Z</time>
      </trkpt>
      <trkpt lat="42.46227" lon="2.22245">
        <ele>1836.74</ele>
        <time>2016-06-29T12:49:41Z</time>
      </trkpt>
      <trkpt lat="42.4622" lon="2.22236">
        <ele>1837.7</ele>
        <time>2016-06-29T12:49:53Z</time>
      </trkpt>
      <trkpt lat="42.46221" lon="2.22232">
        <ele>1837.7</ele>
        <time>2016-06-29T12:49:56Z</time>
      </trkpt>
      <trkpt lat="42.46223" lon="2.22221">
        <ele>1838.66</ele>
        <time>2016-06-29T12:50:08Z</time>
      </trkpt>
      <trkpt lat="42.46224" lon="2.22217">
        <ele>1839.62</ele>
        <time>2016-06-29T12:50:19Z</time>
      </trkpt>
      <trkpt lat="42.46228" lon="2.22215">
        <ele>1840.1</ele>
        <time>2016-06-29T12:50:31Z</time>
      </trkpt>
      <trkpt lat="42.46226" lon="2.22215">
        <ele>1840.1</ele>
        <time>2016-06-29T12:50:50Z</time>
      </trkpt>
      <trkpt lat="42.46226" lon="2.22215">
        <ele>1840.58</ele>
        <time>2016-06-29T12:51:17Z</time>
      </trkpt>
      <trkpt lat="42.46227" lon="2.22217">
        <ele>1840.58</ele>
        <time>2016-06-29T12:51:35Z</time>
      </trkpt>
      <trkpt lat="42.46227" lon="2.22216">
        <ele>1840.58</ele>
        <time>2016-06-29T12:51:59Z</time>
      </trkpt>
      <trkpt lat="42.46227" lon="2.22216">
        <ele>1841.06</ele>
        <time>2016-06-29T12:52:14Z</time>
      </trkpt>
      <trkpt lat="42.46228" lon="2.22216">
        <ele>1841.06</ele>
        <time>2016-06-29T12:52:40Z</time>
      </trkpt>
      <trkpt lat="42.46227" lon="2.22216">
        <ele>1841.06</ele>
        <time>2016-06-29T12:53:02Z</time>
      </trkpt>
      <trkpt lat="42.46224" lon="2.22217">
        <ele>1841.06</ele>
        <time>2016-06-29T12:53:12Z</time>
      </trkpt>
      <trkpt lat="42.46224" lon="2.22213">
        <ele>1842.02</ele>
        <time>2016-06-29T12:53:25Z</time>
      </trkpt>
      <trkpt lat="42.46225" lon="2.22212">
        <ele>1842.02</ele>
        <time>2016-06-29T12:53:51Z</time>
      </trkpt>
      <trkpt lat="42.46223" lon="2.22214">
        <ele>1842.5</ele>
        <time>2016-06-29T12:54:13Z</time>
      </trkpt>
      <trkpt lat="42.46216" lon="2.22207">
        <ele>1842.98</ele>
        <time>2016-06-29T12:54:26Z</time>
      </trkpt>
      <trkpt lat="42.46212" lon="2.22198">
        <ele>1842.98</ele>
        <time>2016-06-29T12:54:39Z</time>
      </trkpt>
      <trkpt lat="42.46212" lon="2.22191">
        <ele>1842.98</ele>
        <time>2016-06-29T12:54:50Z</time>
      </trkpt>
      <trkpt lat="42.46213" lon="2.22185">
        <ele>1843.47</ele>
        <time>2016-06-29T12:55:01Z</time>
      </trkpt>
      <trkpt lat="42.4621" lon="2.22181">
        <ele>1842.5</ele>
        <time>2016-06-29T12:55:16Z</time>
      </trkpt>
      <trkpt lat="42.46207" lon="2.22181">
        <ele>1842.5</ele>
        <time>2016-06-29T12:55:28Z</time>
      </trkpt>
      <trkpt lat="42.46206" lon="2.2218">
        <ele>1842.5</ele>
        <time>2016-06-29T12:55:35Z</time>
      </trkpt>
      <trkpt lat="42.46203" lon="2.22176">
        <ele>1842.98</ele>
        <time>2016-06-29T12:55:48Z</time>
      </trkpt>
      <trkpt lat="42.46202" lon="2.22176">
        <ele>1842.98</ele>
        <time>2016-06-29T12:55:57Z</time>
      </trkpt>
      <trkpt lat="42.46198" lon="2.22185">
        <ele>1842.98</ele>
        <time>2016-06-29T12:56:09Z</time>
      </trkpt>
      <trkpt lat="42.46196" lon="2.22181">
        <ele>1844.43</ele>
        <time>2016-06-29T12:56:15Z</time>
      </trkpt>
      <trkpt lat="42.46196" lon="2.22173">
        <ele>1844.43</ele>
        <time>2016-06-29T12:56:27Z</time>
      </trkpt>
      <trkpt lat="42.46194" lon="2.22171">
        <ele>1844.91</ele>
        <time>2016-06-29T12:56:46Z</time>
      </trkpt>
      <trkpt lat="42.46193" lon="2.22169">
        <ele>1844.91</ele>
        <time>2016-06-29T12:56:57Z</time>
      </trkpt>
      <trkpt lat="42.46193" lon="2.22169">
        <ele>1844.91</ele>
        <time>2016-06-29T12:57:01Z</time>
      </trkpt>
      <trkpt lat="42.46189" lon="2.22165">
        <ele>1844.91</ele>
        <time>2016-06-29T12:57:10Z</time>
      </trkpt>
      <trkpt lat="42.46185" lon="2.2216">
        <ele>1845.39</ele>
        <time>2016-06-29T12:57:22Z</time>
      </trkpt>
      <trkpt lat="42.46185" lon="2.22159">
        <ele>1845.39</ele>
        <time>2016-06-29T12:57:43Z</time>
      </trkpt>
      <trkpt lat="42.46183" lon="2.2216">
        <ele>1845.87</ele>
        <time>2016-06-29T12:58:00Z</time>
      </trkpt>
      <trkpt lat="42.46182" lon="2.22157">
        <ele>1846.35</ele>
        <time>2016-06-29T12:58:12Z</time>
      </trkpt>
      <trkpt lat="42.46179" lon="2.22158">
        <ele>1846.83</ele>
        <time>2016-06-29T12:58:28Z</time>
      </trkpt>
      <trkpt lat="42.46173" lon="2.22156">
        <ele>1847.79</ele>
        <time>2016-06-29T12:58:41Z</time>
      </trkpt>
      <trkpt lat="42.46169" lon="2.2215">
        <ele>1848.27</ele>
        <time>2016-06-29T12:58:50Z</time>
      </trkpt>
      <trkpt lat="42.46167" lon="2.22148">
        <ele>1849.23</ele>
        <time>2016-06-29T12:59:03Z</time>
      </trkpt>
      <trkpt lat="42.46164" lon="2.22139">
        <ele>1849.71</ele>
        <time>2016-06-29T12:59:15Z</time>
      </trkpt>
      <trkpt lat="42.46166" lon="2.22135">
        <ele>1850.19</ele>
        <time>2016-06-29T12:59:26Z</time>
      </trkpt>
      <trkpt lat="42.46166" lon="2.22134">
        <ele>1850.19</ele>
        <time>2016-06-29T12:59:37Z</time>
      </trkpt>
      <trkpt lat="42.46168" lon="2.22134">
        <ele>1850.19</ele>
        <time>2016-06-29T12:59:48Z</time>
      </trkpt>
      <trkpt lat="42.46168" lon="2.22134">
        <ele>1850.68</ele>
        <time>2016-06-29T13:00:00Z</time>
      </trkpt>
      <trkpt lat="42.46171" lon="2.22137">
        <ele>1849.23</ele>
        <time>2016-06-29T13:00:13Z</time>
      </trkpt>
      <trkpt lat="42.46173" lon="2.22136">
        <ele>1849.71</ele>
        <time>2016-06-29T13:00:24Z</time>
      </trkpt>
      <trkpt lat="42.46175" lon="2.22136">
        <ele>1849.71</ele>
        <time>2016-06-29T13:00:39Z</time>
      </trkpt>
      <trkpt lat="42.46175" lon="2.22135">
        <ele>1849.71</ele>
        <time>2016-06-29T13:00:52Z</time>
      </trkpt>
      <trkpt lat="42.46173" lon="2.22129">
        <ele>1849.71</ele>
        <time>2016-06-29T13:01:05Z</time>
      </trkpt>
      <trkpt lat="42.46172" lon="2.2213">
        <ele>1850.19</ele>
        <time>2016-06-29T13:01:24Z</time>
      </trkpt>
      <trkpt lat="42.46174" lon="2.22124">
        <ele>1850.19</ele>
        <time>2016-06-29T13:01:34Z</time>
      </trkpt>
      <trkpt lat="42.46178" lon="2.2212">
        <ele>1851.64</ele>
        <time>2016-06-29T13:01:48Z</time>
      </trkpt>
      <trkpt lat="42.4618" lon="2.22115">
        <ele>1852.6</ele>
        <time>2016-06-29T13:01:58Z</time>
      </trkpt>
      <trkpt lat="42.46183" lon="2.22108">
        <ele>1854.04</ele>
        <time>2016-06-29T13:02:08Z</time>
      </trkpt>
      <trkpt lat="42.46184" lon="2.22105">
        <ele>1855</ele>
        <time>2016-06-29T13:02:17Z</time>
      </trkpt>
      <trkpt lat="42.46185" lon="2.22102">
        <ele>1855.96</ele>
        <time>2016-06-29T13:02:39Z</time>
      </trkpt>
      <trkpt lat="42.46189" lon="2.22107">
        <ele>1856.44</ele>
        <time>2016-06-29T13:02:50Z</time>
      </trkpt>
      <trkpt lat="42.46192" lon="2.22108">
        <ele>1857.4</ele>
        <time>2016-06-29T13:02:59Z</time>
      </trkpt>
      <trkpt lat="42.46196" lon="2.22108">
        <ele>1857.89</ele>
        <time>2016-06-29T13:03:05Z</time>
      </trkpt>
      <trkpt lat="42.46205" lon="2.22116">
        <ele>1857.89</ele>
        <time>2016-06-29T13:03:18Z</time>
      </trkpt>
      <trkpt lat="42.46214" lon="2.22118">
        <ele>1857.89</ele>
        <time>2016-06-29T13:03:31Z</time>
      </trkpt>
      <trkpt lat="42.46217" lon="2.22116">
        <ele>1857.89</ele>
        <time>2016-06-29T13:03:48Z</time>
      </trkpt>
      <trkpt lat="42.46217" lon="2.22117">
        <ele>1856.92</ele>
        <time>2016-06-29T13:03:59Z</time>
      </trkpt>
      <trkpt lat="42.46216" lon="2.22116">
        <ele>1856.92</ele>
        <time>2016-06-29T13:04:20Z</time>
      </trkpt>
      <trkpt lat="42.46216" lon="2.22116">
        <ele>1856.92</ele>
        <time>2016-06-29T13:04:28Z</time>
      </trkpt>
    </trkseg>
  </trk>
</gpx>